Graceful Lady — 00 — position and weather

sailwx.info

Track history (hours):
 
Tides and Currents Weather Stations Pressure Air Temp Water Temp Dewpoint Dewpoint Depression Visibility Wind Speed Wind Dir Waves Ship Positions

Graceful Lady

Last reported at 2017-May-29 13:00 UTC. Time now 2017-May-29 13:26 UTC.
Position N 31°15' E 122°05'.

Length 6 m.

Type: Pollution control. MMSI: 316014038.

Date/timePositionNaut miles runAvg speedWind from/ knotsBaromVisibWave heightAir tempDewpointWater temp
2017-May-29 13:00N 31°15' E 122°05'398110308.6
2017-May-29 13:00N 37°53' E 122°04'38136348.4
2017-May-29 13:00N 37°33' E 121°23'0 0.0
2017-May-29 12:30N 37°33' E 121°23'379170772.5
2017-May-29 12:30N 31°15' E 122°05'40017577.8
2017-May-29 12:29N 37°55' E 122°00'4601443.0
2017-May-29 12:10N 30°15' E 121°41'4382684.2
2017-May-29 12:00N 37°33' E 121°23'3791366179.6
2017-May-29 12:00N 31°15' E 122°05'40221620.0
2017-May-29 11:59N 37°57' E 121°57'402850.1
2017-May-29 11:30N 31°15' E 122°05'38041400.7
2017-May-29 11:30N 37°33' E 121°23'380761.1
2017-May-29 11:00N 31°15' E 122°05'37924839.6
2017-May-29 10:59N 37°33' E 121°23'0 0.0
2017-May-29 10:30N 37°33' E 121°23'37947109.6
2017-May-29 10:30N 31°15' E 122°05'4271194.7
2017-May-29 10:09N 38°07' E 119°53'431245.7
2017-May-29 10:06N 38°18' E 118°60'4504521.8
2017-May-29 10:01N 31°15' E 122°05'379195168.5
2017-May-29 10:00N 37°33' E 121°23'1229341.7
2017-May-29 10:00N 38°18' E 118°60'44159369.2
2017-May-29 10:00N 38°08' E 119°55'85767.1
2017-May-29 09:53N 38°06' E 121°43'3697.0
2017-May-29 09:30N 37°33' E 121°23'380273240.2
2017-May-29 09:30N 31°15' E 122°05'45025695.4
2017-May-29 09:29N 38°18' E 118°60'122252.8
2017-May-29 09:00N 37°33' E 121°23'380113850.1
2017-May-29 09:00N 31°15' E 122°05'42550958.0
2017-May-29 09:00N 38°08' E 120°05'52377.6
2017-May-29 08:51N 38°18' E 118°60'3861449.7
2017-May-29 08:35N 31°59' E 120°26'951181.9
2017-May-29 08:30N 31°15' E 122°05'42328171.8
2017-May-29 08:30N 38°07' E 120°11'677280.9
2017-May-29 08:29N 37°33' E 121°23'40351.9
2017-May-29 08:22N 38°12' E 121°33'4181150.2
2017-May-29 08:00N 31°15' E 122°05'37968309.0
2017-May-29 08:00N 37°33' E 121°23'626812.8
2017-May-29 08:00N 38°06' E 120°16'6023800.9
2017-May-29 07:59N 38°13' E 121°31'4183.1
2017-May-29 07:30N 37°33' E 121°23'37913136.3
2017-May-29 07:28N 31°15' E 122°05'42116296.0
2017-May-29 07:27N 38°15' E 121°28'52987.2
2017-May-29 07:24N 38°05' E 120°23'51130.1
2017-May-29 07:00N 38°16' E 121°26'4314192.2
2017-May-29 07:00N 37°33' E 121°23'379341544.9
2017-May-29 07:00N 31°15' E 122°05'4163904.0
2017-May-29 06:54N 38°04' E 120°29'53133.7
2017-May-29 06:30N 37°33' E 121°23'37965056.2
2017-May-29 06:30N 31°15' E 122°05'415497607.4
2017-May-29 06:30N 38°03' E 120°35'4998.6
2017-May-29 06:00N 37°33' E 121°23'448839.0
2017-May-29 06:00N 38°02' E 120°41'413247641.4
2017-May-29 05:59N 31°15' E 122°05'42610870.8
2017-May-29 05:57N 38°19' E 121°21'426940.4
2017-May-29 05:30N 31°15' E 122°05'379136618.0
2017-May-29 05:30N 37°33' E 121°23'4010985.4
2017-May-29 05:30N 38°00' E 120°47'4081.7
2017-May-29 05:00N 37°33' E 121°23'37933321.5
2017-May-29 05:00N 31°15' E 122°05'409133837.2
2017-May-29 05:00N 37°59' E 120°54'409842.7
2017-May-29 04:30N 31°15' E 122°05'379227696.6
2017-May-29 04:30N 37°33' E 121°23'31497.2
2017-May-29 04:27N 37°58' E 121°00'3171.4
2017-May-29 04:00N 37°33' E 121°23'37921018.1
2017-May-29 03:59N 31°15' E 122°05'0 0.0
2017-May-29 03:30N 31°15' E 122°05'379136618.0
2017-May-29 03:30N 37°33' E 121°23'3689270.2
2017-May-29 03:28N 31°24' E 121°31'34476.0
2017-May-29 03:24N 31°04' E 122°03'1127.5
2017-May-29 03:00N 31°15' E 122°05'38097585.8
2017-May-29 03:00N 37°33' E 121°23'38938894.7
2017-May-29 03:00N 31°05' E 122°01'356972.4
2017-May-29 02:59N 31°26' E 121°29'381855.7
2017-May-29 02:33N 37°47' E 121°15'3959668.9
2017-May-29 02:30N 31°15' E 122°05'3610838.3
2017-May-29 02:30N 31°28' E 121°26'36439753.3
2017-May-29 02:29N 37°33' E 121°23'38818863.7
2017-May-29 02:28N 31°06' E 121°58'40215576.6
2017-May-29 02:27N 37°47' E 121°15'4452422.8
2017-May-29 02:16N 30°22' E 121°30'50196.7
2017-May-29 02:00N 31°07' E 121°56'38692706.4
2017-May-29 02:00N 37°33' E 121°23'37985386.2
2017-May-29 02:00N 31°15' E 122°05'392108451.3
2017-May-29 02:00N 37°44' E 121°18'44457051.8
2017-May-29 01:59N 30°21' E 121°32'72157.6
2017-May-29 01:32N 31°32' E 121°21'421886.5
2017-May-29 01:30N 31°15' E 122°05'1244848.4
2017-May-29 01:30N 31°10' E 121°52'384345415.7
2017-May-29 01:30N 37°33' E 121°23'10713.9
2017-May-29 01:30N 37°42' E 121°22'37012107.5
2017-May-29 01:28N 31°32' E 121°20'3269.4
2017-May-29 01:00N 31°12' E 121°49'146453.2
2017-May-29 01:00N 31°15' E 122°05'38633106.8
2017-May-29 01:00N 37°40' E 121°26'7727.9
2017-May-29 00:59N 37°33' E 121°23'3571373.0
2017-May-29 00:43N 31°36' E 121°17'47216.7
2017-May-29 00:30N 31°15' E 122°05'1658540.4
2017-May-29 00:30N 31°15' E 121°46'37840068.4
2017-May-29 00:30N 37°33' E 121°23'5874.2
2017-May-29 00:30N 37°36' E 121°27'4351236.3
2017-May-29 00:08N 30°21' E 121°33'57432.8
2017-May-29 00:00N 31°18' E 121°44'193225.9
2017-May-29 00:00N 31°15' E 122°05'37971904.2
2017-May-29 00:00N 37°33' E 121°23'2534.8
2017-May-29 00:00N 37°35' E 121°24'4341721.3
2017-May-28 23:44N 30°21' E 121°33'1135289.3
2017-May-28 23:43N 31°59' E 120°26'95445.8
2017-May-28 23:30N 31°15' E 122°05'37937949.4
2017-May-28 23:30N 37°33' E 121°23'432388743.2
2017-May-28 23:30N 30°21' E 121°33'434390842.7
2017-May-28 23:30N 37°35' E 121°23'3759187.5
2017-May-28 23:27N 31°20' E 121°40'373836.2
2017-May-28 23:00N 37°33' E 121°23'37153419.7
2017-May-28 23:00N 31°22' E 121°37'37361085.7
2017-May-28 23:00N 37°35' E 121°23'382687264.1
2017-May-28 23:00N 31°15' E 122°05'613173.8
2017-May-28 22:58N 30°21' E 121°33'432918.5
2017-May-28 22:30N 37°33' E 121°23'432119610.0
2017-May-28 22:30N 30°21' E 121°33'633660.9
2017-May-28 22:29N 31°24' E 121°33'3719345.6
2017-May-28 22:27N 37°35' E 121°23'2 5.4
2017-May-28 22:01N 37°33' E 121°23'2150.1
2017-May-28 22:00N 37°35' E 121°23'38228636.5
2017-May-28 21:59N 31°15' E 122°05'331275.5
2017-May-28 21:57N 31°26' E 121°29'651552.4
2017-May-28 21:55N 30°21' E 121°33'62294.8
2017-May-28 21:42N 31°22' E 121°40'3711893.8
2017-May-28 21:30N 37°33' E 121°23'37195467.8
2017-May-28 21:30N 31°22' E 121°40'133116.4
2017-May-28 21:30N 31°28' E 121°27'3512655.5
2017-May-28 21:30N 31°15' E 122°05'616442.9
2017-May-28 21:29N 30°21' E 121°33'4343006.4
2017-May-28 21:21N 37°35' E 121°23'2 7.0
2017-May-28 21:00N 37°33' E 121°23'37980363.5
2017-May-28 21:00N 31°15' E 122°05'2114895.3
2017-May-28 21:00N 31°20' E 121°42'37548246.1
2017-May-28 21:00N 37°35' E 121°23'43471059.4
2017-May-28 20:59N 30°21' E 121°33'61127.0
2017-May-28 20:31N 31°15' E 122°05'380455400.4
2017-May-28 20:30N 37°33' E 121°23'375337294.2
2017-May-28 20:30N 31°18' E 121°43'37728282.1
2017-May-28 20:30N 37°35' E 121°23'2 4.8
2017-May-28 20:00N 37°33' E 121°23'377339041.4
2017-May-28 20:00N 31°16' E 121°45'17301.3
2017-May-28 19:57N 31°15' E 122°05'38254981.1
2017-May-28 19:57N 37°35' E 121°23'4341362.8
2017-May-28 19:37N 30°21' E 121°33'4323710.7
2017-May-28 19:30N 37°33' E 121°23'3791364340.6
2017-May-28 19:30N 31°14' E 121°48'151135.7
2017-May-28 19:30N 31°15' E 122°05'382274905.6
2017-May-28 19:30N 37°35' E 121°23'4341762.1
2017-May-28 19:15N 30°21' E 121°33'4321809.7
2017-May-28 19:00N 37°33' E 121°23'38298138.9
2017-May-28 19:00N 31°12' E 121°50'1315895.1
2017-May-28 19:00N 31°15' E 122°05'38241652.4
2017-May-28 19:00N 37°35' E 121°23'43450415.8
2017-May-28 18:59N 30°21' E 121°32'432904.3
2017-May-28 18:30N 37°33' E 121°23'384460903.0
2017-May-28 18:30N 31°09' E 121°53'121538.5
2017-May-28 18:30N 31°15' E 122°05'38262478.6
2017-May-28 18:30N 37°35' E 121°23'4344341.5
2017-May-28 18:24N 30°21' E 121°32'61155.8
2017-May-28 18:00N 31°15' E 122°05'380105092.4
2017-May-28 18:00N 37°33' E 121°23'432777278.1
2017-May-28 18:00N 30°21' E 121°32'511667.4
2017-May-28 17:58N 31°07' E 121°57'38915215.2
2017-May-28 17:57N 37°35' E 121°23'382878.9
2017-May-28 17:30N 31°15' E 122°05'6115634.8
2017-May-28 17:30N 30°21' E 121°32'43267588.5
2017-May-28 17:30N 37°33' E 121°23'2525.3
2017-May-28 17:30N 37°35' E 121°23'508951312.9
2017-May-28 17:24N 48°40' W 123°24'5380440213.6
2017-May-28 17:23N 31°04' E 122°01'67199.9
2017-May-28 17:03N 29°59' E 122°20'45610946.4
2017-May-28 17:00N 37°33' E 121°23'433259984.2
2017-May-28 17:00N 30°19' E 121°35'6111614.5
2017-May-28 17:00N 31°15' E 122°05'53693865875.4
2017-May-28 17:00N 48°45' W 123°21'50882289693.9
2017-May-28 17:00N 37°35' E 121°23'3946008.1
2017-May-28 16:56N 31°03' E 122°05'1228.9
2017-May-28 16:30N 31°15' E 122°05'37932528.1
2017-May-28 16:30N 37°33' E 121°23'43671384.8
2017-May-28 16:29N 30°17' E 121°39'512132.2
2017-May-28 16:28N 31°01' E 122°08'3965375.5
2017-May-28 16:24N 37°35' E 121°23'382993.9
2017-May-28 16:01N 31°15' E 122°05'379341544.9
2017-May-28 16:00N 37°33' E 121°23'2164.8
2017-May-28 16:00N 37°35' E 121°23'4002047.1
2017-May-28 15:48N 30°57' E 122°12'1862.8
2017-May-28 15:30N 31°15' E 122°05'37932528.1
2017-May-28 15:30N 37°33' E 121°23'24202.1
2017-May-28 15:30N 37°35' E 121°23'382786.8
2017-May-28 15:00N 31°15' E 122°05'380124200.1
2017-May-28 15:00N 37°33' E 121°23'2187.4
2017-May-28 15:00N 37°35' E 121°24'4071298.0
2017-May-28 14:41N 30°50' E 122°13'4052308.3
2017-May-28 14:30N 37°33' E 121°23'379761.1
2017-May-28 14:00N 31°15' E 122°05'38532218.2
2017-May-28 14:00N 37°38' E 121°30'4159278.0
2017-May-28 13:57N 30°45' E 122°13'3068.7
2017-May-28 13:30N 31°15' E 122°05'379124198.1
2017-May-28 13:30N 37°33' E 121°23'91046.2
2017-May-28 13:30N 37°40' E 121°31'4205001.5
2017-May-28 13:25N 30°42' E 122°14'3483.9
2017-May-28 13:00N 31°15' E 122°05'37954647.2
2017-May-28 13:00N 37°33' E 121°23'91196.3
2017-May-28 13:00N 37°40' E 121°31'422151856.6
2017-May-28 12:59N 30°40' E 122°15'9269.1
2017-May-28 12:57N 30°36' E 122°05'3987.1
2017-May-28 12:30N 31°15' E 122°05'37945539.3
2017-May-28 12:30N 37°33' E 121°23'91523.3
2017-May-28 12:30N 37°40' E 121°31'42512636.5
2017-May-28 12:28N 30°37' E 122°15'93060.4
2017-May-28 12:27N 30°36' E 122°05'418911.8
2017-May-28 12:00N 37°33' E 121°23'92098.8
2017-May-28 12:00N 37°40' E 121°31'38634767.8
2017-May-28 11:59N 31°15' E 122°05'412051.8
2017-May-28 11:58N 30°34' E 122°14'420927.2
2017-May-28 11:31N 37°33' E 121°23'37956924.2
2017-May-28 11:30N 31°15' E 122°05'38640902.1
2017-May-28 11:30N 37°40' E 121°31'4305358.1
2017-May-28 11:25N 30°31' E 122°14'44108.1
2017-May-28 11:00N 31°15' E 122°05'37944070.3
2017-May-28 11:00N 37°33' E 121°23'9175.0
2017-May-28 10:57N 37°40' E 121°31'3731006.2
2017-May-28 10:34N 31°27' E 121°29'3665652.3
2017-May-28 10:30N 37°33' E 121°23'36687900.5
2017-May-28 10:30N 31°26' E 121°30'37437357.3
2017-May-28 10:30N 37°40' E 121°31'38673198.8
2017-May-28 10:29N 31°15' E 122°05'2960.8
2017-May-28 10:00N 31°24' E 121°33'368189480.5
2017-May-28 10:00N 37°33' E 121°23'9718.2
2017-May-28 10:00N 37°40' E 121°31'38636600.2
2017-May-28 09:59N 31°15' E 122°05'0 0.0
2017-May-28 09:30N 31°15' E 122°05'2515210.6
2017-May-28 09:30N 31°22' E 121°37'370333315.8
2017-May-28 09:30N 37°33' E 121°23'9151.0
2017-May-28 09:27N 37°41' E 121°28'388889.8
2017-May-28 09:00N 31°15' E 122°05'2111038.1
2017-May-28 09:00N 31°20' E 121°41'373191611.5
2017-May-28 09:00N 37°33' E 121°23'111002.8
2017-May-28 09:00N 37°43' E 121°24'4353456.1
2017-May-28 08:52N 30°30' E 122°16'54149.4
2017-May-28 08:31N 31°17' E 121°45'5412075.5
2017-May-28 08:30N 30°30' E 122°16'425764100.9
2017-May-28 08:30N 37°33' E 121°23'131204.0
2017-May-28 08:30N 37°46' E 121°21'39388315.6
2017-May-28 08:29N 31°15' E 122°05'952955.4
2017-May-28 08:27N 31°59' E 120°26'83185.1
2017-May-28 08:00N 31°13' E 121°48'38097670.8
2017-May-28 08:00N 37°33' E 121°23'37975898.9
2017-May-28 08:00N 31°15' E 122°05'39594847.7
2017-May-28 08:00N 37°48' E 121°17'370828.5
2017-May-28 07:33N 31°38' E 121°17'411074.1
2017-May-28 07:31N 31°10' E 121°52'38349282.7
2017-May-28 07:30N 37°33' E 121°23'379273235.9
2017-May-28 07:30N 31°15' E 122°05'4710617.8
2017-May-28 07:30N 31°38' E 121°17'372223115.4
2017-May-28 07:30N 37°50' E 121°16'4422206.2
2017-May-28 07:18N 30°30' E 122°16'6574382.2
2017-May-28 07:09N 22°19' E 114°08'6745025.2
2017-May-28 07:01N 31°07' E 121°57'103090.2
2017-May-28 07:00N 31°15' E 122°05'456784.7
2017-May-28 07:00N 30°30' E 122°16'42436385.3
2017-May-28 06:59N 37°33' E 121°23'988197601.9
2017-May-28 06:59N 22°19' E 114°09'67760920.1
2017-May-28 06:58N 31°38' E 121°17'37213522.6
2017-May-28 06:57N 37°50' E 121°16'407935.6
2017-May-28 06:30N 31°05' E 122°02'3621827.9
2017-May-28 06:30N 30°30' E 122°16'42449295.6
2017-May-28 06:30N 37°33' E 121°23'355425401.3
2017-May-28 06:30N 31°38' E 121°17'355726.4
2017-May-28 06:01N 37°33' E 121°23'39164005.6
2017-May-28 06:00N 31°03' E 122°08'3420130.5
2017-May-28 06:00N 30°30' E 122°16'451281.8
2017-May-28 05:58N 31°15' E 122°05'0 0.0
2017-May-28 05:30N 31°15' E 122°05'4512519.6
2017-May-28 05:30N 30°30' E 122°15'298090.8
2017-May-28 05:30N 30°59' E 122°11'395101641.8
2017-May-28 05:30N 37°33' E 121°23'3701773.1
2017-May-28 05:17N 31°23' E 121°30'3701319.8
2017-May-28 05:00N 37°33' E 121°23'400205967.7
2017-May-28 05:00N 30°54' E 122°13'2125727.0
2017-May-28 05:00N 31°15' E 122°05'453783.7
2017-May-28 05:00N 30°30' E 122°15'6621463.7
2017-May-28 04:59N 31°24' E 121°31'50103.2
2017-May-28 04:30N 30°49' E 122°12'188226.2
2017-May-28 04:30N 30°30' E 122°15'4527102.1
2017-May-28 04:30N 31°15' E 122°05'38045540.0
2017-May-28 04:30N 37°33' E 121°23'0 0.0
2017-May-28 04:00N 37°33' E 121°23'41254965.0
2017-May-28 04:00N 30°42' E 122°13'333118.4
2017-May-28 03:59N 31°15' E 122°05'45121.5
2017-May-28 03:37N 30°30' E 122°15'4426172.4
2017-May-28 03:33N 37°50' E 121°16'43612649.1
2017-May-28 03:31N 30°37' E 122°13'41879162.4
2017-May-28 03:30N 37°33' E 121°23'37962099.1
2017-May-28 03:30N 31°15' E 122°05'45719.6
2017-May-28 03:26N 30°30' E 122°15'4422314.6
2017-May-28 03:15N 37°50' E 121°16'4401766.6
2017-May-28 03:00N 30°32' E 122°11'440792301.4
2017-May-28 03:00N 37°50' E 121°16'186600.5
2017-May-28 02:59N 37°33' E 121°23'38091080.1
2017-May-28 02:59N 31°15' E 122°05'451643.0
2017-May-28 02:58N 30°30' E 122°15'45100.2
2017-May-28 02:31N 31°15' E 122°05'46164198.9
2017-May-28 02:30N 30°29' E 122°07'42569553.2
2017-May-28 02:30N 37°33' E 121°23'4246852.4
2017-May-28 02:26N 30°30' E 122°15'1125.7
2017-May-28 02:00N 30°27' E 122°03'116757.0
2017-May-28 02:00N 30°30' E 122°15'4241528039.6
2017-May-28 02:00N 37°33' E 121°23'37942693.1
2017-May-28 02:00N 31°15' E 122°05'3971598.3
2017-May-28 01:45N 37°50' E 121°16'3971692.8
2017-May-28 01:31N 31°15' E 122°05'4532526.8
2017-May-28 01:30N 30°30' E 122°15'42454572.1
2017-May-28 01:30N 37°33' E 121°23'18323.9
2017-May-28 01:27N 37°50' E 121°16'4496289.0
2017-May-28 01:22N 30°21' E 121°32'4311154.9
2017-May-28 01:00N 37°33' E 121°23'3799758.3
2017-May-28 00:58N 31°15' E 122°05'39725094.3
2017-May-28 00:57N 37°50' E 121°16'44226990.1
2017-May-28 00:56N 30°30' E 122°15'741433.8
2017-May-28 00:52N 31°30' E 121°24'363977.4
2017-May-28 00:30N 37°33' E 121°23'379124196.2
2017-May-28 00:30N 31°15' E 122°05'4527149.4
2017-May-28 00:30N 30°30' E 122°16'44279630.4
2017-May-28 00:30N 37°50' E 121°16'377888.6
2017-May-28 00:04N 31°33' E 121°19'43718.9
2017-May-28 00:01N 31°15' E 122°05'37935029.7
2017-May-28 00:00N 37°33' E 121°23'183665.2
2017-May-28 00:00N 37°50' E 121°16'4511072.3
2017-May-27 23:34N 30°20' E 121°57'4336693.8
2017-May-27 23:30N 37°33' E 121°23'38052546.2
2017-May-27 23:30N 31°15' E 122°05'3976877.0
2017-May-27 23:27N 37°50' E 121°16'1842.0
2017-May-27 23:00N 37°33' E 121°23'380683100.6
2017-May-27 23:00N 31°15' E 122°05'39731096.6
2017-May-27 23:00N 37°50' E 121°16'4423005.0
2017-May-27 22:51N 30°30' E 122°16'45132.0
2017-May-27 22:30N 31°15' E 122°05'37968309.0
2017-May-27 22:30N 37°33' E 121°23'183884.4
2017-May-27 22:30N 37°50' E 121°16'4424589.8
2017-May-27 22:24N 30°30' E 122°16'1984.7
2017-May-27 22:10N 30°20' E 121°57'206609.6
2017-May-27 22:10N 30°21' E 121°33'61373.8
2017-May-27 22:00N 31°15' E 122°05'379136618.0
2017-May-27 22:00N 37°33' E 121°23'181788.0
2017-May-27 22:00N 37°50' E 121°16'4503597.9
2017-May-27 21:52N 30°21' E 121°33'38218.9
2017-May-27 21:42N 30°30' E 122°16'19113.0
2017-May-27 21:32N 30°20' E 121°57'552470.9
2017-May-27 21:30N 31°15' E 122°05'379170772.5
2017-May-27 21:30N 37°33' E 121°23'181788.0
2017-May-27 21:30N 37°50' E 121°16'44213273.2
2017-May-27 21:28N 30°30' E 122°16'4599.7
2017-May-27 21:00N 31°15' E 122°05'455817.5
2017-May-27 21:00N 30°30' E 122°16'425382055.8
2017-May-27 21:00N 37°33' E 121°23'4321461.0
2017-May-27 20:42N 30°21' E 121°33'4502845.6
2017-May-27 20:33N 37°50' E 121°16'39710757.0
2017-May-27 20:30N 31°15' E 122°05'38065057.2
2017-May-27 20:30N 37°33' E 121°23'43218092.5
2017-May-27 20:29N 30°21' E 121°33'374184.8
2017-May-27 20:28N 30°32' E 122°15'4415925.0
2017-May-27 20:24N 37°50' E 121°16'4501155.7
2017-May-27 20:00N 30°21' E 121°33'43262236.3
2017-May-27 20:00N 37°33' E 121°23'183902.4
2017-May-27 20:00N 37°50' E 121°16'39759616.2
2017-May-27 19:59N 31°15' E 122°05'415882.6
2017-May-27 19:59N 30°35' E 122°14'4186.2
2017-May-27 19:30N 31°15' E 122°05'37952545.4
2017-May-27 19:30N 37°33' E 121°23'4326592.7
2017-May-27 19:26N 30°21' E 121°33'37258.8
2017-May-27 19:17N 30°39' E 122°11'4151461.6
2017-May-27 19:00N 37°33' E 121°23'379341544.9
2017-May-27 19:00N 31°15' E 122°05'39744715.4
2017-May-27 19:00N 37°50' E 121°16'4507101.6
2017-May-27 18:56N 30°21' E 121°33'39138.2
2017-May-27 18:39N 30°43' E 122°10'32222.7
2017-May-27 18:31N 31°15' E 122°05'38035030.8
2017-May-27 18:30N 37°33' E 121°23'4105720.6
2017-May-27 18:26N 30°44' E 122°09'397765.5
2017-May-27 18:25N 30°21' E 121°33'45016188.9
2017-May-27 18:24N 37°50' E 121°16'1847.9
2017-May-27 18:00N 37°33' E 121°23'38071905.3
2017-May-27 18:00N 31°15' E 122°05'39743360.4
2017-May-27 18:00N 37°50' E 121°16'42625118.5
2017-May-27 17:59N 30°47' E 122°07'408867.4
2017-May-27 17:30N 37°33' E 121°23'37968309.0
2017-May-27 17:30N 31°15' E 122°05'39752995.9
2017-May-27 17:30N 37°50' E 121°16'42337160.2
2017-May-27 17:29N 30°49' E 122°05'405849.7
2017-May-27 17:00N 37°33' E 121°23'379273235.9
2017-May-27 17:00N 31°15' E 122°05'23704.2
2017-May-27 16:58N 30°52' E 122°04'42015285.4
2017-May-27 16:57N 37°50' E 121°16'418951.0
2017-May-27 16:30N 30°54' E 122°04'400719463.5
2017-May-27 16:30N 37°33' E 121°23'37962098.1
2017-May-27 16:30N 31°15' E 122°05'3977300.1
2017-May-27 16:27N 37°50' E 121°16'1842.0
2017-May-27 16:00N 37°33' E 121°23'37956924.2
2017-May-27 16:00N 31°15' E 122°05'17976.2
2017-May-27 15:59N 30°57' E 122°04'4154846.2
2017-May-27 15:54N 37°50' E 121°16'3971030.1
2017-May-27 15:30N 31°15' E 122°05'37935952.1
2017-May-27 15:30N 37°33' E 121°23'394354819.9
2017-May-27 15:30N 30°60' E 122°04'412164872.7
2017-May-27 15:30N 37°50' E 121°16'397820.0
2017-May-27 15:01N 31°15' E 122°05'37947109.6
2017-May-27 15:00N 37°33' E 121°23'3928503.3
2017-May-27 14:57N 31°02' E 122°02'41037847.1
2017-May-27 14:57N 37°50' E 121°16'408922.5
2017-May-27 14:30N 31°04' E 122°01'390200734.6
2017-May-27 14:30N 37°33' E 121°23'183021.5
2017-May-27 14:30N 37°50' E 121°16'397820.4
2017-May-27 14:01N 31°15' E 122°05'54168.1
2017-May-27 13:41N 30°21' E 121°57'4322332.1
2017-May-27 13:30N 37°33' E 121°23'37962099.1
2017-May-27 13:30N 31°15' E 122°05'118119.6
2017-May-27 13:30N 31°06' E 121°57'4062003.2
2017-May-27 13:18N 37°50' E 121°16'3971344.8
2017-May-27 13:00N 31°15' E 122°05'379455393.2
2017-May-27 13:00N 37°33' E 121°23'386347551.0
2017-May-27 13:00N 31°07' E 121°55'404161608.4
2017-May-27 13:00N 37°50' E 121°16'1838.0
2017-May-27 12:30N 37°33' E 121°23'384345312.9
2017-May-27 12:30N 31°10' E 121°52'40230112.6
2017-May-27 12:30N 37°50' E 121°16'398817.9
2017-May-27 12:00N 31°13' E 121°48'380684067.3
2017-May-27 12:00N 37°33' E 121°23'37980362.2
2017-May-27 12:00N 31°15' E 122°05'39747696.3
2017-May-27 12:00N 37°50' E 121°16'394809.2
2017-May-27 11:30N 31°17' E 121°44'376225626.5
2017-May-27 11:30N 37°33' E 121°23'379757.7
2017-May-27 11:00N 31°15' E 122°05'227345.3
2017-May-27 11:00N 31°20' E 121°40'373121934.0
2017-May-27 11:00N 37°33' E 121°23'4327268.8
2017-May-27 10:56N 30°21' E 121°57'4504708.3
2017-May-27 10:51N 37°50' E 121°16'3971173.7
2017-May-27 10:30N 31°15' E 122°05'379455393.2
2017-May-27 10:30N 37°33' E 121°23'370190264.0
2017-May-27 10:30N 31°23' E 121°35'3883559.3
2017-May-27 10:24N 37°50' E 121°16'45016035.5
2017-May-27 10:22N 30°21' E 121°57'15409.7
2017-May-27 10:20N 30°13' E 121°43'4401347.3
2017-May-27 10:00N 37°33' E 121°23'37931049.5
2017-May-27 09:59N 31°15' E 122°05'62933.2
2017-May-27 09:55N 30°17' E 121°40'4545635.5
2017-May-27 09:51N 37°50' E 121°16'45013725.5
2017-May-27 09:49N 30°21' E 121°57'54177.6
2017-May-27 09:30N 31°15' E 122°05'38059400.0
2017-May-27 09:30N 37°33' E 121°23'4323465.6
2017-May-27 09:23N 30°21' E 121°34'4505415.7
2017-May-27 09:18N 37°50' E 121°16'3971377.0
2017-May-27 09:00N 31°15' E 122°05'38075900.1
2017-May-27 09:00N 37°33' E 121°23'8013116.9
2017-May-27 09:00N 38°08' E 119°52'4701779.7
2017-May-27 08:44N 30°25' E 121°26'107737.6
2017-May-27 08:35N 31°58' E 120°26'3714837.4
2017-May-27 08:30N 38°09' E 119°57'427128103.4
2017-May-27 08:30N 31°15' E 122°05'38065057.2
2017-May-27 08:30N 37°33' E 121°23'42715515.4
2017-May-27 08:28N 30°26' E 121°23'4445751.3
2017-May-27 08:24N 37°50' E 121°16'354922.6
2017-May-27 08:01N 31°58' E 120°26'371166833.7
2017-May-27 08:00N 38°09' E 120°03'42647931.3
2017-May-27 08:00N 31°15' E 122°05'379683089.8
2017-May-27 08:00N 37°33' E 121°23'4246944.5
2017-May-27 07:56N 30°28' E 121°15'424965.1
2017-May-27 07:30N 37°33' E 121°23'692372.5
2017-May-27 07:28N 38°08' E 120°09'56734.8
2017-May-27 07:24N 37°50' E 121°16'1847.9
2017-May-27 07:00N 37°33' E 121°23'37980363.5
2017-May-27 07:00N 31°15' E 122°05'4224282.2
2017-May-27 06:54N 38°07' E 120°15'48885.9
2017-May-27 06:51N 38°30' E 121°09'59170.5
2017-May-27 06:30N 37°33' E 121°23'380455400.4
2017-May-27 06:30N 31°15' E 122°05'421302923.2
2017-May-27 06:30N 38°06' E 120°20'47907.2
2017-May-27 06:27N 38°28' E 121°13'38640.4
2017-May-27 06:24N 37°50' E 121°16'42109.1
2017-May-27 06:00N 38°05' E 120°26'5625138.7
2017-May-27 06:00N 37°33' E 121°23'379113848.3
2017-May-27 06:00N 31°15' E 122°05'43370790.0
2017-May-27 06:00N 38°26' E 121°18'53108.0
2017-May-27 05:30N 37°33' E 121°23'5126304.9
2017-May-27 05:30N 38°03' E 120°32'41615279.2
2017-May-27 05:28N 31°15' E 122°05'3972191.0
2017-May-27 05:18N 37°50' E 121°16'31199.0
2017-May-27 05:08N 38°20' E 121°26'42326.1
2017-May-27 05:00N 38°02' E 120°38'4613924.4
2017-May-27 05:00N 37°33' E 121°23'181702.8
2017-May-27 05:00N 37°50' E 121°16'39755028.3
2017-May-27 04:59N 31°15' E 122°05'412855.3
2017-May-27 04:30N 38°01' E 120°45'4221430.2
2017-May-27 04:30N 37°33' E 121°23'379124198.1
2017-May-27 04:30N 31°15' E 122°05'39771533.6
2017-May-27 04:30N 37°50' E 121°16'38869751.8
2017-May-27 04:29N 31°23' E 121°36'4121529.2
2017-May-27 04:13N 38°15' E 121°35'2 9.5
2017-May-27 04:00N 38°14' E 121°37'3946833.3
2017-May-27 04:00N 37°60' E 120°51'402180712.1
2017-May-27 04:00N 31°20' E 121°42'37395848.4
2017-May-27 04:00N 37°33' E 121°23'37913136.3
2017-May-27 03:58N 31°15' E 122°05'1735.9
2017-May-27 03:30N 31°16' E 121°46'416115109.9
2017-May-27 03:30N 38°11' E 121°42'417100114.5
2017-May-27 03:30N 31°15' E 122°05'3801366201.1
2017-May-27 03:30N 37°33' E 121°23'335203.7
2017-May-27 03:30N 37°59' E 120°58'4511228.0
2017-May-27 03:08N 30°28' E 121°06'57484.6
2017-May-27 03:00N 31°11' E 121°50'406146192.2
2017-May-27 03:00N 37°55' E 121°00'40490939.6
2017-May-27 03:00N 31°15' E 122°05'379195168.5
2017-May-27 03:00N 37°33' E 121°23'379774.5
2017-May-27 02:30N 31°15' E 122°05'1112888.3
2017-May-27 02:30N 31°08' E 121°56'386106789.2
2017-May-27 02:30N 37°33' E 121°23'181839.1
2017-May-27 02:30N 37°50' E 121°16'33776.0
2017-May-27 02:27N 38°06' E 121°52'40500.8
2017-May-27 02:22N 37°51' E 121°04'3 8.4
2017-May-27 02:00N 37°48' E 121°06'406132756.7
2017-May-27 02:00N 31°05' E 122°01'38951836.8
2017-May-27 02:00N 37°33' E 121°23'5084220502.4
2017-May-27 01:58N 48°53' W 123°24'5364182166.6
2017-May-27 01:57N 31°15' E 122°05'397357668.8
2017-May-27 01:57N 37°50' E 121°16'818.8
2017-May-27 01:30N 37°45' E 121°08'171648.9
2017-May-27 01:30N 37°33' E 121°23'3911406783.4
2017-May-27 01:30N 31°04' E 122°07'111043.1
2017-May-27 01:29N 31°15' E 122°05'3974283.7
2017-May-27 01:24N 37°50' E 121°16'508221449.5
2017-May-27 01:09N 48°43' W 123°21'5440222553.8
2017-May-27 01:08N 30°24' E 121°28'4293433.1
2017-May-27 01:00N 37°33' E 121°23'181381.7
2017-May-27 01:00N 37°50' E 121°16'397357691.8
2017-May-27 01:00N 31°15' E 122°05'1511061.9
2017-May-27 00:59N 31°01' E 122°13'5315926.8
2017-May-27 00:59N 30°23' E 121°29'440198221.3
2017-May-27 00:59N 37°43' E 121°04'50961528863.3
2017-May-27 00:59N 48°40' W 123°24'541913200.3
2017-May-27 00:34N 30°22' E 121°57'4326534.9
2017-May-27 00:30N 37°33' E 121°23'181573.9
2017-May-27 00:30N 37°50' E 121°16'44949001.5
2017-May-27 00:29N 30°21' E 121°32'51304.6
2017-May-27 00:19N 30°55' E 122°16'22361.5
2017-May-27 00:15N 31°15' E 122°05'541488.0
2017-May-27 00:13N 30°22' E 121°57'4512124.5
2017-May-27 00:01N 37°53' E 122°14'458135.6
2017-May-27 00:00N 37°33' E 121°23'3801366201.1
2017-May-27 00:00N 31°15' E 122°05'6124310.2
2017-May-27 00:00N 30°21' E 121°32'44959901.5
2017-May-27 00:00N 37°50' E 121°16'45019990.5
2017-May-26 23:58N 30°22' E 121°57'124742.9
2017-May-26 23:48N 31°59' E 120°26'36439751.8
2017-May-26 23:48N 37°52' E 122°16'46158.5
2017-May-26 23:30N 37°33' E 121°23'380455400.4
2017-May-26 23:30N 31°15' E 122°05'39740873.0
2017-May-26 23:30N 37°50' E 121°16'4497001.1
2017-May-26 23:26N 30°21' E 121°32'212723.4
2017-May-26 23:25N 30°22' E 121°57'30119.5
2017-May-26 23:10N 30°45' E 122°19'32197.4
2017-May-26 23:00N 31°15' E 122°05'339025.5
2017-May-26 23:00N 30°44' E 122°18'411185017.8
2017-May-26 23:00N 37°33' E 121°23'432103612.2
2017-May-26 23:00N 30°21' E 121°32'44995128.8
2017-May-26 23:00N 37°50' E 121°16'4503722.4
2017-May-26 22:52N 30°22' E 121°57'4321162.4
2017-May-26 22:30N 37°33' E 121°23'432155420.4
2017-May-26 22:30N 30°21' E 121°32'421949.4
2017-May-26 22:29N 30°40' E 122°15'35774.2
2017-May-26 22:26N 31°15' E 122°05'39710595.5
2017-May-26 22:24N 37°50' E 121°16'35437459.7
2017-May-26 22:23N 31°59' E 120°26'113298.9
2017-May-26 22:00N 30°21' E 121°32'43262169.0
2017-May-26 22:00N 37°33' E 121°23'193284.5
2017-May-26 22:00N 37°51' E 121°15'35453138.6
2017-May-26 21:59N 31°59' E 120°26'9515581.9
2017-May-26 21:59N 31°15' E 122°05'391052.2
2017-May-26 21:57N 30°36' E 122°14'3989.4
2017-May-26 21:30N 31°15' E 122°05'4338289.5
2017-May-26 21:30N 30°33' E 122°14'3868424.8
2017-May-26 21:30N 30°21' E 121°32'43277710.2
2017-May-26 21:30N 37°33' E 121°23'4322124.7
2017-May-26 21:18N 30°22' E 121°57'4544468.7
2017-May-26 21:12N 37°54' E 121°06'25133.2
2017-May-26 21:00N 37°33' E 121°23'432172689.4
2017-May-26 21:00N 30°21' E 121°32'4557834.7
2017-May-26 20:57N 37°55' E 121°04'40426423.3
2017-May-26 20:56N 31°15' E 122°05'61144.2
2017-May-26 20:30N 30°21' E 121°32'43244405.8
2017-May-26 20:30N 37°33' E 121°23'32310.5
2017-May-26 20:24N 37°57' E 120°57'406208959.7
2017-May-26 20:23N 31°15' E 122°05'7353389288.4
2017-May-26 20:22N 05°16' W 004°02'726919914.0
2017-May-26 20:00N 37°33' E 121°23'352443.9
2017-May-26 20:00N 37°58' E 120°53'45837513.1
2017-May-26 19:59N 30°21' E 121°32'61109376.6
2017-May-26 19:59N 31°15' E 122°05'379800.3
2017-May-26 19:30N 37°33' E 121°23'40628.0
2017-May-26 19:27N 37°60' E 120°46'410369301.7
2017-May-26 19:26N 31°15' E 122°05'543792.0
2017-May-26 19:26N 30°22' E 121°57'4321022.6
2017-May-26 19:00N 37°33' E 121°23'443840.3
2017-May-26 19:00N 38°01' E 120°41'46428291.1
2017-May-26 18:59N 30°22' E 121°57'541231.9
2017-May-26 18:56N 31°15' E 122°05'611301.6
2017-May-26 18:53N 30°21' E 121°32'4321126.2
2017-May-26 18:30N 37°33' E 121°23'380341550.3
2017-May-26 18:30N 31°15' E 122°05'6114577.2
2017-May-26 18:30N 30°21' E 121°32'46387798.8
2017-May-26 18:30N 38°02' E 120°36'7222174502.9
2017-May-26 18:27N 05°16' W 004°02'732916357.7
2017-May-26 18:00N 30°21' E 121°32'46444004.2
2017-May-26 18:00N 38°03' E 120°30'7218333119.1
2017-May-26 17:58N 05°16' W 004°02'73531890834.4
2017-May-26 17:58N 31°15' E 122°05'61131.7
2017-May-26 17:30N 30°21' E 121°32'432103585.9
2017-May-26 17:30N 37°33' E 121°23'556049.7
2017-May-26 17:30N 38°04' E 120°25'4171687.0
2017-May-26 17:15N 31°15' E 122°05'0 0.0
2017-May-26 17:00N 31°15' E 122°05'379683089.8
2017-May-26 17:00N 37°33' E 121°23'62200.2
2017-May-26 16:42N 38°05' E 120°17'720585041.7
2017-May-26 16:37N 05°17' W 004°02'726866408.8
2017-May-26 16:30N 37°33' E 121°23'6310804.9
2017-May-26 16:30N 38°05' E 120°15'42094579.7
2017-May-26 16:29N 31°15' E 122°05'6124282.7
2017-May-26 16:29N 30°21' E 121°32'7328393738.1
2017-May-26 16:28N 05°17' W 004°01'733115927.6
2017-May-26 16:00N 30°19' E 121°35'43344576.6
2017-May-26 16:00N 37°33' E 121°23'37912888.5
2017-May-26 15:58N 31°15' E 122°05'7352120304.5
2017-May-26 15:54N 05°17' W 004°01'7196112639.0
2017-May-26 15:51N 38°06' E 120°08'68196.7
2017-May-26 15:30N 37°33' E 121°23'7013338.9
2017-May-26 15:30N 38°06' E 120°05'47677927.5
2017-May-26 15:29N 30°17' E 121°40'62491.2
2017-May-26 15:22N 31°15' E 122°05'735258685.3
2017-May-26 15:14N 05°17' W 004°01'733931009.0
2017-May-26 15:00N 30°13' E 121°43'440226365.7
2017-May-26 15:00N 37°33' E 121°23'3796384.0
2017-May-26 14:56N 31°15' E 122°05'4251746.6
2017-May-26 14:42N 38°07' E 119°57'4251579.1
2017-May-26 14:25N 31°15' E 122°05'4273274.9
2017-May-26 14:18N 38°07' E 119°53'80277.2
2017-May-26 14:00N 37°33' E 121°23'0 0.0
2017-May-26 13:30N 37°33' E 121°23'3791366179.6
2017-May-26 13:30N 31°15' E 122°05'379757.3
2017-May-26 13:00N 37°33' E 121°23'3797897.0
2017-May-26 12:57N 31°15' E 122°05'4332671.4
2017-May-26 12:48N 38°11' E 119°37'92324.7
2017-May-26 12:31N 37°33' E 121°23'37997584.3
2017-May-26 12:30N 31°15' E 122°05'54125.8
2017-May-26 12:05N 30°22' E 121°57'54734.9
2017-May-26 12:00N 31°15' E 122°05'379113848.3
2017-May-26 12:00N 37°33' E 121°23'1854.9
2017-May-26 11:40N 37°43' E 121°04'44311567.0
2017-May-26 11:38N 30°22' E 121°57'54438.4
2017-May-26 11:30N 31°15' E 122°05'37950599.2
2017-May-26 11:30N 37°33' E 121°23'18401.3
2017-May-26 11:27N 37°43' E 121°04'4431944.5
2017-May-26 11:14N 30°22' E 121°57'4431998.2
2017-May-26 11:00N 37°43' E 121°04'181938.4
2017-May-26 11:00N 37°33' E 121°23'37991078.6
2017-May-26 10:59N 31°15' E 122°05'543792.0
2017-May-26 10:59N 30°22' E 121°57'735238582.8
2017-May-26 10:47N 05°16' W 004°02'725326007.2
2017-May-26 10:30N 37°44' E 121°07'39274265.4
2017-May-26 10:30N 31°15' E 122°05'37980363.5
2017-May-26 10:30N 37°33' E 121°23'4323567.2
2017-May-26 10:23N 30°22' E 121°57'1241193.3
2017-May-26 10:16N 31°59' E 120°26'3501321.8
2017-May-26 10:00N 37°47' E 121°10'395203061.6
2017-May-26 10:00N 31°15' E 122°05'379195168.5
2017-May-26 10:00N 37°33' E 121°23'337242955.9
2017-May-26 10:00N 31°59' E 120°26'337684.0
2017-May-26 09:31N 37°33' E 121°23'380113850.1
2017-May-26 09:30N 31°15' E 122°05'39617608.6
2017-May-26 09:29N 37°48' E 121°11'725617006.1
2017-May-26 09:03N 05°16' W 004°02'7269148678.2
2017-May-26 09:00N 37°33' E 121°23'38024396.4
2017-May-26 09:00N 31°15' E 122°05'953807.8
2017-May-26 08:58N 31°58' E 120°26'725677055.3
2017-May-26 08:52N 05°16' W 004°02'725980909.7
2017-May-26 08:47N 37°51' E 121°15'3981448.3
2017-May-26 08:30N 31°15' E 122°05'380195171.6
2017-May-26 08:30N 37°33' E 121°23'3373188.9
2017-May-26 08:24N 31°58' E 120°26'9514859.4
2017-May-26 08:24N 31°05' E 121°58'4072817.5
2017-May-26 08:15N 37°51' E 121°15'7259146817.4
2017-May-26 08:12N 05°16' W 004°02'735337762.9
2017-May-26 08:00N 31°15' E 122°05'380683100.6
2017-May-26 08:00N 37°33' E 121°23'7269300772.7
2017-May-26 07:59N 05°16' W 004°02'7344644837.0
2017-May-26 07:58N 31°08' E 121°54'46190.7
2017-May-26 07:44N 30°22' E 121°57'1246576.5
2017-May-26 07:43N 31°58' E 120°26'95465.0
2017-May-26 07:30N 31°15' E 122°05'379683089.8
2017-May-26 07:30N 37°33' E 121°23'38214190.1
2017-May-26 07:29N 31°11' E 121°50'86811.2
2017-May-26 07:22N 31°58' E 120°26'95261.6
2017-May-26 07:00N 31°15' E 122°05'379113848.3
2017-May-26 07:00N 37°33' E 121°23'379170534.4
2017-May-26 07:00N 31°14' E 121°47'3983920.8
2017-May-26 06:54N 37°51' E 121°15'725968233.8
2017-May-26 06:48N 05°16' W 004°02'72566530414.7
2017-May-26 06:48N 31°58' E 120°26'3551210.4
2017-May-26 06:30N 37°51' E 121°15'39859738.6
2017-May-26 06:30N 31°15' E 122°05'379124198.1
2017-May-26 06:29N 37°33' E 121°23'37667608.5
2017-May-26 06:29N 31°17' E 121°44'1939.5
2017-May-26 06:01N 31°15' E 122°05'38047110.4
2017-May-26 06:00N 37°33' E 121°23'37337294.1
2017-May-26 05:59N 31°20' E 121°40'2245.4
2017-May-26 05:31N 31°15' E 122°05'255934.4
2017-May-26 05:30N 31°22' E 121°38'37174270.2
2017-May-26 05:30N 37°33' E 121°23'380768.8
2017-May-26 05:00N 31°15' E 122°05'38048792.9
2017-May-26 05:00N 37°33' E 121°23'726916980.6
2017-May-26 04:34N 05°16' W 004°02'7353120326.1
2017-May-26 04:31N 31°15' E 122°05'38071905.3
2017-May-26 04:30N 37°33' E 121°23'726969965.6
2017-May-26 04:24N 05°16' W 004°02'735318827.7
2017-May-26 04:01N 31°15' E 122°05'3986637.1
2017-May-26 03:57N 37°51' E 121°15'398904.5
2017-May-26 03:31N 31°15' E 122°05'379341544.9
2017-May-26 03:30N 37°33' E 121°23'19331.7
2017-May-26 03:27N 37°51' E 121°15'1943.4
2017-May-26 03:00N 37°33' E 121°23'193012.1
2017-May-26 03:00N 37°51' E 121°15'39824716.5
2017-May-26 02:59N 31°15' E 122°05'36642.2
2017-May-26 02:56N 31°28' E 121°26'2 5.3
2017-May-26 02:30N 31°30' E 121°24'363145240.9
2017-May-26 02:30N 37°33' E 121°23'37939033.7
2017-May-26 02:30N 31°15' E 122°05'3988688.0
2017-May-26 02:27N 37°51' E 121°15'379851.2
2017-May-26 02:00N 31°32' E 121°21'3611299866.3
2017-May-26 02:00N 37°33' E 121°23'379113848.3
2017-May-26 02:00N 31°15' E 122°05'25576.2
2017-May-26 01:57N 31°23' E 121°38'38853739.2
2017-May-26 01:57N 37°51' E 121°15'1943.1
2017-May-26 01:30N 37°33' E 121°23'195315.4
2017-May-26 01:30N 37°51' E 121°15'39812798.3
2017-May-26 01:28N 31°15' E 122°05'0 0.0
2017-May-26 01:00N 31°15' E 122°05'3981433386.9
2017-May-26 01:00N 37°51' E 121°15'192031.7
2017-May-26 00:59N 37°33' E 121°23'379783.8
2017-May-26 00:30N 31°15' E 122°05'37980363.5
2017-May-26 00:30N 37°33' E 121°23'19127.2
2017-May-26 00:21N 37°51' E 121°15'3981153.2
2017-May-26 00:00N 31°15' E 122°05'38071905.3
2017-May-26 00:00N 37°33' E 121°23'19406.2
2017-May-25 23:57N 37°51' E 121°15'398896.4
2017-May-25 23:30N 31°15' E 122°05'38037950.6
2017-May-25 23:30N 37°33' E 121°23'19421.1
2017-May-25 23:27N 37°51' E 121°15'10036280.5
2017-May-25 23:18N 22°18' E 114°08'6852398.8
2017-May-25 23:00N 31°15' E 122°05'380105092.4
2017-May-25 23:00N 37°33' E 121°23'194601.5
2017-May-25 23:00N 37°51' E 121°15'0 0.0
2017-May-25 22:30N 37°51' E 121°15'398286678.0
2017-May-25 22:30N 31°15' E 122°05'379195168.5
2017-May-25 22:30N 37°33' E 121°23'509469206.9
2017-May-25 22:25N 49°17' W 122°51'509412267.4
2017-May-25 22:00N 37°33' E 121°23'380683100.6
2017-May-25 22:00N 31°15' E 122°05'54354.5
2017-May-25 21:51N 30°22' E 121°57'4514256.9
2017-May-25 21:45N 37°51' E 121°15'508374082.5
2017-May-25 21:41N 49°18' W 122°54'509229098.0
2017-May-25 21:30N 37°33' E 121°23'379170772.5
2017-May-25 21:30N 31°15' E 122°05'5374879388.2
2017-May-25 21:30N 49°18' W 122°56'508120415.4
2017-May-25 21:15N 37°51' E 121°15'4512313.8
2017-May-25 21:03N 30°22' E 121°57'541130.6
2017-May-25 21:00N 31°15' E 122°05'5427615.1
2017-May-25 21:00N 30°22' E 121°57'5425174371.5
2017-May-25 20:58N 49°18' W 122°56'537411515.7
2017-May-25 20:30N 31°15' E 122°05'379105090.7
2017-May-25 20:30N 37°33' E 121°23'5090381767.1
2017-May-25 20:29N 49°18' W 122°56'537411054.8
2017-May-25 20:00N 31°15' E 122°05'379683089.8
2017-May-25 20:00N 37°33' E 121°23'5090416494.6
2017-May-25 19:59N 49°18' W 122°56'537410967.5
2017-May-25 19:30N 31°15' E 122°05'38032528.6
2017-May-25 19:29N 37°33' E 121°23'5090104714.3
2017-May-25 19:26N 49°18' W 122°56'537412298.8
2017-May-25 19:00N 31°15' E 122°05'380113851.9
2017-May-25 19:00N 37°33' E 121°23'5090290879.0
2017-May-25 18:59N 49°18' W 122°56'537411287.2
2017-May-25 18:30N 31°15' E 122°05'5373773669.1
2017-May-25 18:30N 49°18' W 122°57'50896106976.4
2017-May-25 18:30N 37°33' E 121°23'380766.2
2017-May-25 18:00N 31°15' E 122°05'38062101.0
2017-May-25 18:00N 37°33' E 121°23'509141840.0
2017-May-25 17:53N 49°18' W 122°56'509113655.7
2017-May-25 17:30N 37°33' E 121°23'380170775.1
2017-May-25 17:30N 31°15' E 122°05'537449733.5
2017-May-25 17:24N 49°18' W 122°56'5388135629.7
2017-May-25 17:21N 31°23' E 121°38'732725459.6
2017-May-25 17:04N 05°16' W 004°02'7269105088.4
2017-May-25 17:00N 37°33' E 121°23'370121186.7
2017-May-25 17:00N 31°23' E 121°37'732626374756.4
2017-May-25 17:00N 05°16' W 004°02'6869117191.9
2017-May-25 16:56N 49°18' W 122°56'537428875.2
2017-May-25 16:45N 31°15' E 122°05'3791575.8
2017-May-25 16:30N 37°33' E 121°23'7267622910.4
2017-May-25 16:30N 05°17' W 004°01'7328289903.9
2017-May-25 16:28N 31°21' E 121°40'39118498.8
2017-May-25 16:27N 37°51' E 121°15'5085832119.3
2017-May-25 16:27N 49°17' W 122°51'5378201675.3
2017-May-25 16:25N 31°15' E 122°05'1946.8
2017-May-25 16:00N 31°18' E 121°43'1968912.9
2017-May-25 16:00N 31°15' E 122°05'380341550.3
2017-May-25 16:00N 37°33' E 121°23'72673737444.0
2017-May-25 16:00N 05°17' W 004°01'733414750.9
2017-May-25 15:30N 31°15' E 121°47'1614455.9
2017-May-25 15:30N 31°15' E 122°05'380341550.3
2017-May-25 15:30N 37°33' E 121°23'7267242241.6
2017-May-25 15:28N 05°17' W 004°01'733815668.2
2017-May-25 15:00N 31°12' E 121°50'381124797.5
2017-May-25 15:00N 37°33' E 121°23'380341550.3
2017-May-25 15:00N 31°15' E 122°05'7352183798.8
2017-May-25 14:58N 05°17' W 004°01'0 0.0
2017-May-25 14:30N 05°17' W 004°01'725828277.8
2017-May-25 14:15N 37°51' E 121°15'1977.4
2017-May-25 14:00N 37°33' E 121°23'38730945.3
2017-May-25 13:59N 31°07' E 121°58'387791.2
2017-May-25 13:30N 37°33' E 121°23'37956924.2
2017-May-25 13:30N 31°15' E 122°05'117828.9
2017-May-25 13:30N 31°04' E 122°01'4 8.7
2017-May-25 13:00N 31°02' E 122°06'392235172.4
2017-May-25 13:00N 37°33' E 121°23'37980363.5
2017-May-25 13:00N 31°15' E 122°05'0 0.0
2017-May-25 12:30N 31°15' E 122°05'159105.3
2017-May-25 12:30N 31°00' E 122°10'39464553.6
2017-May-25 12:30N 37°33' E 121°23'0 0.0
2017-May-25 12:01N 37°33' E 121°23'379170772.5
2017-May-25 12:00N 31°15' E 122°05'193263.8
2017-May-25 12:00N 30°57' E 122°12'1938.5
2017-May-25 11:30N 31°15' E 122°05'38039034.3
2017-May-25 11:30N 37°33' E 121°23'402103255.4
2017-May-25 11:30N 30°53' E 122°14'402827.9
2017-May-25 11:00N 37°33' E 121°23'4062169.3
2017-May-25 10:49N 30°49' E 122°15'4245943.3
2017-May-25 10:45N 37°51' E 121°15'1979.0
2017-May-25 10:30N 37°33' E 121°23'380195171.6
2017-May-25 10:30N 31°15' E 122°05'37456.1
2017-May-25 10:25N 31°29' E 121°25'38216002.1
2017-May-25 10:24N 37°51' E 121°15'1948.6
2017-May-25 10:00N 37°33' E 121°23'379683089.8
2017-May-25 10:00N 31°15' E 122°05'393642.5
2017-May-25 10:00N 31°30' E 121°23'3812636.2
2017-May-25 09:51N 37°51' E 121°15'3981165.4
2017-May-25 09:30N 31°15' E 122°05'38091081.5
2017-May-25 09:30N 37°33' E 121°23'36019654.9
2017-May-25 09:29N 31°32' E 121°20'3782786.4
2017-May-25 09:21N 37°51' E 121°15'3981154.1
2017-May-25 09:00N 31°15' E 122°05'379455393.2
2017-May-25 09:00N 37°33' E 121°23'3561200.8
2017-May-25 08:42N 31°36' E 121°16'47236.8
2017-May-25 08:30N 31°15' E 122°05'37971904.2
2017-May-25 08:30N 37°33' E 121°23'379767.1
2017-May-25 08:00N 31°15' E 122°05'37956924.2
2017-May-25 08:00N 37°33' E 121°23'3541657.5
2017-May-25 07:47N 31°39' E 121°13'51180.7
2017-May-25 07:30N 31°15' E 122°05'37980363.5
2017-May-25 07:30N 37°33' E 121°23'379771.4
2017-May-25 07:00N 31°15' E 122°05'37940181.8
2017-May-25 07:00N 37°33' E 121°23'379773.6
2017-May-25 06:30N 31°15' E 122°05'37997584.3
2017-May-25 06:30N 37°33' E 121°23'1954.3
2017-May-25 06:09N 37°51' E 121°15'3982730.2
2017-May-25 06:00N 31°15' E 122°05'38048792.9
2017-May-25 06:00N 37°33' E 121°23'19130.8
2017-May-25 05:51N 37°51' E 121°15'3981166.3
2017-May-25 05:31N 31°15' E 122°05'380455400.4
2017-May-25 05:30N 37°33' E 121°23'0 0.0
2017-May-25 05:00N 37°33' E 121°23'379136618.0
2017-May-25 05:00N 31°15' E 122°05'3981123.4
2017-May-25 04:39N 37°51' E 121°15'3982783.4
2017-May-25 04:30N 31°15' E 122°05'379341544.9
2017-May-25 04:30N 37°33' E 121°23'19512.7
2017-May-25 04:28N 37°51' E 121°15'725929330.5
2017-May-25 04:13N 05°16' W 004°02'726933590.7
2017-May-25 04:00N 37°33' E 121°23'379227696.6
2017-May-25 04:00N 31°15' E 122°05'73532941300.4
2017-May-25 04:00N 05°16' W 004°02'726914659.4
2017-May-25 03:30N 37°33' E 121°23'37936923.8
2017-May-25 03:30N 31°15' E 122°05'7353980436.7
2017-May-25 03:29N 05°16' W 004°02'725952476.9
2017-May-25 03:21N 37°51' E 121°15'1955.7
2017-May-25 03:00N 37°33' E 121°23'37911984.0
2017-May-25 02:58N 31°15' E 122°05'379807.9
2017-May-25 02:30N 37°33' E 121°23'37910590.5
2017-May-25 02:28N 31°15' E 122°05'0 0.0
2017-May-25 02:00N 31°15' E 122°05'379195168.5
2017-May-25 02:00N 37°33' E 121°23'379766.7
2017-May-25 01:30N 31°15' E 122°05'37959399.1
2017-May-25 01:30N 37°33' E 121°23'0 0.0
2017-May-25 01:01N 37°33' E 121°23'379170772.5
2017-May-25 01:00N 31°15' E 122°05'379762.4
2017-May-25 00:31N 37°33' E 121°23'379227696.6
2017-May-25 00:30N 31°15' E 122°05'3982497.2
2017-May-25 00:21N 37°51' E 121°15'3981170.1
2017-May-25 00:00N 31°15' E 122°05'39840953.3
2017-May-25 00:00N 37°51' E 121°15'10032189.5
2017-May-24 23:32N 22°18' E 114°09'0 8.4
2017-May-24 23:30N 22°18' E 114°09'9891779875.8
2017-May-24 23:30N 37°33' E 121°23'37939033.7
2017-May-24 23:30N 31°15' E 122°05'379771.9
2017-May-24 23:00N 37°33' E 121°23'379136618.0
2017-May-24 23:00N 31°15' E 122°05'6842668.5
2017-May-24 22:45N 22°19' E 114°09'6773208.8
2017-May-24 22:32N 30°60' E 122°12'16572.0
2017-May-24 22:30N 31°15' E 122°05'37997584.3
2017-May-24 22:30N 37°33' E 121°23'3954219.0
2017-May-24 22:25N 30°60' E 122°12'6767804.5
2017-May-24 22:19N 22°19' E 114°09'6842147.4
2017-May-24 22:00N 31°15' E 122°05'379341544.9
2017-May-24 22:00N 37°33' E 121°23'379765.4
2017-May-24 21:30N 31°15' E 122°05'37968309.0
2017-May-24 21:30N 37°33' E 121°23'379767.5
2017-May-24 21:00N 31°15' E 122°05'37954647.2
2017-May-24 21:00N 37°33' E 121°23'3951002.8
2017-May-24 20:36N 30°60' E 122°12'67611018.8
2017-May-24 20:33N 22°19' E 114°09'68416755.4
2017-May-24 20:30N 31°15' E 122°05'37971904.2
2017-May-24 20:30N 37°33' E 121°23'9883255.7
2017-May-24 20:12N 22°19' E 114°09'6962358058.8
2017-May-24 20:11N 05°16' W 004°02'735343539.1
2017-May-24 20:00N 31°15' E 122°05'37940181.8
2017-May-24 20:00N 37°33' E 121°23'379769.2
2017-May-24 19:30N 31°15' E 122°05'37919799.7
2017-May-24 19:29N 37°33' E 121°23'98813478.9
2017-May-24 19:25N 22°19' E 114°09'6841666.5
2017-May-24 19:00N 31°15' E 122°05'38075901.3
2017-May-24 19:00N 37°33' E 121°23'9889266.8
2017-May-24 18:53N 22°19' E 114°09'6962103144.3
2017-May-24 18:49N 05°16' W 004°02'726923095.4
2017-May-24 18:30N 37°33' E 121°23'7269443510.0
2017-May-24 18:29N 05°16' W 004°02'735315204.9
2017-May-24 18:00N 31°15' E 122°05'37927323.6
2017-May-24 18:00N 37°33' E 121°23'98816628.2
2017-May-24 17:56N 22°19' E 114°09'69626266003.4
2017-May-24 17:56N 05°16' W 004°02'726916969.6
2017-May-24 17:30N 37°33' E 121°23'37945539.3
2017-May-24 17:30N 31°15' E 122°05'7353362625.6
2017-May-24 17:29N 05°16' W 004°02'729818915.9
2017-May-24 17:05N 31°42' E 121°10'3514040.3
2017-May-24 17:00N 37°33' E 121°23'379227696.6
2017-May-24 17:00N 31°15' E 122°05'7353945410.7
2017-May-24 17:00N 05°16' W 004°02'730322982.6
2017-May-24 16:41N 31°38' E 121°15'49290.8
2017-May-24 16:30N 31°15' E 122°05'379105090.7
2017-May-24 16:30N 37°33' E 121°23'356116497.2
2017-May-24 16:30N 31°37' E 121°17'73046573548.8
2017-May-24 16:30N 05°17' W 004°01'726714615.7
2017-May-24 16:00N 37°33' E 121°23'360324253.0
2017-May-24 16:00N 31°32' E 121°21'425573.3
2017-May-24 16:00N 31°15' E 122°05'7352696501.3
2017-May-24 15:59N 05°17' W 004°01'735215468.8
2017-May-24 15:30N 31°15' E 122°05'3610786.7
2017-May-24 15:30N 31°29' E 121°27'73144388589.1
2017-May-24 15:30N 05°17' W 004°01'72673737453.3
2017-May-24 15:30N 37°33' E 121°23'379768.8
2017-May-24 15:00N 31°15' E 122°05'146488.9
2017-May-24 15:00N 31°00' E 122°03'73522940633.7
2017-May-24 15:00N 05°17' W 004°01'7267467182.2
2017-May-24 14:59N 37°33' E 121°23'36814727.6
2017-May-24 14:58N 31°25' E 121°33'3271.4
2017-May-24 14:30N 31°03' E 122°01'1225.0
2017-May-24 14:00N 31°15' E 122°05'379105090.7
2017-May-24 14:00N 37°33' E 121°23'37421019.6
2017-May-24 13:59N 31°19' E 121°41'7330338310.4
2017-May-24 13:58N 05°16' W 004°02'735316131.5
2017-May-24 13:30N 31°15' E 122°05'38015703.5
2017-May-24 13:29N 37°33' E 121°23'3747155.6
2017-May-24 13:26N 31°19' E 121°41'2150.3
2017-May-24 13:00N 31°15' E 122°05'216987.4
2017-May-24 13:00N 31°19' E 121°41'6743453.9
2017-May-24 12:49N 22°18' E 114°09'0 1.0
2017-May-24 12:30N 22°18' E 114°09'9893559850.0
2017-May-24 12:30N 37°33' E 121°23'379273235.9
2017-May-24 12:30N 31°15' E 122°05'216987.4
2017-May-24 12:30N 31°19' E 121°41'2143.0
2017-May-24 12:00N 31°15' E 122°05'3791366179.6
2017-May-24 12:00N 37°33' E 121°23'37456052.2
2017-May-24 12:00N 31°19' E 121°41'374755.3
2017-May-24 11:30N 37°33' E 121°23'37917976.0
2017-May-24 11:29N 31°15' E 122°05'211746.9
2017-May-24 11:28N 31°19' E 121°41'374810.4
2017-May-24 11:01N 37°33' E 121°23'38029700.0
2017-May-24 11:00N 31°15' E 122°05'216988.2
2017-May-24 11:00N 31°19' E 121°41'2375.1
2017-May-24 10:41N 31°03' E 122°00'1264.8
2017-May-24 10:30N 31°15' E 122°05'114558.0
2017-May-24 10:30N 31°05' E 121°59'22196.3
2017-May-24 10:23N 31°19' E 121°41'2155.9
2017-May-24 10:00N 31°15' E 122°05'115133.4
2017-May-24 10:00N 31°07' E 121°56'38787045.5
2017-May-24 10:00N 37°33' E 121°23'3744203.9
2017-May-24 09:55N 31°19' E 121°41'1433.5
2017-May-24 09:30N 31°09' E 121°52'1315301.5
2017-May-24 09:30N 31°15' E 122°05'37947109.6
2017-May-24 09:30N 37°33' E 121°23'37422053.0
2017-May-24 09:29N 31°19' E 121°41'817.8
2017-May-24 09:00N 31°13' E 121°48'152473.1
2017-May-24 09:00N 31°15' E 122°05'37985386.2
2017-May-24 09:00N 37°33' E 121°23'37419782.8
2017-May-24 08:59N 31°19' E 121°41'609713190.2
2017-May-24 08:31N 33°37' W 117°55'5895757903.0
2017-May-24 08:31N 37°33' E 121°23'376676489.8
2017-May-24 08:30N 31°17' E 121°44'3100.5
2017-May-24 08:29N 31°19' E 121°41'6097103044.2
2017-May-24 08:25N 33°37' W 117°55'589514446.1
2017-May-24 08:01N 37°33' E 121°23'372670326.3
2017-May-24 08:00N 31°21' E 121°40'2341007.5
2017-May-24 08:00N 31°15' E 122°05'212562.0
2017-May-24 08:00N 31°19' E 121°41'609733407.0
2017-May-24 07:49N 33°37' W 117°55'6664888528.8
2017-May-24 07:49N 05°16' W 004°02'716224958.6
2017-May-24 07:31N 38°20' E 119°30'43029765.7
2017-May-24 07:30N 31°23' E 121°35'2798521.2
2017-May-24 07:30N 31°15' E 122°05'3791366179.6
2017-May-24 07:30N 37°33' E 121°23'72691744485.5
2017-May-24 07:30N 05°16' W 004°02'71622343904.0
2017-May-24 07:30N 38°20' E 119°30'43514622.8
2017-May-24 07:28N 31°19' E 121°41'374804.6
2017-May-24 07:00N 37°33' E 121°23'9816014.2
2017-May-24 07:00N 38°20' E 119°35'443531794.8
2017-May-24 07:00N 31°15' E 122°05'214270.3
2017-May-24 07:00N 31°19' E 121°41'733044725.7
2017-May-24 06:50N 05°16' W 004°02'735322781.2
2017-May-24 06:30N 31°15' E 122°05'442227171.9
2017-May-24 06:30N 38°20' E 119°40'9413055.3
2017-May-24 06:30N 37°33' E 121°23'7269707219.7
2017-May-24 06:29N 05°16' W 004°02'7330321806.7
2017-May-24 06:28N 31°19' E 121°41'2146.4
2017-May-24 06:00N 31°15' E 122°05'379273235.9
2017-May-24 06:00N 37°33' E 121°23'903524.0
2017-May-24 05:59N 38°18' E 119°45'7175246015.5
2017-May-24 05:57N 05°16' W 004°02'7330799642.6
2017-May-24 05:56N 31°19' E 121°41'374867.9
2017-May-24 05:31N 37°33' E 121°23'8625821.3
2017-May-24 05:30N 38°16' E 119°49'436523352.0
2017-May-24 05:30N 31°15' E 122°05'7353357726.3
2017-May-24 05:29N 05°16' W 004°02'733074542.8
2017-May-24 05:23N 31°19' E 121°41'4231122.1
2017-May-24 05:01N 38°13' E 119°53'8212280.8
2017-May-24 05:00N 37°33' E 121°23'379136618.0
2017-May-24 05:00N 31°15' E 122°05'211397.6
2017-May-24 04:59N 31°19' E 121°41'733055907.1
2017-May-24 04:51N 05°16' W 004°02'666428290.6
2017-May-24 04:37N 33°37' W 117°55'594354580.0
2017-May-24 04:30N 38°10' E 119°57'428771255.9
2017-May-24 04:30N 31°15' E 122°05'37952545.4
2017-May-24 04:30N 37°33' E 121°23'72691189415.2
2017-May-24 04:30N 05°16' W 004°02'733051040.9
2017-May-24 04:21N 31°19' E 121°41'609718290.3
2017-May-24 04:01N 33°37' W 117°55'5940648020.6
2017-May-24 04:00N 38°08' E 120°02'426117888.3
2017-May-24 04:00N 31°15' E 122°05'37965056.2
2017-May-24 04:00N 37°33' E 121°23'37415826.3
2017-May-24 03:59N 31°19' E 121°41'6097105016.4
2017-May-24 03:55N 33°37' W 117°55'666478144.6
2017-May-24 03:50N 05°16' W 004°02'719722087.2
2017-May-24 03:30N 38°07' E 120°07'699948.4
2017-May-24 03:30N 37°33' E 121°23'379136618.0
2017-May-24 03:30N 31°15' E 122°05'21429.4
2017-May-24 03:27N 31°19' E 121°41'6097215180.6
2017-May-24 03:25N 33°37' W 117°55'589148751.8
2017-May-24 03:18N 37°51' E 121°15'1966.8
2017-May-24 03:01N 37°33' E 121°23'379273235.9
2017-May-24 03:00N 31°15' E 122°05'422216871.0
2017-May-24 03:00N 38°06' E 120°13'4134943.1
2017-May-24 02:55N 31°19' E 121°41'374904.7
2017-May-24 02:31N 37°33' E 121°23'379341544.9
2017-May-24 02:30N 31°15' E 122°05'42056014.3
2017-May-24 02:30N 38°06' E 120°18'4127129.3
2017-May-24 02:27N 31°19' E 121°41'30259.6
2017-May-24 02:20N 31°39' E 121°14'33144.5
2017-May-24 02:06N 31°41' E 121°52'3533779.5
2017-May-24 02:00N 37°33' E 121°23'5740988.3
2017-May-24 02:00N 38°05' E 120°24'39078092.7
2017-May-24 02:00N 31°37' E 121°17'474714.2
2017-May-24 01:59N 31°15' E 122°05'21904.3
2017-May-24 01:58N 31°19' E 121°41'23216.2
2017-May-24 01:52N 31°41' E 121°50'6076140220.5
2017-May-24 01:49N 33°37' W 117°55'607919574.0
2017-May-24 01:30N 31°15' E 122°05'417500088.7
2017-May-24 01:30N 38°04' E 120°29'393706811.7
2017-May-24 01:30N 31°33' E 121°20'35946183.9
2017-May-24 01:30N 37°33' E 121°23'5895192920.8
2017-May-24 01:28N 33°37' W 117°55'609745917.2
2017-May-24 01:20N 31°19' E 121°41'2389.0
2017-May-24 01:04N 31°42' E 121°45'3855848.3
2017-May-24 01:00N 38°03' E 120°35'4913502.0
2017-May-24 01:00N 37°33' E 121°23'379151797.7
2017-May-24 01:00N 31°15' E 122°05'3946735.6
2017-May-24 01:00N 31°31' E 121°24'19454.6
2017-May-24 00:58N 31°19' E 121°41'23166.7
2017-May-24 00:49N 31°43' E 121°43'3691359.6
2017-May-24 00:33N 37°51' E 121°15'30748.6
2017-May-24 00:31N 38°02' E 120°40'458508.5
2017-May-24 00:30N 37°33' E 121°23'38014690.3
2017-May-24 00:29N 31°15' E 122°05'352280.7
2017-May-24 00:28N 31°28' E 121°28'14258.1
2017-May-24 00:24N 31°19' E 121°41'4051015.7
2017-May-24 00:00N 38°01' E 120°45'3971430907.9
2017-May-24 00:00N 31°26' E 121°30'327155.8
2017-May-24 00:00N 31°15' E 122°05'3791366179.6
2017-May-24 00:00N 37°33' E 121°23'3743705.9
2017-May-23 23:54N 31°19' E 121°41'2153.9
2017-May-23 23:30N 31°15' E 122°05'410492383.2
2017-May-23 23:30N 38°00' E 120°50'389853.1
2017-May-23 23:30N 37°33' E 121°23'3742450.4
2017-May-23 23:21N 31°19' E 121°41'2162.7
2017-May-23 23:01N 31°15' E 122°05'4091472112.7
2017-May-23 23:01N 37°60' E 120°55'353421.2
2017-May-23 23:00N 37°33' E 121°23'3741835.3
2017-May-23 22:48N 31°19' E 121°41'2172.6
2017-May-23 22:30N 31°15' E 122°05'407733461.8
2017-May-23 22:30N 37°59' E 120°59'3238530.8
2017-May-23 22:30N 37°33' E 121°23'37474736.3
2017-May-23 22:30N 31°19' E 121°41'957.5
2017-May-23 22:21N 31°15' E 121°32'2883.6
2017-May-23 22:00N 31°15' E 122°05'404132318.4
2017-May-23 22:00N 37°56' E 121°02'296055.7
2017-May-23 22:00N 37°33' E 121°23'37458489.3
2017-May-23 22:00N 31°19' E 121°41'11122.4
2017-May-23 21:54N 31°14' E 121°30'732023488.0
2017-May-23 21:35N 05°16' W 004°02'735389431.7
2017-May-23 21:31N 31°15' E 122°05'7353882391.4
2017-May-23 21:30N 05°16' W 004°02'7330776122.4
2017-May-23 21:29N 31°19' E 121°41'39450691.9
2017-May-23 21:29N 37°52' E 121°04'719823260.8
2017-May-23 21:10N 29°33' W 095°04'719443602.7
2017-May-23 21:01N 37°33' E 121°23'379136618.0
2017-May-23 21:00N 31°15' E 122°05'211302.7
2017-May-23 20:59N 31°19' E 121°41'39161184.2
2017-May-23 20:59N 37°49' E 121°06'7198740413.9
2017-May-23 20:58N 29°33' W 095°04'719915491.0
2017-May-23 20:31N 37°46' E 121°08'3941418756.0
2017-May-23 20:31N 31°15' E 122°05'379341544.9
2017-May-23 20:30N 37°33' E 121°23'37417936.7
2017-May-23 20:29N 31°19' E 121°41'7412118063.1
2017-May-23 20:25N 29°33' W 095°04'541213975.6
2017-May-23 20:02N 05°16' W 004°02'7253261107.9
2017-May-23 20:01N 37°43' E 121°07'165928.1
2017-May-23 20:00N 37°33' E 121°23'37926787.8
2017-May-23 20:00N 31°15' E 122°05'7353448671.0
2017-May-23 19:59N 05°16' W 004°02'54123247006.8
2017-May-23 19:58N 29°33' W 095°04'739315805.5
2017-May-23 19:30N 31°15' E 122°05'379273235.9
2017-May-23 19:30N 37°33' E 121°23'16617.1
2017-May-23 19:29N 37°43' E 121°07'72011728331.7
2017-May-23 19:28N 29°33' W 095°04'7412173261.4
2017-May-23 19:26N 31°19' E 121°41'2150.4
2017-May-23 19:00N 31°15' E 122°05'38091080.1
2017-May-23 19:00N 37°33' E 121°23'374122297.7
2017-May-23 19:00N 31°19' E 121°41'7412283853.9
2017-May-23 18:58N 29°33' W 095°04'7201125241.4
2017-May-23 18:55N 37°43' E 121°07'725369814.5
2017-May-23 18:49N 05°16' W 004°02'726923918.7
2017-May-23 18:31N 37°33' E 121°23'380273244.5
2017-May-23 18:30N 31°15' E 122°05'391234734.8
2017-May-23 18:30N 37°43' E 121°07'38541974.7
2017-May-23 18:30N 31°19' E 121°41'7330172473.1
2017-May-23 18:27N 05°16' W 004°02'735316371.0
2017-May-23 18:00N 31°15' E 122°05'379124198.1
2017-May-23 18:00N 37°33' E 121°23'161260.4
2017-May-23 17:59N 37°43' E 121°07'7252842120.5
2017-May-23 17:59N 05°17' W 004°01'732967824.0
2017-May-23 17:52N 31°19' E 121°41'3741005.4
2017-May-23 17:30N 37°33' E 121°23'162692.6
2017-May-23 17:30N 37°43' E 121°07'391469462.4
2017-May-23 17:30N 31°15' E 122°05'21284.7
2017-May-23 17:25N 31°19' E 121°41'732966456.9
2017-May-23 17:18N 05°17' W 004°01'735224326.3
2017-May-23 17:00N 31°15' E 122°05'39167066.1
2017-May-23 17:00N 37°43' E 121°07'1614809.2
2017-May-23 17:00N 37°33' E 121°23'726759459.3
2017-May-23 16:53N 05°17' W 004°01'7329586297.4
2017-May-23 16:52N 31°19' E 121°41'2159.1
2017-May-23 16:30N 31°15' E 122°05'3911408387.3
2017-May-23 16:30N 37°43' E 121°07'163484.5
2017-May-23 16:30N 37°33' E 121°23'7267707083.5
2017-May-23 16:29N 05°17' W 004°01'732967823.6
2017-May-23 16:23N 31°19' E 121°41'3741006.9
2017-May-23 16:01N 37°33' E 121°23'374672626.4
2017-May-23 16:00N 31°19' E 121°41'2112811.0
2017-May-23 16:00N 31°15' E 122°05'391469476.7
2017-May-23 16:00N 37°43' E 121°07'725231992.3
2017-May-23 15:47N 05°17' W 004°01'726726888.2
2017-May-23 15:31N 37°33' E 121°23'165385.2
2017-May-23 15:30N 37°43' E 121°07'39124282.5
2017-May-23 15:29N 31°15' E 122°05'21248.7
2017-May-23 15:24N 31°19' E 121°41'7329178266.6
2017-May-23 15:22N 05°17' W 004°01'735220774.8
2017-May-23 15:01N 31°15' E 122°05'379273235.9
2017-May-23 15:00N 37°33' E 121°23'169872.8
2017-May-23 15:00N 37°43' E 121°07'385106551.1
2017-May-23 15:00N 31°19' E 121°41'732973287.3
2017-May-23 14:54N 05°17' W 004°01'735218704.6
2017-May-23 14:31N 31°15' E 122°05'39144012.1
2017-May-23 14:30N 37°43' E 121°07'385461721.6
2017-May-23 14:30N 31°19' E 121°41'7329293179.2
2017-May-23 14:28N 05°17' W 004°01'726815256.5
2017-May-23 14:00N 37°33' E 121°23'379774.5
2017-May-23 13:30N 31°15' E 122°05'391156487.5
2017-May-23 13:30N 37°43' E 121°07'167404.6
2017-May-23 13:30N 37°33' E 121°23'3742637.8
2017-May-23 13:22N 31°19' E 121°41'733063433.4
2017-May-23 13:15N 05°16' W 004°02'726930640.8
2017-May-23 13:01N 37°33' E 121°23'379455393.2
2017-May-23 13:00N 31°15' E 122°05'39174125.6
2017-May-23 13:00N 37°43' E 121°07'3856240.4
2017-May-23 12:56N 31°19' E 121°41'385889.8
2017-May-23 12:31N 37°43' E 121°07'39188024.2
2017-May-23 12:30N 31°15' E 122°05'379170772.5
2017-May-23 12:30N 37°33' E 121°23'372167434.5
2017-May-23 12:30N 31°21' E 121°39'383780.5
2017-May-23 12:01N 37°43' E 121°07'391234731.2
2017-May-23 12:00N 31°15' E 122°05'37956924.2
2017-May-23 12:00N 37°33' E 121°23'37019022.2
2017-May-23 11:59N 31°23' E 121°35'2757.2
2017-May-23 11:30N 31°15' E 122°05'39178243.7
2017-May-23 11:30N 37°43' E 121°07'1611847.4
2017-May-23 11:30N 37°33' E 121°23'3685608.6
2017-May-23 11:26N 31°25' E 121°31'3173.5
2017-May-23 11:00N 31°15' E 122°05'39178243.7
2017-May-23 11:00N 37°43' E 121°07'163117.7
2017-May-23 11:00N 37°33' E 121°23'3643681.2
2017-May-23 10:54N 31°29' E 121°27'6741822.7
2017-May-23 10:32N 22°18' E 114°12'98948751.1
2017-May-23 10:31N 37°33' E 121°23'164935.3
2017-May-23 10:30N 37°43' E 121°07'391201198.2
2017-May-23 10:30N 31°15' E 122°05'398714.9
2017-May-23 10:30N 31°30' E 121°24'67429597.6
2017-May-23 10:29N 22°18' E 114°11'9892114.9
2017-May-23 10:01N 37°33' E 121°23'1629606.5
2017-May-23 10:00N 37°43' E 121°07'391234759.7
2017-May-23 10:00N 31°15' E 122°05'447894.6
2017-May-23 10:00N 31°34' E 121°19'6754196.5
2017-May-23 09:50N 22°17' E 114°11'696425871.9
2017-May-23 09:34N 05°16' W 004°02'7254116059.0
2017-May-23 09:31N 37°44' E 121°08'1715097.5
2017-May-23 09:30N 37°33' E 121°23'35485028.1
2017-May-23 09:30N 31°38' E 121°14'5017885.4
2017-May-23 09:30N 31°15' E 122°05'7353153017.2
2017-May-23 09:27N 05°16' W 004°02'69644178301.9
2017-May-23 09:27N 22°17' E 114°11'9992260.5
2017-May-23 09:01N 37°47' E 121°11'186319.1
2017-May-23 09:00N 37°33' E 121°23'37947109.6
2017-May-23 09:00N 31°15' E 122°05'6852222.3
2017-May-23 08:41N 22°17' E 114°11'10025526.1
2017-May-23 08:31N 37°50' E 121°15'397158867.5
2017-May-23 08:30N 31°15' E 122°05'379273235.9
2017-May-23 08:30N 37°33' E 121°23'9899040.0
2017-May-23 08:24N 22°17' E 114°11'10032595.5
2017-May-23 08:01N 37°50' E 121°16'397158971.4
2017-May-23 08:00N 31°15' E 122°05'379124198.1
2017-May-23 08:00N 37°33' E 121°23'98913240.8
2017-May-23 07:56N 22°17' E 114°11'9892357.2
2017-May-23 07:31N 37°33' E 121°23'183316.8
2017-May-23 07:30N 37°50' E 121°16'3971430742.6
2017-May-23 07:30N 31°15' E 122°05'6852747.7
2017-May-23 07:15N 22°17' E 114°11'10034088.9
2017-May-23 07:01N 37°50' E 121°16'1003515786.7
2017-May-23 07:00N 22°17' E 114°10'6852465179.7
2017-May-23 07:00N 31°15' E 122°05'37985386.2
2017-May-23 07:00N 37°33' E 121°23'1837.3
2017-May-23 06:31N 37°50' E 121°16'1003601879.1
2017-May-23 06:30N 22°17' E 114°10'6852465974.6
2017-May-23 06:30N 31°15' E 122°05'37962099.1
2017-May-23 06:30N 37°33' E 121°23'9896108.3
2017-May-23 06:20N 22°18' E 114°09'6852061.4
2017-May-23 06:00N 31°15' E 122°05'684273782.9
2017-May-23 06:00N 22°17' E 114°11'98957436.1
2017-May-23 05:59N 37°33' E 121°23'181617.4
2017-May-23 05:59N 37°50' E 121°16'397852.1
2017-May-23 05:31N 31°15' E 122°05'68487958.5
2017-May-23 05:30N 22°17' E 114°11'989296698.3
2017-May-23 05:30N 37°33' E 121°23'181069.9
2017-May-23 05:29N 37°50' E 121°16'1839.1
2017-May-23 05:01N 37°33' E 121°23'1833147.4
2017-May-23 05:00N 37°50' E 121°16'397204388.7
2017-May-23 05:00N 31°15' E 122°05'68464811.5
2017-May-23 05:00N 22°17' E 114°11'9892031.0
2017-May-23 04:31N 37°33' E 121°23'380136620.1
2017-May-23 04:30N 31°15' E 122°05'39734064.7
2017-May-23 04:30N 37°50' E 121°16'100216630.7
2017-May-23 04:26N 22°17' E 114°11'9892318.0
2017-May-23 04:00N 37°33' E 121°23'1811055.1
2017-May-23 04:00N 37°50' E 121°16'39721040.0
2017-May-23 03:59N 31°15' E 122°05'68450262.0
2017-May-23 03:58N 22°17' E 114°11'681314792.7
2017-May-23 03:31N 33°37' W 117°55'68141115003.9
2017-May-23 03:30N 22°17' E 114°10'9891781015.5
2017-May-23 03:30N 37°33' E 121°23'3791366179.6
2017-May-23 03:30N 31°15' E 122°05'3971430718.0
2017-May-23 03:30N 37°50' E 121°16'589163687.4
2017-May-23 03:25N 33°37' W 117°55'589114555.9
2017-May-23 03:00N 37°50' E 121°16'397158968.7
2017-May-23 03:00N 31°15' E 122°05'379341544.9
2017-May-23 03:00N 37°33' E 121°23'98982808.5
2017-May-23 03:00N 22°17' E 114°11'681324380.8
2017-May-23 02:43N 33°37' W 117°55'589528070.5
2017-May-23 02:30N 37°33' E 121°23'37947109.6
2017-May-23 02:30N 31°15' E 122°05'3971951.9
2017-May-23 02:17N 37°50' E 121°16'0 0.0
2017-May-23 02:01N 37°50' E 121°16'183317.5
2017-May-23 02:00N 37°33' E 121°23'9899701.3
2017-May-23 01:54N 22°17' E 114°11'681376884.8
2017-May-23 01:49N 33°37' W 117°55'589119367.9
2017-May-23 01:31N 37°50' E 121°16'182764.6
2017-May-23 01:30N 37°33' E 121°23'37991078.6
2017-May-23 01:30N 31°15' E 122°05'68410801.8
2017-May-23 01:26N 22°17' E 114°11'681356252.9
2017-May-23 01:19N 33°37' W 117°55'589119332.6
2017-May-23 01:01N 37°50' E 121°16'397178839.7
2017-May-23 01:00N 31°15' E 122°05'37965056.2
2017-May-23 01:00N 37°33' E 121°23'9892742.0
2017-May-23 00:38N 22°18' E 114°11'1 9.2
2017-May-23 00:30N 22°17' E 114°10'685189651.8
2017-May-23 00:30N 31°15' E 122°05'379341544.9
2017-May-23 00:30N 37°33' E 121°23'18861.7
2017-May-23 00:29N 37°50' E 121°16'0 0.0
2017-May-23 00:01N 37°50' E 121°16'1003515866.3
2017-May-23 00:00N 22°17' E 114°10'685246587.0
2017-May-23 00:00N 31°15' E 122°05'37962099.1
2017-May-23 00:00N 37°33' E 121°23'3916601.2
2017-May-22 23:56N 31°04' E 122°05'1125.9
2017-May-22 23:31N 31°15' E 122°05'39768129.4
2017-May-22 23:30N 37°50' E 121°16'4072244.8
2017-May-22 23:19N 31°05' E 122°02'3891799.1
2017-May-22 23:06N 37°33' E 121°23'0 0.0
2017-May-22 23:00N 37°33' E 121°23'379273235.9
2017-May-22 23:00N 31°15' E 122°05'119498.5
2017-May-22 23:00N 31°05' E 121°60'406146297.1
2017-May-22 23:00N 37°50' E 121°16'10025951.5
2017-May-22 22:50N 22°19' E 114°09'9883015.4
2017-May-22 22:30N 37°33' E 121°23'387348393.7
2017-May-22 22:30N 31°07' E 121°57'1138862.6
2017-May-22 22:30N 31°15' E 122°05'68472444.7
2017-May-22 22:30N 22°19' E 114°09'10022055.2
2017-May-22 22:00N 37°50' E 121°16'39746152.2
2017-May-22 22:00N 31°15' E 122°05'37956924.2
2017-May-22 22:00N 37°33' E 121°23'379782.0
2017-May-22 21:30N 31°15' E 122°05'397178837.5
2017-May-22 21:30N 37°50' E 121°16'1811049.1
2017-May-22 21:30N 37°33' E 121°23'9882599.3
2017-May-22 21:07N 22°19' E 114°09'6745856.5
2017-May-22 21:01N 31°14' E 121°47'1518397.6
2017-May-22 21:00N 31°15' E 122°05'39729806.7
2017-May-22 21:00N 37°50' E 121°16'50823658926.4
2017-May-22 21:00N 48°40' W 123°24'5090436325.7
2017-May-22 20:59N 37°33' E 121°23'98815471.8
2017-May-22 20:55N 22°19' E 114°09'681433419.1
2017-May-22 20:43N 33°37' W 117°55'607929612.7
2017-May-22 20:30N 31°15' E 122°05'37965056.2
2017-May-22 20:30N 37°33' E 121°23'18676.7
2017-May-22 20:29N 37°50' E 121°16'5091631930.0
2017-May-22 20:28N 48°38' W 123°14'539211736.4
2017-May-22 20:00N 31°21' E 121°39'390200498.1
2017-May-22 20:00N 37°50' E 121°16'397357680.3
2017-May-22 20:00N 31°15' E 122°05'379105090.7
2017-May-22 20:00N 37°33' E 121°23'511261552.7
2017-May-22 19:55N 48°33' W 122°60'620924780.6
2017-May-22 19:40N 22°19' E 114°09'6744227.8
2017-May-22 19:30N 31°23' E 121°34'2811141.2
2017-May-22 19:30N 31°15' E 122°05'68470373.9
2017-May-22 19:30N 22°19' E 114°09'988114790.4
2017-May-22 19:29N 37°33' E 121°23'182763.1
2017-May-22 19:29N 37°50' E 121°16'510455510.2
2017-May-22 19:23N 48°32' W 123°00'539114196.3
2017-May-22 19:01N 31°15' E 122°05'397715360.6
2017-May-22 19:00N 37°50' E 121°16'38465829.6
2017-May-22 19:00N 31°26' E 121°29'36687954.4
2017-May-22 19:00N 37°33' E 121°23'5112541319.2
2017-May-22 18:59N 48°32' W 123°00'620917655.6
2017-May-22 18:38N 22°19' E 114°09'6845285.6
2017-May-22 18:30N 31°15' E 122°05'37940181.8
2017-May-22 18:30N 37°33' E 121°23'5112525853.4
2017-May-22 18:29N 48°32' W 123°00'51042296732.2
2017-May-22 18:29N 37°50' E 121°16'10028862.5
2017-May-22 18:22N 22°19' E 114°09'6841846.4
2017-May-22 18:00N 31°15' E 122°05'38065057.2
2017-May-22 18:00N 37°33' E 121°23'9889242.9
2017-May-22 17:53N 22°19' E 114°09'9882588.0
2017-May-22 17:30N 37°33' E 121°23'3791366179.6
2017-May-22 17:30N 31°15' E 122°05'397238467.8
2017-May-22 17:30N 37°50' E 121°16'100245659.0
2017-May-22 17:29N 22°19' E 114°09'10022105.7
2017-May-22 17:00N 37°50' E 121°16'1811076.3
2017-May-22 17:00N 37°33' E 121°23'3791366179.6
2017-May-22 17:00N 31°15' E 122°05'6845378.0
2017-May-22 16:53N 22°19' E 114°09'10035535.6
2017-May-22 16:42N 37°51' E 121°15'3981993.8
2017-May-22 16:30N 31°15' E 122°05'684273678.1
2017-May-22 16:30N 22°19' E 114°09'988323502.1
2017-May-22 16:30N 37°33' E 121°23'1816614.5
2017-May-22 16:29N 37°50' E 121°16'1 3.9
2017-May-22 16:18N 37°51' E 121°15'3981367.9
2017-May-22 16:00N 31°15' E 122°05'380136622.3
2017-May-22 16:00N 37°33' E 121°23'193011.7
2017-May-22 16:00N 37°51' E 121°15'171.5
2017-May-22 15:59N 37°50' E 121°16'510116863.6
2017-May-22 15:41N 48°34' W 123°02'6207140528.8
2017-May-22 15:38N 22°19' E 114°09'10027642.5
2017-May-22 15:31N 37°50' E 121°16'183698.9
2017-May-22 15:30N 37°33' E 121°23'38035953.2
2017-May-22 15:30N 31°15' E 122°05'539032070.8
2017-May-22 15:20N 48°34' W 123°01'620844168.0
2017-May-22 15:11N 22°19' E 114°09'6843842.6
2017-May-22 15:00N 31°15' E 122°05'37991078.6
2017-May-22 15:00N 37°33' E 121°23'19191.2
2017-May-22 14:54N 37°50' E 121°16'100237972.4
2017-May-22 14:53N 22°19' E 114°09'0 0.0
2017-May-22 14:24N 22°19' E 114°09'6841718.8
2017-May-22 14:00N 31°15' E 122°05'39875327.1
2017-May-22 14:00N 37°50' E 121°16'191805.0
2017-May-22 13:59N 37°33' E 121°23'1964.9
2017-May-22 13:41N 37°51' E 121°15'19101.4
2017-May-22 13:30N 37°33' E 121°23'19399.2
2017-May-22 13:27N 37°51' E 121°15'3981433702.9
2017-May-22 13:27N 31°15' E 122°05'68432841.4
2017-May-22 13:26N 22°19' E 114°09'10026768.2
2017-May-22 13:17N 37°50' E 121°16'3722242.2
2017-May-22 13:07N 31°38' E 121°15'3733493.8
2017-May-22 13:00N 37°51' E 121°11'214657.9
2017-May-22 13:00N 37°33' E 121°23'1922339.7
2017-May-22 13:00N 37°50' E 121°16'398178922.6
2017-May-22 13:00N 31°15' E 122°05'4819332.8
2017-May-22 13:00N 31°38' E 121°16'6763638.6
2017-May-22 12:49N 22°19' E 114°09'69622278551.9
2017-May-22 12:49N 05°16' W 004°02'725123881.6
2017-May-22 12:30N 37°52' E 121°06'242655.5
2017-May-22 12:30N 37°33' E 121°23'379341544.9
2017-May-22 12:30N 31°15' E 122°05'452546.3
2017-May-22 12:29N 31°35' E 121°18'7307203916.1
2017-May-22 12:27N 05°16' W 004°02'7260622254.8
2017-May-22 12:26N 37°50' E 121°16'1227.9
2017-May-22 12:01N 37°54' E 121°01'2749468.8
2017-May-22 12:00N 37°33' E 121°23'379227696.6
2017-May-22 12:00N 31°15' E 122°05'39865062.8
2017-May-22 12:00N 37°50' E 121°16'37737697.2
2017-May-22 11:59N 31°33' E 121°21'67539832.1
2017-May-22 11:58N 22°19' E 114°09'6751517.3
2017-May-22 11:32N 31°23' E 121°37'37016875.3
2017-May-22 11:30N 37°33' E 121°23'361433231.2
2017-May-22 11:30N 31°32' E 121°23'386126370.0
2017-May-22 11:30N 37°57' E 120°58'1003515908.4
2017-May-22 11:30N 22°19' E 114°09'100285891.0
2017-May-22 11:29N 37°50' E 121°16'38836790.3
2017-May-22 11:29N 31°22' E 121°37'398846.1
2017-May-22 11:00N 37°59' E 120°53'1004722906.2
2017-May-22 11:00N 22°17' E 114°10'6852466344.1
2017-May-22 11:00N 31°15' E 122°05'398357840.6
2017-May-22 11:00N 37°50' E 121°16'1966942.5
2017-May-22 11:00N 37°33' E 121°23'37336263.1
2017-May-22 11:00N 31°20' E 121°41'16216.9
2017-May-22 10:55N 31°30' E 121°26'391949.1
2017-May-22 10:31N 37°60' E 120°48'248565.3
2017-May-22 10:30N 37°50' E 121°16'398357850.5
2017-May-22 10:30N 31°15' E 122°05'380455407.5
2017-May-22 10:30N 37°33' E 121°23'988114791.2
2017-May-22 10:30N 22°18' E 114°11'674346741.6
2017-May-22 10:30N 31°17' E 121°44'407838.3
2017-May-22 10:00N 38°01' E 120°42'4319365.3
2017-May-22 10:00N 37°33' E 121°23'380273240.2
2017-May-22 10:00N 31°15' E 122°05'155541.2
2017-May-22 10:00N 31°14' E 121°47'3978159.3
2017-May-22 09:57N 37°50' E 121°16'589113456.5
2017-May-22 09:31N 33°37' W 117°55'6079754613.0
2017-May-22 09:30N 31°15' E 122°05'380227700.2
2017-May-22 09:30N 37°33' E 121°23'381105643.3
2017-May-22 09:30N 31°12' E 121°50'21594.1
2017-May-22 09:28N 31°25' E 121°31'3859311.5
2017-May-22 09:26N 37°50' E 121°16'5891605929.4
2017-May-22 09:25N 33°37' W 117°55'592114450.4
2017-May-22 09:00N 38°02' E 120°31'51183790.0
2017-May-22 09:00N 37°33' E 121°23'196696.3
2017-May-22 09:00N 37°50' E 121°16'402289258.0
2017-May-22 09:00N 31°10' E 121°53'12608.1
2017-May-22 08:59N 31°15' E 122°05'398840.5
2017-May-22 08:31N 37°50' E 121°16'4250357.7
2017-May-22 08:30N 38°03' E 120°25'5519872.7
2017-May-22 08:30N 37°33' E 121°23'1937.4
2017-May-22 08:00N 37°50' E 121°16'196087.5
2017-May-22 08:00N 37°33' E 121°23'607681.5
2017-May-22 08:00N 38°04' E 120°19'4795.3
2017-May-22 07:30N 37°50' E 121°16'51183887.6
2017-May-22 07:30N 38°06' E 120°14'6423079.3
2017-May-22 07:30N 37°33' E 121°23'1937.3
2017-May-22 07:00N 37°50' E 121°16'1966978.2
2017-May-22 07:00N 37°33' E 121°23'691656.4
2017-May-22 06:58N 38°07' E 120°08'56123.3
2017-May-22 06:31N 37°50' E 121°16'60217060.2
2017-May-22 06:30N 38°09' E 120°03'7323916.6
2017-May-22 06:30N 37°33' E 121°23'1937.5
2017-May-22 06:01N 37°50' E 121°16'198369.7
2017-May-22 06:00N 37°33' E 121°23'0 0.0
2017-May-22 05:30N 37°33' E 121°23'19449.4
2017-May-22 05:28N 37°50' E 121°15'1940.4
2017-May-22 05:00N 37°33' E 121°23'19194.6
2017-May-22 04:54N 37°50' E 121°15'589120140.5
2017-May-22 04:37N 33°37' W 117°55'589553454.1
2017-May-22 04:30N 37°33' E 121°23'589566316.5
2017-May-22 04:25N 33°37' W 117°55'589166482.6
2017-May-22 04:20N 37°50' E 121°15'1957.6
2017-May-22 04:00N 37°33' E 121°23'589566109.9
2017-May-22 03:55N 33°37' W 117°55'589189109.1
2017-May-22 03:51N 37°50' E 121°15'1953.9
2017-May-22 03:30N 37°33' E 121°23'192478.2
2017-May-22 03:30N 37°50' E 121°15'1937.7
2017-May-22 03:00N 37°33' E 121°23'19241.6
2017-May-22 02:56N 37°50' E 121°15'589114310.4
2017-May-22 02:31N 33°37' W 117°55'5895505268.4
2017-May-22 02:30N 37°33' E 121°23'19577.2
2017-May-22 02:28N 37°50' E 121°15'589137803.8
2017-May-22 02:19N 33°37' W 117°55'589119140.8
2017-May-22 02:01N 37°50' E 121°15'194779.5
2017-May-22 02:00N 37°33' E 121°23'1937.2
2017-May-22 01:30N 37°50' E 121°15'1922304.1
2017-May-22 01:30N 37°33' E 121°23'0 0.0
2017-May-22 01:00N 37°33' E 121°23'198364.1
2017-May-22 01:00N 37°50' E 121°15'1937.2
2017-May-22 00:30N 37°33' E 121°23'191556.1
2017-May-22 00:30N 37°50' E 121°15'0 0.0
2017-May-22 00:00N 37°50' E 121°15'1933456.2
2017-May-22 00:00N 37°33' E 121°23'0 0.0
2017-May-21 23:30N 37°33' E 121°23'193712.8
2017-May-21 23:30N 37°50' E 121°15'589120812.6
2017-May-21 23:13N 33°37' W 117°55'653040047.5
2017-May-21 23:03N 24°25' E 118°05'80616477.1
2017-May-21 23:00N 37°33' E 121°23'8062900526.4
2017-May-21 23:00N 24°25' E 118°05'821184812.4
2017-May-21 23:00N 37°50' E 121°16'589120792.1
2017-May-21 22:43N 33°37' W 117°55'589527776.5
2017-May-21 22:30N 37°33' E 121°23'192666.1
2017-May-21 22:30N 37°50' E 121°16'589132577.4
2017-May-21 22:19N 33°37' W 117°55'589518880.1
2017-May-21 22:00N 37°33' E 121°23'18152.7
2017-May-21 21:53N 37°50' E 121°16'1848.8
2017-May-21 21:30N 37°33' E 121°23'181849.9
2017-May-21 21:30N 37°50' E 121°16'0 0.0
2017-May-21 21:01N 37°50' E 121°16'194759.7
2017-May-21 21:00N 37°33' E 121°23'1937.1
2017-May-21 20:30N 37°50' E 121°16'1913332.4
2017-May-21 20:30N 37°33' E 121°23'1937.3
2017-May-21 20:00N 37°50' E 121°16'195130.6
2017-May-21 20:00N 37°33' E 121°23'0 0.0
2017-May-21 19:30N 37°33' E 121°23'191851.2
2017-May-21 19:30N 37°50' E 121°16'510424662.5
2017-May-21 19:17N 48°32' W 123°00'511218186.6
2017-May-21 19:00N 37°33' E 121°23'5112270659.8
2017-May-21 18:59N 48°32' W 123°00'5104216159.3
2017-May-21 18:58N 37°50' E 121°16'0 0.0
2017-May-21 18:30N 37°50' E 121°16'1966723.5
2017-May-21 18:30N 37°33' E 121°23'5112292140.8
2017-May-21 18:29N 48°32' W 123°00'511210571.4
2017-May-21 18:00N 37°33' E 121°23'19141.1
2017-May-21 17:52N 37°50' E 121°16'1950.5
2017-May-21 17:30N 37°33' E 121°23'191855.1
2017-May-21 17:30N 37°50' E 121°16'726019889.6
2017-May-21 17:08N 05°16' W 004°02'726958148.9
2017-May-21 17:00N 37°33' E 121°23'1911130.8
2017-May-21 17:00N 37°50' E 121°16'7260128112.9
2017-May-21 16:57N 05°16' W 004°02'0 0.1
2017-May-21 16:30N 05°16' W 004°02'72695233394.8
2017-May-21 16:30N 37°33' E 121°23'19868.9
2017-May-21 16:29N 37°50' E 121°16'1938.8
2017-May-21 16:00N 37°33' E 121°23'19576.7
2017-May-21 15:58N 37°50' E 121°16'72581537044.9
2017-May-21 15:58N 05°17' W 004°01'725815807.5
2017-May-21 15:30N 37°50' E 121°16'194780.2
2017-May-21 15:30N 37°33' E 121°23'5112197865.5
2017-May-21 15:29N 48°33' W 123°00'511210780.0
2017-May-21 15:00N 37°33' E 121°23'191217.5
2017-May-21 14:59N 37°50' E 121°16'1938.4
2017-May-21 14:30N 37°33' E 121°23'1936.9
2017-May-21 14:00N 37°50' E 121°16'0 0.0
2017-May-21 13:31N 37°50' E 121°16'198374.8
2017-May-21 13:30N 37°33' E 121°23'142429.7
2017-May-21 13:11N 35°32' E 119°50'154919.7
2017-May-21 13:00N 37°50' E 121°16'193941.1
2017-May-21 13:00N 37°33' E 121°23'589512147.3
2017-May-21 12:31N 33°37' W 117°55'5895416103.4
2017-May-21 12:30N 37°33' E 121°23'1913403.8
2017-May-21 12:30N 37°50' E 121°16'589169762.1
2017-May-21 12:25N 33°37' W 117°55'589114281.3
2017-May-21 12:00N 37°50' E 121°16'1911169.8
2017-May-21 12:00N 37°33' E 121°23'589568677.3
2017-May-21 11:55N 33°37' W 117°55'589514223.4
2017-May-21 11:30N 37°33' E 121°23'191046.5
2017-May-21 11:29N 37°50' E 121°16'1938.6
2017-May-21 11:00N 37°33' E 121°23'191557.6
2017-May-21 11:00N 37°50' E 121°16'589115803.1
2017-May-21 10:37N 33°37' W 117°55'589153420.0
2017-May-21 10:31N 37°50' E 121°16'193719.9
2017-May-21 10:30N 37°33' E 121°23'589569350.6
2017-May-21 10:25N 33°37' W 117°55'607966314.4
2017-May-21 10:20N 31°15' E 122°05'3801173.7
2017-May-21 10:00N 37°33' E 121°23'380227703.8
2017-May-21 10:00N 31°15' E 122°05'39838684.8
2017-May-21 10:00N 37°50' E 121°16'589121574.5
2017-May-21 09:43N 33°37' W 117°55'589127650.3
2017-May-21 09:30N 37°50' E 121°16'199562.5
2017-May-21 09:30N 37°33' E 121°23'37930359.5
2017-May-21 09:29N 31°15' E 122°05'607935468.0
2017-May-21 09:19N 33°37' W 117°55'589518631.5
2017-May-21 09:00N 37°33' E 121°23'195150.2
2017-May-21 09:00N 37°50' E 121°15'398119272.5
2017-May-21 09:00N 31°15' E 122°05'607921905.7
2017-May-21 08:43N 33°37' W 117°55'589527347.0
2017-May-21 08:30N 37°33' E 121°23'195145.5
2017-May-21 08:30N 37°50' E 121°15'39847706.9
2017-May-21 08:29N 31°15' E 122°05'607984493.3
2017-May-21 08:25N 33°37' W 117°55'589114329.7
2017-May-21 08:01N 37°50' E 121°15'199553.1
2017-May-21 08:00N 37°33' E 121°23'3384540.0
2017-May-21 07:56N 31°58' E 120°25'96825.5
2017-May-21 07:49N 31°15' E 122°05'607930909.3
2017-May-21 07:37N 33°37' W 117°55'589551633.3
2017-May-21 07:30N 37°33' E 121°23'379136618.0
2017-May-21 07:30N 31°15' E 122°05'398178892.7
2017-May-21 07:30N 37°50' E 121°15'3552185.4
2017-May-21 07:20N 31°58' E 120°25'6138339942.3
2017-May-21 07:19N 33°37' W 117°55'589118751.6
2017-May-21 07:00N 37°50' E 121°15'198351.3
2017-May-21 07:00N 37°33' E 121°23'379273235.9
2017-May-21 07:00N 31°15' E 122°05'607973189.8
2017-May-21 06:55N 33°37' W 117°55'613851030.6
2017-May-21 06:48N 31°58' E 120°25'3821798.5
2017-May-21 06:35N 38°02' E 118°02'1621958.4
2017-May-21 06:30N 37°33' E 121°23'38091080.1
2017-May-21 06:30N 31°15' E 122°05'967837.7
2017-May-21 06:29N 31°58' E 120°25'35511097.9
2017-May-21 06:27N 37°50' E 121°15'1536254.2
2017-May-21 06:26N 38°02' E 118°02'6041517794.9
2017-May-21 06:25N 33°37' W 117°55'613814780.1
2017-May-21 06:00N 31°58' E 120°25'338608404.2
2017-May-21 06:00N 37°33' E 121°23'38054648.0
2017-May-21 06:00N 31°15' E 122°05'6079223303.6
2017-May-21 05:58N 33°37' W 117°55'589113691.4
2017-May-21 05:32N 37°50' E 121°15'19521.6
2017-May-21 05:30N 37°33' E 121°23'38056925.0
2017-May-21 05:30N 31°15' E 122°05'607978436.4
2017-May-21 05:25N 33°37' W 117°55'5891176733.6
2017-May-21 05:23N 37°50' E 121°15'1948.5
2017-May-21 05:00N 37°33' E 121°23'1966810.6
2017-May-21 05:00N 37°50' E 121°15'398119260.0
2017-May-21 05:00N 31°15' E 122°05'951351.7
2017-May-21 04:56N 31°58' E 120°26'354842.1
2017-May-21 04:30N 37°50' E 121°15'193710.6
2017-May-21 04:30N 37°33' E 121°23'380105092.4
2017-May-21 04:30N 31°15' E 122°05'96553.5
2017-May-21 04:20N 32°01' E 120°27'96298.5
2017-May-21 04:00N 31°15' E 122°05'380341550.3
2017-May-21 04:00N 37°33' E 121°23'19123.0
2017-May-21 03:51N 37°50' E 121°15'3981152.3
2017-May-21 03:30N 31°15' E 122°05'38080364.8
2017-May-21 03:30N 37°33' E 121°23'19118.8
2017-May-21 03:21N 37°50' E 121°15'1954.7
2017-May-21 03:00N 37°33' E 121°23'1913362.1
2017-May-21 03:00N 37°50' E 121°15'39828622.4
2017-May-21 03:00N 31°15' E 122°05'379780.7
2017-May-21 02:30N 37°33' E 121°23'37968309.0
2017-May-21 02:30N 31°15' E 122°05'3982191.7
2017-May-21 02:19N 37°50' E 121°15'0 0.0
2017-May-21 02:00N 37°50' E 121°15'398238527.1
2017-May-21 02:00N 31°15' E 122°05'379273235.9
2017-May-21 02:00N 37°33' E 121°23'511214676.9
2017-May-21 01:39N 48°32' W 123°00'539135937.6
2017-May-21 01:30N 31°15' E 122°05'539119406323.6
2017-May-21 01:30N 48°32' W 123°00'51046124668.6
2017-May-21 01:30N 37°50' E 121°15'199556.0
2017-May-21 01:30N 37°33' E 121°23'1937.3
2017-May-21 01:00N 37°50' E 121°15'199558.9
2017-May-21 01:00N 37°33' E 121°23'37975898.9
2017-May-21 01:00N 31°15' E 122°05'5391128518.7
2017-May-21 00:57N 48°32' W 123°00'539111986.6
2017-May-21 00:30N 31°15' E 122°05'539119406323.6
2017-May-21 00:30N 48°32' W 123°00'51121415760.0
2017-May-21 00:30N 37°33' E 121°23'195579.4
2017-May-21 00:30N 37°50' E 121°15'1471710.0
2017-May-21 00:25N 38°17' E 118°12'49321.3
2017-May-21 00:16N 39°06' E 118°06'517920441.6
2017-May-21 00:00N 48°32' W 123°00'539119406314.1
2017-May-21 00:00N 31°15' E 122°05'398357806.8
2017-May-21 00:00N 37°50' E 121°15'198364.1
2017-May-21 00:00N 37°33' E 121°23'15714886.3
2017-May-21 00:00N 38°17' E 118°12'516161.7
2017-May-20 23:59N 39°08' E 118°06'517710847.2
2017-May-20 23:30N 48°32' W 123°00'53911764211.2
2017-May-20 23:30N 31°15' E 122°05'379341544.9
2017-May-20 23:30N 37°33' E 121°23'1826431.6
2017-May-20 23:28N 39°11' E 118°08'54634.9
2017-May-20 23:23N 38°17' E 118°12'147636.8
2017-May-20 23:10N 37°50' E 121°16'510433713.3
2017-May-20 23:00N 48°32' W 123°00'539119406314.1
2017-May-20 23:00N 31°15' E 122°05'37997584.3
2017-May-20 23:00N 37°33' E 121°23'196693.3
2017-May-20 23:00N 37°50' E 121°15'1471604.0
2017-May-20 22:55N 38°17' E 118°12'521412981.0
2017-May-20 22:30N 48°32' W 123°00'53911764210.4
2017-May-20 22:30N 31°15' E 122°05'3791366179.6
2017-May-20 22:30N 37°33' E 121°23'154138720.8
2017-May-20 22:30N 38°17' E 118°16'14428744.0
2017-May-20 22:30N 37°50' E 121°16'36429122.4
2017-May-20 22:29N 31°46' E 121°03'541211320.1
2017-May-20 22:00N 48°32' W 123°00'539119406314.1
2017-May-20 22:00N 31°15' E 122°05'37997584.3
2017-May-20 22:00N 37°33' E 121°23'348250609.3
2017-May-20 22:00N 31°45' E 121°06'36537576.4
2017-May-20 22:00N 37°50' E 121°16'137474.8
2017-May-20 21:42N 38°18' E 118°25'148756.0
2017-May-20 21:30N 37°33' E 121°23'3501260393.8
2017-May-20 21:30N 31°43' E 121°08'5614449.9
2017-May-20 21:30N 31°15' E 122°05'39743362.9
2017-May-20 21:30N 37°50' E 121°16'5104138149.2
2017-May-20 21:27N 48°32' W 123°00'520128453.8
2017-May-20 21:16N 38°18' E 118°30'520119442.0
2017-May-20 21:00N 48°32' W 123°00'541019475509.8
2017-May-20 21:00N 31°41' E 121°11'369265831.9
2017-May-20 21:00N 37°50' E 121°16'39838677.3
2017-May-20 21:00N 31°15' E 122°05'539111057.7
2017-May-20 20:30N 48°32' W 123°00'54106491439.2
2017-May-20 20:30N 31°39' E 121°13'371222633.7
2017-May-20 20:30N 37°50' E 121°16'1966703.1
2017-May-20 20:30N 37°33' E 121°23'37997584.3
2017-May-20 20:30N 31°15' E 122°05'4561903.0
2017-May-20 20:16N 38°19' E 118°40'4211658.8
2017-May-20 20:00N 31°37' E 121°16'4857422.3
2017-May-20 20:00N 31°15' E 122°05'398286217.2
2017-May-20 20:00N 37°50' E 121°16'1911110.4
2017-May-20 20:00N 37°33' E 121°23'5112110872.7
2017-May-20 19:57N 48°32' W 123°00'541819621.7
2017-May-20 19:41N 30°35' E 122°13'541831156.5
2017-May-20 19:30N 48°32' W 123°00'540919473257.3
2017-May-20 19:30N 31°35' E 121°18'4540701.4
2017-May-20 19:30N 31°15' E 122°05'3981431086.2
2017-May-20 19:30N 37°50' E 121°16'198332.8
2017-May-20 19:30N 37°33' E 121°23'130683.8
2017-May-20 19:19N 38°19' E 118°49'518616956.7
2017-May-20 19:00N 48°32' W 123°00'54109737380.2
2017-May-20 19:00N 31°33' E 121°20'4351241.8
2017-May-20 19:00N 31°15' E 122°05'380105094.0
2017-May-20 19:00N 37°33' E 121°23'19303.8
2017-May-20 18:57N 37°50' E 121°16'115558.2
2017-May-20 18:44N 38°19' E 118°54'518222751.4
2017-May-20 18:31N 48°32' W 123°00'54096490632.9
2017-May-20 18:30N 31°31' E 121°23'4028686.8
2017-May-20 18:30N 31°15' E 122°05'398715638.2
2017-May-20 18:30N 37°50' E 121°16'196688.1
2017-May-20 18:30N 37°33' E 121°23'1244073.3
2017-May-20 18:28N 38°19' E 118°57'113243.5
2017-May-20 18:01N 37°50' E 121°16'38191324.0
2017-May-20 18:00N 31°30' E 121°26'3766530.8
2017-May-20 18:00N 31°15' E 122°05'379341544.9
2017-May-20 18:00N 37°33' E 121°23'1937.4
2017-May-20 17:30N 37°50' E 121°16'38391819.5
2017-May-20 17:30N 31°28' E 121°28'365109469.5
2017-May-20 17:30N 37°33' E 121°23'379136618.0
2017-May-20 17:30N 31°15' E 122°05'3265.7
2017-May-20 17:00N 31°26' E 121°30'3257721.2
2017-May-20 17:00N 31°15' E 122°05'398477113.6
2017-May-20 17:00N 37°50' E 121°16'199563.2
2017-May-20 17:00N 37°33' E 121°23'1937.6
2017-May-20 16:31N 37°50' E 121°16'386347506.0
2017-May-20 16:30N 31°24' E 121°33'2935223.2
2017-May-20 16:30N 31°15' E 122°05'38039034.3
2017-May-20 16:30N 37°33' E 121°23'395839.8
2017-May-20 16:02N 30°59' E 122°10'41423261.9
2017-May-20 16:00N 37°50' E 121°16'1966942.5
2017-May-20 16:00N 37°33' E 121°23'380341550.3
2017-May-20 16:00N 31°15' E 122°05'6079170966.9
2017-May-20 15:58N 33°37' W 117°55'608568026.6
2017-May-20 15:53N 30°60' E 122°09'539937889.8
2017-May-20 15:44N 48°34' W 123°01'6875174299.5
2017-May-20 15:42N 05°17' W 004°01'732638004.3
2017-May-20 15:30N 31°21' E 121°39'2485414.6
2017-May-20 15:30N 31°15' E 122°05'3801366201.1
2017-May-20 15:30N 37°33' E 121°23'1922339.7
2017-May-20 15:30N 37°50' E 121°16'51034592965.6
2017-May-20 15:30N 48°32' W 123°01'6875128244.5
2017-May-20 15:27N 05°17' W 004°01'666423848.0
2017-May-20 15:10N 33°37' W 117°55'589535427.9
2017-May-20 15:00N 37°33' E 121°23'19173.0
2017-May-20 14:54N 37°50' E 121°16'5891230516.3
2017-May-20 14:52N 33°37' W 117°55'5960550161.1
2017-May-20 14:52N 38°18' E 119°31'7161125148.7
2017-May-20 14:48N 05°17' W 004°01'732728119.7
2017-May-20 14:33N 31°20' E 121°39'2421225.1
2017-May-20 14:33N 31°05' E 121°60'114932.4
2017-May-20 14:32N 31°15' E 122°05'39812555.8
2017-May-20 14:31N 37°50' E 121°16'390468298.7
2017-May-20 14:30N 31°20' E 121°39'430221015.0
2017-May-20 14:30N 38°18' E 119°34'9749984.1
2017-May-20 14:30N 37°33' E 121°23'387777.3
2017-May-20 14:00N 31°07' E 121°56'112150.1
2017-May-20 14:00N 31°15' E 122°05'7353135060.8
2017-May-20 13:57N 05°16' W 004°02'726016572.5
2017-May-20 13:31N 37°50' E 121°16'390351226.2
2017-May-20 13:30N 31°20' E 121°39'1719932.6
2017-May-20 13:30N 31°09' E 121°53'734226432472.9
2017-May-20 13:30N 05°16' W 004°02'72691869095.0
2017-May-20 13:30N 37°33' E 121°23'892701.5
2017-May-20 13:28N 38°18' E 119°45'427925.1
2017-May-20 13:00N 31°20' E 121°39'2383949.8
2017-May-20 13:00N 31°15' E 122°05'398238559.9
2017-May-20 13:00N 37°50' E 121°16'194187.4
2017-May-20 13:00N 37°33' E 121°23'726933504.9
2017-May-20 12:47N 05°16' W 004°02'718438426.3
2017-May-20 12:36N 38°13' E 119°53'4224703.0
2017-May-20 12:30N 31°20' E 121°39'1119939.7
2017-May-20 12:30N 31°13' E 121°48'1553317.9
2017-May-20 12:30N 31°15' E 122°05'398477126.9
2017-May-20 12:30N 37°50' E 121°16'193046.3
2017-May-20 12:30N 37°33' E 121°23'726967616.0
2017-May-20 12:24N 05°16' W 004°02'6664337891.3
2017-May-20 12:22N 33°37' W 117°55'5943106433.8
2017-May-20 12:19N 38°12' E 119°56'66212.8
2017-May-20 12:00N 37°50' E 121°16'192576.9
2017-May-20 12:00N 37°33' E 121°23'7269594714.4
2017-May-20 11:59N 05°16' W 004°02'73281147004.7
2017-May-20 11:59N 31°20' E 121°39'915301.0
2017-May-20 11:59N 31°15' E 121°46'1658724.6
2017-May-20 11:59N 31°15' E 122°05'607957137.7
2017-May-20 11:52N 33°37' W 117°55'5940164490.6
2017-May-20 11:50N 38°10' E 120°01'4171268.9
2017-May-20 11:30N 31°20' E 121°39'65712.2
2017-May-20 11:30N 31°16' E 121°45'377150647.4
2017-May-20 11:30N 37°33' E 121°23'1916744.5
2017-May-20 11:30N 37°50' E 121°16'7260109351.6
2017-May-20 11:26N 05°16' W 004°02'730837909.1
2017-May-20 11:15N 31°31' E 121°19'1 2.4
2017-May-20 11:00N 31°31' E 121°19'4338327.6
2017-May-20 11:00N 31°15' E 122°05'2313991.6
2017-May-20 11:00N 31°20' E 121°39'390234143.6
2017-May-20 11:00N 37°50' E 121°16'193043.5
2017-May-20 11:00N 37°33' E 121°23'1938.1
2017-May-20 10:30N 37°50' E 121°16'1966957.8
2017-May-20 10:30N 37°33' E 121°23'372446904.3
2017-May-20 10:30N 31°20' E 121°39'2341974.9
2017-May-20 10:30N 31°15' E 122°05'218505.1
2017-May-20 10:30N 31°20' E 121°41'19665.0
2017-May-20 10:29N 31°30' E 121°23'610659085.7
2017-May-20 10:22N 33°37' W 117°55'5928190543.0
2017-May-20 10:20N 38°06' E 120°19'4111229.3
2017-May-20 10:00N 31°20' E 121°39'372670356.5
2017-May-20 10:00N 37°33' E 121°23'3721339538.0
2017-May-20 10:00N 31°21' E 121°39'135962.5
2017-May-20 10:00N 31°29' E 121°26'400360234.6
2017-May-20 10:00N 38°05' E 120°22'5925195699.8
2017-May-20 09:58N 33°37' W 117°55'5891662741.9
2017-May-20 09:58N 37°50' E 121°16'10013563.9
2017-May-20 09:41N 22°19' E 114°12'9995719.8
2017-May-20 09:30N 38°04' E 120°28'10001799967.1
2017-May-20 09:30N 22°18' E 114°12'6732423270.0
2017-May-20 09:30N 31°20' E 121°39'24411.8
2017-May-20 09:30N 31°22' E 121°37'2645944.8
2017-May-20 09:30N 31°15' E 122°05'379341544.9
2017-May-20 09:30N 37°33' E 121°23'366219829.2
2017-May-20 09:30N 31°26' E 121°29'384115218.4
2017-May-20 09:30N 37°50' E 121°15'5891216407.6
2017-May-20 09:28N 33°37' W 117°55'591712733.2
2017-May-20 09:00N 38°03' E 120°34'401240899.3
2017-May-20 09:00N 31°24' E 121°33'73383.0
2017-May-20 09:00N 31°20' E 121°39'372446904.3
2017-May-20 09:00N 37°33' E 121°23'379136618.0
2017-May-20 09:00N 31°15' E 122°05'282467.7
2017-May-20 08:59N 31°23' E 121°34'3879818.8
2017-May-20 08:57N 37°50' E 121°15'0 0.0
2017-May-20 08:31N 37°50' E 121°15'3155137.1
2017-May-20 08:30N 38°02' E 120°40'405485533.0
2017-May-20 08:30N 31°20' E 121°39'46322.5
2017-May-20 08:30N 31°23' E 121°36'370133141.9
2017-May-20 08:30N 37°33' E 121°23'5895189475.8
2017-May-20 08:28N 33°37' W 117°55'6814170342.4
2017-May-20 08:26N 22°19' E 114°09'6751586.2
2017-May-20 08:00N 31°22' E 121°39'402289491.7
2017-May-20 08:00N 38°01' E 120°45'403362798.9
2017-May-20 08:00N 31°20' E 121°39'2341974.9
2017-May-20 08:00N 31°15' E 122°05'398286241.1
2017-May-20 08:00N 37°50' E 121°15'1966892.1
2017-May-20 08:00N 37°33' E 121°23'988177912.5
2017-May-20 08:00N 22°19' E 114°09'6814299137.8
2017-May-20 07:58N 33°37' W 117°55'590612685.8
2017-May-20 07:31N 38°00' E 120°50'402723132.1
2017-May-20 07:30N 31°20' E 121°39'21459.5
2017-May-20 07:30N 31°20' E 121°42'2137596.3
2017-May-20 07:30N 31°15' E 122°05'3981431184.2
2017-May-20 07:30N 37°50' E 121°15'194179.5
2017-May-20 07:30N 37°33' E 121°23'5895212212.9
2017-May-20 07:28N 33°37' W 117°55'681442002.1
2017-May-20 07:19N 22°19' E 114°09'10023315.1
2017-May-20 07:01N 37°50' E 121°15'390234112.7
2017-May-20 07:00N 31°20' E 121°39'2316790.0
2017-May-20 07:00N 31°15' E 122°05'4081470271.9
2017-May-20 07:00N 37°59' E 120°55'403290366.1
2017-May-20 07:00N 31°18' E 121°44'37584436.6
2017-May-20 07:00N 37°33' E 121°23'589546537.9
2017-May-20 06:52N 33°37' W 117°55'6814183054.0
2017-May-20 06:50N 22°19' E 114°09'10033066.4
2017-May-20 06:31N 37°57' E 120°60'398286553.8
2017-May-20 06:30N 31°20' E 121°39'726873.2
2017-May-20 06:30N 31°16' E 121°46'395101607.9
2017-May-20 06:30N 37°50' E 121°15'193932.4
2017-May-20 06:30N 37°33' E 121°23'98855596.4
2017-May-20 06:29N 22°19' E 114°09'6814943432.3
2017-May-20 06:28N 33°37' W 117°55'589112684.2
2017-May-20 06:01N 37°50' E 121°15'1139748.6
2017-May-20 06:01N 37°54' E 121°02'394354808.7
2017-May-20 06:00N 31°20' E 121°39'1011782.9
2017-May-20 06:00N 31°14' E 121°48'379136491.4
2017-May-20 06:00N 37°33' E 121°23'379113848.3
2017-May-20 06:00N 31°15' E 122°05'607947781.1
2017-May-20 05:52N 33°37' W 117°55'589116140.0
2017-May-20 05:30N 37°50' E 121°15'930711.8
2017-May-20 05:30N 37°50' E 121°05'399287570.1
2017-May-20 05:30N 31°12' E 121°50'1424770.7
2017-May-20 05:30N 31°15' E 122°05'2313991.6
2017-May-20 05:30N 31°20' E 121°39'37249656.0
2017-May-20 05:30N 37°33' E 121°23'989355898.9
2017-May-20 05:30N 22°18' E 114°09'6814331485.6
2017-May-20 05:28N 33°37' W 117°55'607913072.7
2017-May-20 05:01N 31°15' E 122°05'380683100.6
2017-May-20 05:00N 37°33' E 121°23'372670367.3
2017-May-20 05:00N 31°20' E 121°39'1417214.9
2017-May-20 05:00N 31°11' E 121°51'40027200.3
2017-May-20 05:00N 37°50' E 121°15'589126947.9
2017-May-20 04:46N 33°37' W 117°55'607922987.1
2017-May-20 04:31N 31°15' E 122°05'2320851.9
2017-May-20 04:30N 31°20' E 121°39'1614611.6
2017-May-20 04:30N 31°10' E 121°53'40211762.3
2017-May-20 04:28N 37°50' E 121°15'389837.9
2017-May-20 04:00N 31°22' E 121°40'1821817.9
2017-May-20 04:00N 31°08' E 121°55'1112993.9
2017-May-20 04:00N 31°15' E 122°05'398715635.1
2017-May-20 04:00N 37°50' E 121°15'1933466.4
2017-May-20 04:00N 37°33' E 121°23'9883488.4
2017-May-20 03:43N 22°19' E 114°09'6843206.8
2017-May-20 03:31N 31°15' E 122°05'2220116.3
2017-May-20 03:30N 31°22' E 121°40'207233.2
2017-May-20 03:30N 31°07' E 121°57'67441824.1
2017-May-20 03:29N 22°19' E 114°09'9932702.9
2017-May-20 03:07N 37°43' E 121°07'1088.3
2017-May-20 03:00N 37°50' E 121°16'406292081.5
2017-May-20 03:00N 31°06' E 121°59'229987.4
2017-May-20 03:00N 31°22' E 121°40'371445588.3
2017-May-20 03:00N 37°33' E 121°23'38059400.0
2017-May-20 03:00N 31°15' E 122°05'68446468.4
2017-May-20 02:59N 22°19' E 114°09'9936129.0
2017-May-20 02:49N 37°43' E 121°07'590240242.7
2017-May-20 02:40N 33°37' W 117°55'607936779.4
2017-May-20 02:31N 31°15' E 122°05'398715529.2
2017-May-20 02:30N 37°50' E 121°16'389466862.7
2017-May-20 02:30N 31°22' E 121°40'2544327.2
2017-May-20 02:30N 31°04' E 122°01'38987625.7
2017-May-20 02:30N 37°33' E 121°23'988118611.7
2017-May-20 02:30N 22°19' E 114°09'6814336018.7
2017-May-20 02:28N 33°37' W 117°55'590229067.3
2017-May-20 02:16N 37°43' E 121°07'1038.0
2017-May-20 02:00N 37°50' E 121°16'389350174.0
2017-May-20 02:00N 31°22' E 121°40'278117.3
2017-May-20 02:00N 31°03' E 122°04'391140715.3
2017-May-20 02:00N 37°33' E 121°23'38016460.3
2017-May-20 01:59N 31°15' E 122°05'3918694.6
2017-May-20 01:56N 37°43' E 121°07'99316168.6
2017-May-20 01:52N 22°19' E 114°09'10022757.6
2017-May-20 01:30N 37°50' E 121°15'389466916.2
2017-May-20 01:30N 31°22' E 121°40'2935386.7
2017-May-20 01:30N 31°02' E 122°06'1323089.3
2017-May-20 01:30N 31°15' E 122°05'39161239.0
2017-May-20 01:30N 37°43' E 121°07'171333.9
2017-May-20 01:29N 37°33' E 121°23'371774.4
2017-May-20 01:00N 31°22' E 121°40'3216496.0
2017-May-20 01:00N 31°00' E 122°09'4061460714.6
2017-May-20 01:00N 37°43' E 121°07'107176.5
2017-May-20 01:00N 37°50' E 121°16'398143118.7
2017-May-20 01:00N 31°15' E 122°05'379124198.1
2017-May-20 01:00N 37°33' E 121°23'98837853.7
2017-May-20 00:58N 22°19' E 114°09'620917824.3
2017-May-20 00:37N 48°32' W 123°00'510444273.8
2017-May-20 00:31N 37°50' E 121°16'389350209.4
2017-May-20 00:30N 31°22' E 121°40'2220121.3
2017-May-20 00:30N 31°15' E 122°05'684492565.3
2017-May-20 00:30N 22°19' E 114°09'62091015999.5
2017-May-20 00:30N 48°32' W 123°00'51139202578.9
2017-May-20 00:30N 37°33' E 121°23'171091.4
2017-May-20 00:29N 37°43' E 121°07'4084966.9
2017-May-20 00:24N 30°58' E 122°11'1744.4
2017-May-20 00:01N 31°15' E 122°05'2240249.1
2017-May-20 00:00N 31°22' E 121°40'37132601.2
2017-May-20 00:00N 37°33' E 121°23'197411.5
2017-May-20 00:00N 37°50' E 121°16'10143.8
2017-May-19 23:55N 37°43' E 121°07'510029140.8
2017-May-19 23:45N 48°39' W 123°18'537522290.9
2017-May-19 23:31N 31°15' E 122°05'379683089.8
2017-May-19 23:30N 37°33' E 121°23'3711336570.7
2017-May-19 23:30N 31°22' E 121°40'389175087.0
2017-May-19 23:30N 37°50' E 121°16'10026103.5
2017-May-19 23:20N 22°19' E 114°09'9933104.4
2017-May-19 23:01N 37°43' E 121°07'39130620.9
2017-May-19 23:01N 31°15' E 122°05'4001441479.6
2017-May-19 23:01N 37°53' E 121°12'392352601.6
2017-May-19 23:00N 31°22' E 121°40'371445530.8
2017-May-19 23:00N 37°33' E 121°23'989148359.7
2017-May-19 23:00N 22°17' E 114°11'993162530.1
2017-May-19 23:00N 37°43' E 121°07'382786.6
2017-May-19 22:30N 31°22' E 121°40'2213390.4
2017-May-19 22:30N 31°15' E 122°05'380455400.4
2017-May-19 22:30N 37°33' E 121°23'262429.8
2017-May-19 22:30N 37°54' E 121°06'11571.8
2017-May-19 22:28N 37°43' E 121°07'1430.0
2017-May-19 22:00N 37°56' E 121°01'396109672.0
2017-May-19 22:00N 31°22' E 121°40'371445538.0
2017-May-19 22:00N 37°33' E 121°23'37914690.1
2017-May-19 21:59N 31°15' E 122°05'68439092.7
2017-May-19 21:58N 22°19' E 114°09'99333084.2
2017-May-19 21:56N 37°43' E 121°07'391926.7
2017-May-19 21:30N 31°15' E 122°05'2240255.8
2017-May-19 21:30N 31°22' E 121°40'398178986.5
2017-May-19 21:30N 37°58' E 120°56'3319874.5
2017-May-19 21:30N 37°33' E 121°23'17519.9
2017-May-19 21:28N 37°43' E 121°07'9938139.1
2017-May-19 21:21N 22°19' E 114°09'10022940.5
2017-May-19 21:01N 37°59' E 120°50'4091471841.0
2017-May-19 21:01N 31°15' E 122°05'2226780.9
2017-May-19 21:00N 31°22' E 121°40'37170347.0
2017-May-19 21:00N 37°33' E 121°23'17354.8
2017-May-19 20:57N 37°43' E 121°07'391876.5
2017-May-19 20:31N 31°15' E 122°05'411739129.6
2017-May-19 20:30N 37°60' E 120°45'4011443441.7
2017-May-19 20:30N 31°22' E 121°40'37153462.8
2017-May-19 20:30N 37°33' E 121°23'172415.0
2017-May-19 20:30N 37°44' E 121°08'9947318.8
2017-May-19 20:21N 22°19' E 114°09'67622314.4
2017-May-19 20:20N 31°22' E 121°39'1 2.5
2017-May-19 20:01N 31°22' E 121°40'4021447599.3
2017-May-19 20:00N 38°01' E 120°39'403483329.9
2017-May-19 20:00N 31°22' E 121°40'225021.4
2017-May-19 20:00N 31°15' E 122°05'39545899.5
2017-May-19 20:00N 37°47' E 121°11'181386.2
2017-May-19 19:59N 37°33' E 121°23'98816549.7
2017-May-19 19:55N 22°19' E 114°09'6761636.6
2017-May-19 19:31N 31°22' E 121°40'1665.0
2017-May-19 19:30N 31°22' E 121°40'404242610.4
2017-May-19 19:30N 38°02' E 120°33'355926.9
2017-May-19 19:30N 37°50' E 121°14'1911262.0
2017-May-19 19:30N 37°33' E 121°23'9887475.2
2017-May-19 19:22N 22°19' E 114°09'6761885.0
2017-May-19 19:00N 31°22' E 121°40'2213392.7
2017-May-19 19:00N 31°15' E 122°05'380195174.7
2017-May-19 19:00N 37°33' E 121°23'5348035.2
2017-May-19 19:00N 38°03' E 120°28'10006414.0
2017-May-19 18:51N 22°19' E 114°09'9992952.1
2017-May-19 18:31N 38°04' E 120°22'407488951.4
2017-May-19 18:30N 31°22' E 121°40'2216068.5
2017-May-19 18:30N 31°15' E 122°05'2383284.6
2017-May-19 18:30N 31°22' E 121°40'37140436.1
2017-May-19 18:30N 37°33' E 121°23'9883322.3
2017-May-19 18:12N 22°19' E 114°09'6843584.9
2017-May-19 18:01N 31°15' E 122°05'2383215.3
2017-May-19 18:00N 31°22' E 121°40'3711334606.1
2017-May-19 18:00N 37°33' E 121°23'3711336657.0
2017-May-19 18:00N 31°22' E 121°40'409210396.4
2017-May-19 18:00N 38°05' E 120°17'9985419.3
2017-May-19 17:49N 22°19' E 114°09'6762161.2
2017-May-19 17:31N 31°22' E 121°40'371166831.2
2017-May-19 17:30N 37°33' E 121°23'371222779.8
2017-May-19 17:30N 31°22' E 121°40'224724.5
2017-May-19 17:30N 31°15' E 122°05'422168738.4
2017-May-19 17:30N 38°06' E 120°11'99815413.5
2017-May-19 17:26N 22°19' E 114°09'6841612.9
2017-May-19 17:01N 31°15' E 122°05'424127163.1
2017-May-19 17:00N 38°07' E 120°06'70253225.2
2017-May-19 17:00N 37°33' E 121°23'37174261.1
2017-May-19 17:00N 31°22' E 121°40'6761482.0
2017-May-19 16:33N 22°19' E 114°09'99728027.6
2017-May-19 16:31N 38°08' E 120°00'415746320.7
2017-May-19 16:30N 31°22' E 121°40'1384.1
2017-May-19 16:30N 31°22' E 121°40'37149432.3
2017-May-19 16:30N 37°33' E 121°23'9889488.5
2017-May-19 16:24N 22°19' E 114°09'6962163818.3
2017-May-19 16:21N 05°16' W 004°02'732921362.8
2017-May-19 16:01N 31°22' E 121°40'4161496948.9
2017-May-19 16:00N 38°09' E 119°54'416499764.3
2017-May-19 16:00N 31°22' E 121°40'222008.1
2017-May-19 16:00N 31°15' E 122°05'37975898.9
2017-May-19 15:59N 37°33' E 121°23'9889123.6
2017-May-19 15:53N 22°19' E 114°09'6962105311.5
2017-May-19 15:49N 05°16' W 004°02'732923768.4
2017-May-19 15:31N 31°22' E 121°40'4181503875.5
2017-May-19 15:30N 38°10' E 119°49'418753108.9
2017-May-19 15:30N 31°22' E 121°40'2240171.3
2017-May-19 15:30N 31°15' E 122°05'38080364.8
2017-May-19 15:30N 37°33' E 121°23'98811441.1
2017-May-19 15:25N 22°19' E 114°09'6962109450.5
2017-May-19 15:21N 05°16' W 004°02'732921345.4
2017-May-19 15:01N 31°22' E 121°40'419754156.7
2017-May-19 15:01N 38°10' E 119°43'420503558.7
2017-May-19 15:00N 31°22' E 121°40'222591.5
2017-May-19 15:00N 31°15' E 122°05'37935952.1
2017-May-19 14:59N 37°33' E 121°23'7269256540.2
2017-May-19 14:58N 05°16' W 004°02'6962114972.6
2017-May-19 14:54N 22°19' E 114°09'681455122.3
2017-May-19 14:47N 33°37' W 117°55'595922253.1
2017-May-19 14:30N 38°11' E 119°37'801078.3
2017-May-19 14:26N 37°51' E 121°15'5891100991.3
2017-May-19 14:23N 33°37' W 117°55'609616588.0
2017-May-19 14:01N 31°22' E 121°40'1736.4
2017-May-19 14:00N 31°22' E 121°40'2211499.8
2017-May-19 14:00N 31°15' E 122°05'37952545.4
2017-May-19 14:00N 37°33' E 121°23'9888985.4
2017-May-19 13:53N 22°19' E 114°09'6761780.3
2017-May-19 13:31N 31°22' E 121°40'11051.2
2017-May-19 13:30N 31°22' E 121°40'227316.2
2017-May-19 13:30N 31°15' E 122°05'379455393.2
2017-May-19 13:30N 37°33' E 121°23'7269594708.4
2017-May-19 13:29N 05°16' W 004°02'6962783253.2
2017-May-19 13:29N 22°19' E 114°09'9943258.2
2017-May-19 13:11N 38°14' E 119°24'4272527.9
2017-May-19 13:01N 31°22' E 121°40'  
Track history (hours):
 
Tides and Currents Weather Stations Pressure Air Temp Water Temp Dewpoint Dewpoint Depression Visibility Wind Speed Wind Dir Waves Ship Positions

Graceful Lady

Last reported at 2017-May-29 13:00 UTC. Time now 2017-May-29 13:26 UTC.
Position N 31°15' E 122°05'.

Length 6 m.

Type: Pollution control. MMSI: 316014038.

Date/timePositionNaut miles runAvg speedWind from/ knotsBaromVisibWave heightAir tempDewpointWater temp
2017-May-29 13:00N 31°15' E 122°05'398110308.6
2017-May-29 13:00N 37°53' E 122°04'38136348.4
2017-May-29 13:00N 37°33' E 121°23'0 0.0
2017-May-29 12:30N 37°33' E 121°23'379170772.5
2017-May-29 12:30N 31°15' E 122°05'40017577.8
2017-May-29 12:29N 37°55' E 122°00'4601443.0
2017-May-29 12:10N 30°15' E 121°41'4382684.2
2017-May-29 12:00N 37°33' E 121°23'3791366179.6
2017-May-29 12:00N 31°15' E 122°05'40221620.0
2017-May-29 11:59N 37°57' E 121°57'402850.1
2017-May-29 11:30N 31°15' E 122°05'38041400.7
2017-May-29 11:30N 37°33' E 121°23'380761.1
2017-May-29 11:00N 31°15' E 122°05'37924839.6
2017-May-29 10:59N 37°33' E 121°23'0 0.0
2017-May-29 10:30N 37°33' E 121°23'37947109.6
2017-May-29 10:30N 31°15' E 122°05'4271194.7
2017-May-29 10:09N 38°07' E 119°53'431245.7
2017-May-29 10:06N 38°18' E 118°60'4504521.8
2017-May-29 10:01N 31°15' E 122°05'379195168.5
2017-May-29 10:00N 37°33' E 121°23'1229341.7
2017-May-29 10:00N 38°18' E 118°60'44159369.2
2017-May-29 10:00N 38°08' E 119°55'85767.1
2017-May-29 09:53N 38°06' E 121°43'3697.0
2017-May-29 09:30N 37°33' E 121°23'380273240.2
2017-May-29 09:30N 31°15' E 122°05'45025695.4
2017-May-29 09:29N 38°18' E 118°60'122252.8
2017-May-29 09:00N 37°33' E 121°23'380113850.1
2017-May-29 09:00N 31°15' E 122°05'42550958.0
2017-May-29 09:00N 38°08' E 120°05'52377.6
2017-May-29 08:51N 38°18' E 118°60'3861449.7
2017-May-29 08:35N 31°59' E 120°26'951181.9
2017-May-29 08:30N 31°15' E 122°05'42328171.8
2017-May-29 08:30N 38°07' E 120°11'677280.9
2017-May-29 08:29N 37°33' E 121°23'40351.9
2017-May-29 08:22N 38°12' E 121°33'4181150.2
2017-May-29 08:00N 31°15' E 122°05'37968309.0
2017-May-29 08:00N 37°33' E 121°23'626812.8
2017-May-29 08:00N 38°06' E 120°16'6023800.9
2017-May-29 07:59N 38°13' E 121°31'4183.1
2017-May-29 07:30N 37°33' E 121°23'37913136.3
2017-May-29 07:28N 31°15' E 122°05'42116296.0
2017-May-29 07:27N 38°15' E 121°28'52987.2
2017-May-29 07:24N 38°05' E 120°23'51130.1
2017-May-29 07:00N 38°16' E 121°26'4314192.2
2017-May-29 07:00N 37°33' E 121°23'379341544.9
2017-May-29 07:00N 31°15' E 122°05'4163904.0
2017-May-29 06:54N 38°04' E 120°29'53133.7
2017-May-29 06:30N 37°33' E 121°23'37965056.2
2017-May-29 06:30N 31°15' E 122°05'415497607.4
2017-May-29 06:30N 38°03' E 120°35'4998.6
2017-May-29 06:00N 37°33' E 121°23'448839.0
2017-May-29 06:00N 38°02' E 120°41'413247641.4
2017-May-29 05:59N 31°15' E 122°05'42610870.8
2017-May-29 05:57N 38°19' E 121°21'426940.4
2017-May-29 05:30N 31°15' E 122°05'379136618.0
2017-May-29 05:30N 37°33' E 121°23'4010985.4
2017-May-29 05:30N 38°00' E 120°47'4081.7
2017-May-29 05:00N 37°33' E 121°23'37933321.5
2017-May-29 05:00N 31°15' E 122°05'409133837.2
2017-May-29 05:00N 37°59' E 120°54'409842.7
2017-May-29 04:30N 31°15' E 122°05'379227696.6
2017-May-29 04:30N 37°33' E 121°23'31497.2
2017-May-29 04:27N 37°58' E 121°00'3171.4
2017-May-29 04:00N 37°33' E 121°23'37921018.1
2017-May-29 03:59N 31°15' E 122°05'0 0.0
2017-May-29 03:30N 31°15' E 122°05'379136618.0
2017-May-29 03:30N 37°33' E 121°23'3689270.2
2017-May-29 03:28N 31°24' E 121°31'34476.0
2017-May-29 03:24N 31°04' E 122°03'1127.5
2017-May-29 03:00N 31°15' E 122°05'38097585.8
2017-May-29 03:00N 37°33' E 121°23'38938894.7
2017-May-29 03:00N 31°05' E 122°01'356972.4
2017-May-29 02:59N 31°26' E 121°29'381855.7
2017-May-29 02:33N 37°47' E 121°15'3959668.9
2017-May-29 02:30N 31°15' E 122°05'3610838.3
2017-May-29 02:30N 31°28' E 121°26'36439753.3
2017-May-29 02:29N 37°33' E 121°23'38818863.7
2017-May-29 02:28N 31°06' E 121°58'40215576.6
2017-May-29 02:27N 37°47' E 121°15'4452422.8
2017-May-29 02:16N 30°22' E 121°30'50196.7
2017-May-29 02:00N 31°07' E 121°56'38692706.4
2017-May-29 02:00N 37°33' E 121°23'37985386.2
2017-May-29 02:00N 31°15' E 122°05'392108451.3
2017-May-29 02:00N 37°44' E 121°18'44457051.8
2017-May-29 01:59N 30°21' E 121°32'72157.6
2017-May-29 01:32N 31°32' E 121°21'421886.5
2017-May-29 01:30N 31°15' E 122°05'1244848.4
2017-May-29 01:30N 31°10' E 121°52'384345415.7
2017-May-29 01:30N 37°33' E 121°23'10713.9
2017-May-29 01:30N 37°42' E 121°22'37012107.5
2017-May-29 01:28N 31°32' E 121°20'3269.4
2017-May-29 01:00N 31°12' E 121°49'146453.2
2017-May-29 01:00N 31°15' E 122°05'38633106.8
2017-May-29 01:00N 37°40' E 121°26'7727.9
2017-May-29 00:59N 37°33' E 121°23'3571373.0
2017-May-29 00:43N 31°36' E 121°17'47216.7
2017-May-29 00:30N 31°15' E 122°05'1658540.4
2017-May-29 00:30N 31°15' E 121°46'37840068.4
2017-May-29 00:30N 37°33' E 121°23'5874.2
2017-May-29 00:30N 37°36' E 121°27'4351236.3
2017-May-29 00:08N 30°21' E 121°33'57432.8
2017-May-29 00:00N 31°18' E 121°44'193225.9
2017-May-29 00:00N 31°15' E 122°05'37971904.2
2017-May-29 00:00N 37°33' E 121°23'2534.8
2017-May-29 00:00N 37°35' E 121°24'4341721.3
2017-May-28 23:44N 30°21' E 121°33'1135289.3
2017-May-28 23:43N 31°59' E 120°26'95445.8
2017-May-28 23:30N 31°15' E 122°05'37937949.4
2017-May-28 23:30N 37°33' E 121°23'432388743.2
2017-May-28 23:30N 30°21' E 121°33'434390842.7
2017-May-28 23:30N 37°35' E 121°23'3759187.5
2017-May-28 23:27N 31°20' E 121°40'373836.2
2017-May-28 23:00N 37°33' E 121°23'37153419.7
2017-May-28 23:00N 31°22' E 121°37'37361085.7
2017-May-28 23:00N 37°35' E 121°23'382687264.1
2017-May-28 23:00N 31°15' E 122°05'613173.8
2017-May-28 22:58N 30°21' E 121°33'432918.5
2017-May-28 22:30N 37°33' E 121°23'432119610.0
2017-May-28 22:30N 30°21' E 121°33'633660.9
2017-May-28 22:29N 31°24' E 121°33'3719345.6
2017-May-28 22:27N 37°35' E 121°23'2 5.4
2017-May-28 22:01N 37°33' E 121°23'2150.1
2017-May-28 22:00N 37°35' E 121°23'38228636.5
2017-May-28 21:59N 31°15' E 122°05'331275.5
2017-May-28 21:57N 31°26' E 121°29'651552.4
2017-May-28 21:55N 30°21' E 121°33'62294.8
2017-May-28 21:42N 31°22' E 121°40'3711893.8
2017-May-28 21:30N 37°33' E 121°23'37195467.8
2017-May-28 21:30N 31°22' E 121°40'133116.4
2017-May-28 21:30N 31°28' E 121°27'3512655.5
2017-May-28 21:30N 31°15' E 122°05'616442.9
2017-May-28 21:29N 30°21' E 121°33'4343006.4
2017-May-28 21:21N 37°35' E 121°23'2 7.0
2017-May-28 21:00N 37°33' E 121°23'37980363.5
2017-May-28 21:00N 31°15' E 122°05'2114895.3
2017-May-28 21:00N 31°20' E 121°42'37548246.1
2017-May-28 21:00N 37°35' E 121°23'43471059.4
2017-May-28 20:59N 30°21' E 121°33'61127.0
2017-May-28 20:31N 31°15' E 122°05'380455400.4
2017-May-28 20:30N 37°33' E 121°23'375337294.2
2017-May-28 20:30N 31°18' E 121°43'37728282.1
2017-May-28 20:30N 37°35' E 121°23'2 4.8
2017-May-28 20:00N 37°33' E 121°23'377339041.4
2017-May-28 20:00N 31°16' E 121°45'17301.3
2017-May-28 19:57N 31°15' E 122°05'38254981.1
2017-May-28 19:57N 37°35' E 121°23'4341362.8
2017-May-28 19:37N 30°21' E 121°33'4323710.7
2017-May-28 19:30N 37°33' E 121°23'3791364340.6
2017-May-28 19:30N 31°14' E 121°48'151135.7
2017-May-28 19:30N 31°15' E 122°05'382274905.6
2017-May-28 19:30N 37°35' E 121°23'4341762.1
2017-May-28 19:15N 30°21' E 121°33'4321809.7
2017-May-28 19:00N 37°33' E 121°23'38298138.9
2017-May-28 19:00N 31°12' E 121°50'1315895.1
2017-May-28 19:00N 31°15' E 122°05'38241652.4
2017-May-28 19:00N 37°35' E 121°23'43450415.8
2017-May-28 18:59N 30°21' E 121°32'432904.3
2017-May-28 18:30N 37°33' E 121°23'384460903.0
2017-May-28 18:30N 31°09' E 121°53'121538.5
2017-May-28 18:30N 31°15' E 122°05'38262478.6
2017-May-28 18:30N 37°35' E 121°23'4344341.5
2017-May-28 18:24N 30°21' E 121°32'61155.8
2017-May-28 18:00N 31°15' E 122°05'380105092.4
2017-May-28 18:00N 37°33' E 121°23'432777278.1
2017-May-28 18:00N 30°21' E 121°32'511667.4
2017-May-28 17:58N 31°07' E 121°57'38915215.2
2017-May-28 17:57N 37°35' E 121°23'382878.9
2017-May-28 17:30N 31°15' E 122°05'6115634.8
2017-May-28 17:30N 30°21' E 121°32'43267588.5
2017-May-28 17:30N 37°33' E 121°23'2525.3
2017-May-28 17:30N 37°35' E 121°23'508951312.9
2017-May-28 17:24N 48°40' W 123°24'5380440213.6
2017-May-28 17:23N 31°04' E 122°01'67199.9
2017-May-28 17:03N 29°59' E 122°20'45610946.4
2017-May-28 17:00N 37°33' E 121°23'433259984.2
2017-May-28 17:00N 30°19' E 121°35'6111614.5
2017-May-28 17:00N 31°15' E 122°05'53693865875.4
2017-May-28 17:00N 48°45' W 123°21'50882289693.9
2017-May-28 17:00N 37°35' E 121°23'3946008.1
2017-May-28 16:56N 31°03' E 122°05'1228.9
2017-May-28 16:30N 31°15' E 122°05'37932528.1
2017-May-28 16:30N 37°33' E 121°23'43671384.8
2017-May-28 16:29N 30°17' E 121°39'512132.2
2017-May-28 16:28N 31°01' E 122°08'3965375.5
2017-May-28 16:24N 37°35' E 121°23'382993.9
2017-May-28 16:01N 31°15' E 122°05'379341544.9
2017-May-28 16:00N 37°33' E 121°23'2164.8
2017-May-28 16:00N 37°35' E 121°23'4002047.1
2017-May-28 15:48N 30°57' E 122°12'1862.8
2017-May-28 15:30N 31°15' E 122°05'37932528.1
2017-May-28 15:30N 37°33' E 121°23'24202.1
2017-May-28 15:30N 37°35' E 121°23'382786.8
2017-May-28 15:00N 31°15' E 122°05'380124200.1
2017-May-28 15:00N 37°33' E 121°23'2187.4
2017-May-28 15:00N 37°35' E 121°24'4071298.0
2017-May-28 14:41N 30°50' E 122°13'4052308.3
2017-May-28 14:30N 37°33' E 121°23'379761.1
2017-May-28 14:00N 31°15' E 122°05'38532218.2
2017-May-28 14:00N 37°38' E 121°30'4159278.0
2017-May-28 13:57N 30°45' E 122°13'3068.7
2017-May-28 13:30N 31°15' E 122°05'379124198.1
2017-May-28 13:30N 37°33' E 121°23'91046.2
2017-May-28 13:30N 37°40' E 121°31'4205001.5
2017-May-28 13:25N 30°42' E 122°14'3483.9
2017-May-28 13:00N 31°15' E 122°05'37954647.2
2017-May-28 13:00N 37°33' E 121°23'91196.3
2017-May-28 13:00N 37°40' E 121°31'422151856.6
2017-May-28 12:59N 30°40' E 122°15'9269.1
2017-May-28 12:57N 30°36' E 122°05'3987.1
2017-May-28 12:30N 31°15' E 122°05'37945539.3
2017-May-28 12:30N 37°33' E 121°23'91523.3
2017-May-28 12:30N 37°40' E 121°31'42512636.5
2017-May-28 12:28N 30°37' E 122°15'93060.4
2017-May-28 12:27N 30°36' E 122°05'418911.8
2017-May-28 12:00N 37°33' E 121°23'92098.8
2017-May-28 12:00N 37°40' E 121°31'38634767.8
2017-May-28 11:59N 31°15' E 122°05'412051.8
2017-May-28 11:58N 30°34' E 122°14'420927.2
2017-May-28 11:31N 37°33' E 121°23'37956924.2
2017-May-28 11:30N 31°15' E 122°05'38640902.1
2017-May-28 11:30N 37°40' E 121°31'4305358.1
2017-May-28 11:25N 30°31' E 122°14'44108.1
2017-May-28 11:00N 31°15' E 122°05'37944070.3
2017-May-28 11:00N 37°33' E 121°23'9175.0
2017-May-28 10:57N 37°40' E 121°31'3731006.2
2017-May-28 10:34N 31°27' E 121°29'3665652.3
2017-May-28 10:30N 37°33' E 121°23'36687900.5
2017-May-28 10:30N 31°26' E 121°30'37437357.3
2017-May-28 10:30N 37°40' E 121°31'38673198.8
2017-May-28 10:29N 31°15' E 122°05'2960.8
2017-May-28 10:00N 31°24' E 121°33'368189480.5
2017-May-28 10:00N 37°33' E 121°23'9718.2
2017-May-28 10:00N 37°40' E 121°31'38636600.2
2017-May-28 09:59N 31°15' E 122°05'0 0.0
2017-May-28 09:30N 31°15' E 122°05'2515210.6
2017-May-28 09:30N 31°22' E 121°37'370333315.8
2017-May-28 09:30N 37°33' E 121°23'9151.0
2017-May-28 09:27N 37°41' E 121°28'388889.8
2017-May-28 09:00N 31°15' E 122°05'2111038.1
2017-May-28 09:00N 31°20' E 121°41'373191611.5
2017-May-28 09:00N 37°33' E 121°23'111002.8
2017-May-28 09:00N 37°43' E 121°24'4353456.1
2017-May-28 08:52N 30°30' E 122°16'54149.4
2017-May-28 08:31N 31°17' E 121°45'5412075.5
2017-May-28 08:30N 30°30' E 122°16'425764100.9
2017-May-28 08:30N 37°33' E 121°23'131204.0
2017-May-28 08:30N 37°46' E 121°21'39388315.6
2017-May-28 08:29N 31°15' E 122°05'952955.4
2017-May-28 08:27N 31°59' E 120°26'83185.1
2017-May-28 08:00N 31°13' E 121°48'38097670.8
2017-May-28 08:00N 37°33' E 121°23'37975898.9
2017-May-28 08:00N 31°15' E 122°05'39594847.7
2017-May-28 08:00N 37°48' E 121°17'370828.5
2017-May-28 07:33N 31°38' E 121°17'411074.1
2017-May-28 07:31N 31°10' E 121°52'38349282.7
2017-May-28 07:30N 37°33' E 121°23'379273235.9
2017-May-28 07:30N 31°15' E 122°05'4710617.8
2017-May-28 07:30N 31°38' E 121°17'372223115.4
2017-May-28 07:30N 37°50' E 121°16'4422206.2
2017-May-28 07:18N 30°30' E 122°16'6574382.2
2017-May-28 07:09N 22°19' E 114°08'6745025.2
2017-May-28 07:01N 31°07' E 121°57'103090.2
2017-May-28 07:00N 31°15' E 122°05'456784.7
2017-May-28 07:00N 30°30' E 122°16'42436385.3
2017-May-28 06:59N 37°33' E 121°23'988197601.9
2017-May-28 06:59N 22°19' E 114°09'67760920.1
2017-May-28 06:58N 31°38' E 121°17'37213522.6
2017-May-28 06:57N 37°50' E 121°16'407935.6
2017-May-28 06:30N 31°05' E 122°02'3621827.9
2017-May-28 06:30N 30°30' E 122°16'42449295.6
2017-May-28 06:30N 37°33' E 121°23'355425401.3
2017-May-28 06:30N 31°38' E 121°17'355726.4
2017-May-28 06:01N 37°33' E 121°23'39164005.6
2017-May-28 06:00N 31°03' E 122°08'3420130.5
2017-May-28 06:00N 30°30' E 122°16'451281.8
2017-May-28 05:58N 31°15' E 122°05'0 0.0
2017-May-28 05:30N 31°15' E 122°05'4512519.6
2017-May-28 05:30N 30°30' E 122°15'298090.8
2017-May-28 05:30N 30°59' E 122°11'395101641.8
2017-May-28 05:30N 37°33' E 121°23'3701773.1
2017-May-28 05:17N 31°23' E 121°30'3701319.8
2017-May-28 05:00N 37°33' E 121°23'400205967.7
2017-May-28 05:00N 30°54' E 122°13'2125727.0
2017-May-28 05:00N 31°15' E 122°05'453783.7
2017-May-28 05:00N 30°30' E 122°15'6621463.7
2017-May-28 04:59N 31°24' E 121°31'50103.2
2017-May-28 04:30N 30°49' E 122°12'188226.2
2017-May-28 04:30N 30°30' E 122°15'4527102.1
2017-May-28 04:30N 31°15' E 122°05'38045540.0
2017-May-28 04:30N 37°33' E 121°23'0 0.0
2017-May-28 04:00N 37°33' E 121°23'41254965.0
2017-May-28 04:00N 30°42' E 122°13'333118.4
2017-May-28 03:59N 31°15' E 122°05'45121.5
2017-May-28 03:37N 30°30' E 122°15'4426172.4
2017-May-28 03:33N 37°50' E 121°16'43612649.1
2017-May-28 03:31N 30°37' E 122°13'41879162.4
2017-May-28 03:30N 37°33' E 121°23'37962099.1
2017-May-28 03:30N 31°15' E 122°05'45719.6
2017-May-28 03:26N 30°30' E 122°15'4422314.6
2017-May-28 03:15N 37°50' E 121°16'4401766.6
2017-May-28 03:00N 30°32' E 122°11'440792301.4
2017-May-28 03:00N 37°50' E 121°16'186600.5
2017-May-28 02:59N 37°33' E 121°23'38091080.1
2017-May-28 02:59N 31°15' E 122°05'451643.0
2017-May-28 02:58N 30°30' E 122°15'45100.2
2017-May-28 02:31N 31°15' E 122°05'46164198.9
2017-May-28 02:30N 30°29' E 122°07'42569553.2
2017-May-28 02:30N 37°33' E 121°23'4246852.4
2017-May-28 02:26N 30°30' E 122°15'1125.7
2017-May-28 02:00N 30°27' E 122°03'116757.0
2017-May-28 02:00N 30°30' E 122°15'4241528039.6
2017-May-28 02:00N 37°33' E 121°23'37942693.1
2017-May-28 02:00N 31°15' E 122°05'3971598.3
2017-May-28 01:45N 37°50' E 121°16'3971692.8
2017-May-28 01:31N 31°15' E 122°05'4532526.8
2017-May-28 01:30N 30°30' E 122°15'42454572.1
2017-May-28 01:30N 37°33' E 121°23'18323.9
2017-May-28 01:27N 37°50' E 121°16'4496289.0
2017-May-28 01:22N 30°21' E 121°32'4311154.9
2017-May-28 01:00N 37°33' E 121°23'3799758.3
2017-May-28 00:58N 31°15' E 122°05'39725094.3
2017-May-28 00:57N 37°50' E 121°16'44226990.1
2017-May-28 00:56N 30°30' E 122°15'741433.8
2017-May-28 00:52N 31°30' E 121°24'363977.4
2017-May-28 00:30N 37°33' E 121°23'379124196.2
2017-May-28 00:30N 31°15' E 122°05'4527149.4
2017-May-28 00:30N 30°30' E 122°16'44279630.4
2017-May-28 00:30N 37°50' E 121°16'377888.6
2017-May-28 00:04N 31°33' E 121°19'43718.9
2017-May-28 00:01N 31°15' E 122°05'37935029.7
2017-May-28 00:00N 37°33' E 121°23'183665.2
2017-May-28 00:00N 37°50' E 121°16'4511072.3
2017-May-27 23:34N 30°20' E 121°57'4336693.8
2017-May-27 23:30N 37°33' E 121°23'38052546.2
2017-May-27 23:30N 31°15' E 122°05'3976877.0
2017-May-27 23:27N 37°50' E 121°16'1842.0
2017-May-27 23:00N 37°33' E 121°23'380683100.6
2017-May-27 23:00N 31°15' E 122°05'39731096.6
2017-May-27 23:00N 37°50' E 121°16'4423005.0
2017-May-27 22:51N 30°30' E 122°16'45132.0
2017-May-27 22:30N 31°15' E 122°05'37968309.0
2017-May-27 22:30N 37°33' E 121°23'183884.4
2017-May-27 22:30N 37°50' E 121°16'4424589.8
2017-May-27 22:24N 30°30' E 122°16'1984.7
2017-May-27 22:10N 30°20' E 121°57'206609.6
2017-May-27 22:10N 30°21' E 121°33'61373.8
2017-May-27 22:00N 31°15' E 122°05'379136618.0
2017-May-27 22:00N 37°33' E 121°23'181788.0
2017-May-27 22:00N 37°50' E 121°16'4503597.9
2017-May-27 21:52N 30°21' E 121°33'38218.9
2017-May-27 21:42N 30°30' E 122°16'19113.0
2017-May-27 21:32N 30°20' E 121°57'552470.9
2017-May-27 21:30N 31°15' E 122°05'379170772.5
2017-May-27 21:30N 37°33' E 121°23'181788.0
2017-May-27 21:30N 37°50' E 121°16'44213273.2
2017-May-27 21:28N 30°30' E 122°16'4599.7
2017-May-27 21:00N 31°15' E 122°05'455817.5
2017-May-27 21:00N 30°30' E 122°16'425382055.8
2017-May-27 21:00N 37°33' E 121°23'4321461.0
2017-May-27 20:42N 30°21' E 121°33'4502845.6
2017-May-27 20:33N 37°50' E 121°16'39710757.0
2017-May-27 20:30N 31°15' E 122°05'38065057.2
2017-May-27 20:30N 37°33' E 121°23'43218092.5
2017-May-27 20:29N 30°21' E 121°33'374184.8
2017-May-27 20:28N 30°32' E 122°15'4415925.0
2017-May-27 20:24N 37°50' E 121°16'4501155.7
2017-May-27 20:00N 30°21' E 121°33'43262236.3
2017-May-27 20:00N 37°33' E 121°23'183902.4
2017-May-27 20:00N 37°50' E 121°16'39759616.2
2017-May-27 19:59N 31°15' E 122°05'415882.6
2017-May-27 19:59N 30°35' E 122°14'4186.2
2017-May-27 19:30N 31°15' E 122°05'37952545.4
2017-May-27 19:30N 37°33' E 121°23'4326592.7
2017-May-27 19:26N 30°21' E 121°33'37258.8
2017-May-27 19:17N 30°39' E 122°11'4151461.6
2017-May-27 19:00N 37°33' E 121°23'379341544.9
2017-May-27 19:00N 31°15' E 122°05'39744715.4
2017-May-27 19:00N 37°50' E 121°16'4507101.6
2017-May-27 18:56N 30°21' E 121°33'39138.2
2017-May-27 18:39N 30°43' E 122°10'32222.7
2017-May-27 18:31N 31°15' E 122°05'38035030.8
2017-May-27 18:30N 37°33' E 121°23'4105720.6
2017-May-27 18:26N 30°44' E 122°09'397765.5
2017-May-27 18:25N 30°21' E 121°33'45016188.9
2017-May-27 18:24N 37°50' E 121°16'1847.9
2017-May-27 18:00N 37°33' E 121°23'38071905.3
2017-May-27 18:00N 31°15' E 122°05'39743360.4
2017-May-27 18:00N 37°50' E 121°16'42625118.5
2017-May-27 17:59N 30°47' E 122°07'408867.4
2017-May-27 17:30N 37°33' E 121°23'37968309.0
2017-May-27 17:30N 31°15' E 122°05'39752995.9
2017-May-27 17:30N 37°50' E 121°16'42337160.2
2017-May-27 17:29N 30°49' E 122°05'405849.7
2017-May-27 17:00N 37°33' E 121°23'379273235.9
2017-May-27 17:00N 31°15' E 122°05'23704.2
2017-May-27 16:58N 30°52' E 122°04'42015285.4
2017-May-27 16:57N 37°50' E 121°16'418951.0
2017-May-27 16:30N 30°54' E 122°04'400719463.5
2017-May-27 16:30N 37°33' E 121°23'37962098.1
2017-May-27 16:30N 31°15' E 122°05'3977300.1
2017-May-27 16:27N 37°50' E 121°16'1842.0
2017-May-27 16:00N 37°33' E 121°23'37956924.2
2017-May-27 16:00N 31°15' E 122°05'17976.2
2017-May-27 15:59N 30°57' E 122°04'4154846.2
2017-May-27 15:54N 37°50' E 121°16'3971030.1
2017-May-27 15:30N 31°15' E 122°05'37935952.1
2017-May-27 15:30N 37°33' E 121°23'394354819.9
2017-May-27 15:30N 30°60' E 122°04'412164872.7
2017-May-27 15:30N 37°50' E 121°16'397820.0
2017-May-27 15:01N 31°15' E 122°05'37947109.6
2017-May-27 15:00N 37°33' E 121°23'3928503.3
2017-May-27 14:57N 31°02' E 122°02'41037847.1
2017-May-27 14:57N 37°50' E 121°16'408922.5
2017-May-27 14:30N 31°04' E 122°01'390200734.6
2017-May-27 14:30N 37°33' E 121°23'183021.5
2017-May-27 14:30N 37°50' E 121°16'397820.4
2017-May-27 14:01N 31°15' E 122°05'54168.1
2017-May-27 13:41N 30°21' E 121°57'4322332.1
2017-May-27 13:30N 37°33' E 121°23'37962099.1
2017-May-27 13:30N 31°15' E 122°05'118119.6
2017-May-27 13:30N 31°06' E 121°57'4062003.2
2017-May-27 13:18N 37°50' E 121°16'3971344.8
2017-May-27 13:00N 31°15' E 122°05'379455393.2
2017-May-27 13:00N 37°33' E 121°23'386347551.0
2017-May-27 13:00N 31°07' E 121°55'404161608.4
2017-May-27 13:00N 37°50' E 121°16'1838.0
2017-May-27 12:30N 37°33' E 121°23'384345312.9
2017-May-27 12:30N 31°10' E 121°52'40230112.6
2017-May-27 12:30N 37°50' E 121°16'398817.9
2017-May-27 12:00N 31°13' E 121°48'380684067.3
2017-May-27 12:00N 37°33' E 121°23'37980362.2
2017-May-27 12:00N 31°15' E 122°05'39747696.3
2017-May-27 12:00N 37°50' E 121°16'394809.2
2017-May-27 11:30N 31°17' E 121°44'376225626.5
2017-May-27 11:30N 37°33' E 121°23'379757.7
2017-May-27 11:00N 31°15' E 122°05'227345.3
2017-May-27 11:00N 31°20' E 121°40'373121934.0
2017-May-27 11:00N 37°33' E 121°23'4327268.8
2017-May-27 10:56N 30°21' E 121°57'4504708.3
2017-May-27 10:51N 37°50' E 121°16'3971173.7
2017-May-27 10:30N 31°15' E 122°05'379455393.2
2017-May-27 10:30N 37°33' E 121°23'370190264.0
2017-May-27 10:30N 31°23' E 121°35'3883559.3
2017-May-27 10:24N 37°50' E 121°16'45016035.5
2017-May-27 10:22N 30°21' E 121°57'15409.7
2017-May-27 10:20N 30°13' E 121°43'4401347.3
2017-May-27 10:00N 37°33' E 121°23'37931049.5
2017-May-27 09:59N 31°15' E 122°05'62933.2
2017-May-27 09:55N 30°17' E 121°40'4545635.5
2017-May-27 09:51N 37°50' E 121°16'45013725.5
2017-May-27 09:49N 30°21' E 121°57'54177.6
2017-May-27 09:30N 31°15' E 122°05'38059400.0
2017-May-27 09:30N 37°33' E 121°23'4323465.6
2017-May-27 09:23N 30°21' E 121°34'4505415.7
2017-May-27 09:18N 37°50' E 121°16'3971377.0
2017-May-27 09:00N 31°15' E 122°05'38075900.1
2017-May-27 09:00N 37°33' E 121°23'8013116.9
2017-May-27 09:00N 38°08' E 119°52'4701779.7
2017-May-27 08:44N 30°25' E 121°26'107737.6
2017-May-27 08:35N 31°58' E 120°26'3714837.4
2017-May-27 08:30N 38°09' E 119°57'427128103.4
2017-May-27 08:30N 31°15' E 122°05'38065057.2
2017-May-27 08:30N 37°33' E 121°23'42715515.4
2017-May-27 08:28N 30°26' E 121°23'4445751.3
2017-May-27 08:24N 37°50' E 121°16'354922.6
2017-May-27 08:01N 31°58' E 120°26'371166833.7
2017-May-27 08:00N 38°09' E 120°03'42647931.3
2017-May-27 08:00N 31°15' E 122°05'379683089.8
2017-May-27 08:00N 37°33' E 121°23'4246944.5
2017-May-27 07:56N 30°28' E 121°15'424965.1
2017-May-27 07:30N 37°33' E 121°23'692372.5
2017-May-27 07:28N 38°08' E 120°09'56734.8
2017-May-27 07:24N 37°50' E 121°16'1847.9
2017-May-27 07:00N 37°33' E 121°23'37980363.5
2017-May-27 07:00N 31°15' E 122°05'4224282.2
2017-May-27 06:54N 38°07' E 120°15'48885.9
2017-May-27 06:51N 38°30' E 121°09'59170.5
2017-May-27 06:30N 37°33' E 121°23'380455400.4
2017-May-27 06:30N 31°15' E 122°05'421302923.2
2017-May-27 06:30N 38°06' E 120°20'47907.2
2017-May-27 06:27N 38°28' E 121°13'38640.4
2017-May-27 06:24N 37°50' E 121°16'42109.1
2017-May-27 06:00N 38°05' E 120°26'5625138.7
2017-May-27 06:00N 37°33' E 121°23'379113848.3
2017-May-27 06:00N 31°15' E 122°05'43370790.0
2017-May-27 06:00N 38°26' E 121°18'53108.0
2017-May-27 05:30N 37°33' E 121°23'5126304.9
2017-May-27 05:30N 38°03' E 120°32'41615279.2
2017-May-27 05:28N 31°15' E 122°05'3972191.0
2017-May-27 05:18N 37°50' E 121°16'31199.0
2017-May-27 05:08N 38°20' E 121°26'42326.1
2017-May-27 05:00N 38°02' E 120°38'4613924.4
2017-May-27 05:00N 37°33' E 121°23'181702.8
2017-May-27 05:00N 37°50' E 121°16'39755028.3
2017-May-27 04:59N 31°15' E 122°05'412855.3
2017-May-27 04:30N 38°01' E 120°45'4221430.2
2017-May-27 04:30N 37°33' E 121°23'379124198.1
2017-May-27 04:30N 31°15' E 122°05'39771533.6
2017-May-27 04:30N 37°50' E 121°16'38869751.8
2017-May-27 04:29N 31°23' E 121°36'4121529.2
2017-May-27 04:13N 38°15' E 121°35'2 9.5
2017-May-27 04:00N 38°14' E 121°37'3946833.3
2017-May-27 04:00N 37°60' E 120°51'402180712.1
2017-May-27 04:00N 31°20' E 121°42'37395848.4
2017-May-27 04:00N 37°33' E 121°23'37913136.3
2017-May-27 03:58N 31°15' E 122°05'1735.9
2017-May-27 03:30N 31°16' E 121°46'416115109.9
2017-May-27 03:30N 38°11' E 121°42'417100114.5
2017-May-27 03:30N 31°15' E 122°05'3801366201.1
2017-May-27 03:30N 37°33' E 121°23'335203.7
2017-May-27 03:30N 37°59' E 120°58'4511228.0
2017-May-27 03:08N 30°28' E 121°06'57484.6
2017-May-27 03:00N 31°11' E 121°50'406146192.2
2017-May-27 03:00N 37°55' E 121°00'40490939.6
2017-May-27 03:00N 31°15' E 122°05'379195168.5
2017-May-27 03:00N 37°33' E 121°23'379774.5
2017-May-27 02:30N 31°15' E 122°05'1112888.3
2017-May-27 02:30N 31°08' E 121°56'386106789.2
2017-May-27 02:30N 37°33' E 121°23'181839.1
2017-May-27 02:30N 37°50' E 121°16'33776.0
2017-May-27 02:27N 38°06' E 121°52'40500.8
2017-May-27 02:22N 37°51' E 121°04'3 8.4
2017-May-27 02:00N 37°48' E 121°06'406132756.7
2017-May-27 02:00N 31°05' E 122°01'38951836.8
2017-May-27 02:00N 37°33' E 121°23'5084220502.4
2017-May-27 01:58N 48°53' W 123°24'5364182166.6
2017-May-27 01:57N 31°15' E 122°05'397357668.8
2017-May-27 01:57N 37°50' E 121°16'818.8
2017-May-27 01:30N 37°45' E 121°08'171648.9
2017-May-27 01:30N 37°33' E 121°23'3911406783.4
2017-May-27 01:30N 31°04' E 122°07'111043.1
2017-May-27 01:29N 31°15' E 122°05'3974283.7
2017-May-27 01:24N 37°50' E 121°16'508221449.5
2017-May-27 01:09N 48°43' W 123°21'5440222553.8
2017-May-27 01:08N 30°24' E 121°28'4293433.1
2017-May-27 01:00N 37°33' E 121°23'181381.7
2017-May-27 01:00N 37°50' E 121°16'397357691.8
2017-May-27 01:00N 31°15' E 122°05'1511061.9
2017-May-27 00:59N 31°01' E 122°13'5315926.8
2017-May-27 00:59N 30°23' E 121°29'440198221.3
2017-May-27 00:59N 37°43' E 121°04'50961528863.3
2017-May-27 00:59N 48°40' W 123°24'541913200.3
2017-May-27 00:34N 30°22' E 121°57'4326534.9
2017-May-27 00:30N 37°33' E 121°23'181573.9
2017-May-27 00:30N 37°50' E 121°16'44949001.5
2017-May-27 00:29N 30°21' E 121°32'51304.6
2017-May-27 00:19N 30°55' E 122°16'22361.5
2017-May-27 00:15N 31°15' E 122°05'541488.0
2017-May-27 00:13N 30°22' E 121°57'4512124.5
2017-May-27 00:01N 37°53' E 122°14'458135.6
2017-May-27 00:00N 37°33' E 121°23'3801366201.1
2017-May-27 00:00N 31°15' E 122°05'6124310.2
2017-May-27 00:00N 30°21' E 121°32'44959901.5
2017-May-27 00:00N 37°50' E 121°16'45019990.5
2017-May-26 23:58N 30°22' E 121°57'124742.9
2017-May-26 23:48N 31°59' E 120°26'36439751.8
2017-May-26 23:48N 37°52' E 122°16'46158.5
2017-May-26 23:30N 37°33' E 121°23'380455400.4
2017-May-26 23:30N 31°15' E 122°05'39740873.0
2017-May-26 23:30N 37°50' E 121°16'4497001.1
2017-May-26 23:26N 30°21' E 121°32'212723.4
2017-May-26 23:25N 30°22' E 121°57'30119.5
2017-May-26 23:10N 30°45' E 122°19'32197.4
2017-May-26 23:00N 31°15' E 122°05'339025.5
2017-May-26 23:00N 30°44' E 122°18'411185017.8
2017-May-26 23:00N 37°33' E 121°23'432103612.2
2017-May-26 23:00N 30°21' E 121°32'44995128.8
2017-May-26 23:00N 37°50' E 121°16'4503722.4
2017-May-26 22:52N 30°22' E 121°57'4321162.4
2017-May-26 22:30N 37°33' E 121°23'432155420.4
2017-May-26 22:30N 30°21' E 121°32'421949.4
2017-May-26 22:29N 30°40' E 122°15'35774.2
2017-May-26 22:26N 31°15' E 122°05'39710595.5
2017-May-26 22:24N 37°50' E 121°16'35437459.7
2017-May-26 22:23N 31°59' E 120°26'113298.9
2017-May-26 22:00N 30°21' E 121°32'43262169.0
2017-May-26 22:00N 37°33' E 121°23'193284.5
2017-May-26 22:00N 37°51' E 121°15'35453138.6
2017-May-26 21:59N 31°59' E 120°26'9515581.9
2017-May-26 21:59N 31°15' E 122°05'391052.2
2017-May-26 21:57N 30°36' E 122°14'3989.4
2017-May-26 21:30N 31°15' E 122°05'4338289.5
2017-May-26 21:30N 30°33' E 122°14'3868424.8
2017-May-26 21:30N 30°21' E 121°32'43277710.2
2017-May-26 21:30N 37°33' E 121°23'4322124.7
2017-May-26 21:18N 30°22' E 121°57'4544468.7
2017-May-26 21:12N 37°54' E 121°06'25133.2
2017-May-26 21:00N 37°33' E 121°23'432172689.4
2017-May-26 21:00N 30°21' E 121°32'4557834.7
2017-May-26 20:57N 37°55' E 121°04'40426423.3
2017-May-26 20:56N 31°15' E 122°05'61144.2
2017-May-26 20:30N 30°21' E 121°32'43244405.8
2017-May-26 20:30N 37°33' E 121°23'32310.5
2017-May-26 20:24N 37°57' E 120°57'406208959.7
2017-May-26 20:23N 31°15' E 122°05'7353389288.4
2017-May-26 20:22N 05°16' W 004°02'726919914.0
2017-May-26 20:00N 37°33' E 121°23'352443.9
2017-May-26 20:00N 37°58' E 120°53'45837513.1
2017-May-26 19:59N 30°21' E 121°32'61109376.6
2017-May-26 19:59N 31°15' E 122°05'379800.3
2017-May-26 19:30N 37°33' E 121°23'40628.0
2017-May-26 19:27N 37°60' E 120°46'410369301.7
2017-May-26 19:26N 31°15' E 122°05'543792.0
2017-May-26 19:26N 30°22' E 121°57'4321022.6
2017-May-26 19:00N 37°33' E 121°23'443840.3
2017-May-26 19:00N 38°01' E 120°41'46428291.1
2017-May-26 18:59N 30°22' E 121°57'541231.9
2017-May-26 18:56N 31°15' E 122°05'611301.6
2017-May-26 18:53N 30°21' E 121°32'4321126.2
2017-May-26 18:30N 37°33' E 121°23'380341550.3
2017-May-26 18:30N 31°15' E 122°05'6114577.2
2017-May-26 18:30N 30°21' E 121°32'46387798.8
2017-May-26 18:30N 38°02' E 120°36'7222174502.9
2017-May-26 18:27N 05°16' W 004°02'732916357.7
2017-May-26 18:00N 30°21' E 121°32'46444004.2
2017-May-26 18:00N 38°03' E 120°30'7218333119.1
2017-May-26 17:58N 05°16' W 004°02'73531890834.4
2017-May-26 17:58N 31°15' E 122°05'61131.7
2017-May-26 17:30N 30°21' E 121°32'432103585.9
2017-May-26 17:30N 37°33' E 121°23'556049.7
2017-May-26 17:30N 38°04' E 120°25'4171687.0
2017-May-26 17:15N 31°15' E 122°05'0 0.0
2017-May-26 17:00N 31°15' E 122°05'379683089.8
2017-May-26 17:00N 37°33' E 121°23'62200.2
2017-May-26 16:42N 38°05' E 120°17'720585041.7
2017-May-26 16:37N 05°17' W 004°02'726866408.8
2017-May-26 16:30N 37°33' E 121°23'6310804.9
2017-May-26 16:30N 38°05' E 120°15'42094579.7
2017-May-26 16:29N 31°15' E 122°05'6124282.7
2017-May-26 16:29N 30°21' E 121°32'7328393738.1
2017-May-26 16:28N 05°17' W 004°01'733115927.6
2017-May-26 16:00N 30°19' E 121°35'43344576.6
2017-May-26 16:00N 37°33' E 121°23'37912888.5
2017-May-26 15:58N 31°15' E 122°05'7352120304.5
2017-May-26 15:54N 05°17' W 004°01'7196112639.0
2017-May-26 15:51N 38°06' E 120°08'68196.7
2017-May-26 15:30N 37°33' E 121°23'7013338.9
2017-May-26 15:30N 38°06' E 120°05'47677927.5
2017-May-26 15:29N 30°17' E 121°40'62491.2
2017-May-26 15:22N 31°15' E 122°05'735258685.3
2017-May-26 15:14N 05°17' W 004°01'733931009.0
2017-May-26 15:00N 30°13' E 121°43'440226365.7
2017-May-26 15:00N 37°33' E 121°23'3796384.0
2017-May-26 14:56N 31°15' E 122°05'4251746.6
2017-May-26 14:42N 38°07' E 119°57'4251579.1
2017-May-26 14:25N 31°15' E 122°05'4273274.9
2017-May-26 14:18N 38°07' E 119°53'80277.2
2017-May-26 14:00N 37°33' E 121°23'0 0.0
2017-May-26 13:30N 37°33' E 121°23'3791366179.6
2017-May-26 13:30N 31°15' E 122°05'379757.3
2017-May-26 13:00N 37°33' E 121°23'3797897.0
2017-May-26 12:57N 31°15' E 122°05'4332671.4
2017-May-26 12:48N 38°11' E 119°37'92324.7
2017-May-26 12:31N 37°33' E 121°23'37997584.3
2017-May-26 12:30N 31°15' E 122°05'54125.8
2017-May-26 12:05N 30°22' E 121°57'54734.9
2017-May-26 12:00N 31°15' E 122°05'379113848.3
2017-May-26 12:00N 37°33' E 121°23'1854.9
2017-May-26 11:40N 37°43' E 121°04'44311567.0
2017-May-26 11:38N 30°22' E 121°57'54438.4
2017-May-26 11:30N 31°15' E 122°05'37950599.2
2017-May-26 11:30N 37°33' E 121°23'18401.3
2017-May-26 11:27N 37°43' E 121°04'4431944.5
2017-May-26 11:14N 30°22' E 121°57'4431998.2
2017-May-26 11:00N 37°43' E 121°04'181938.4
2017-May-26 11:00N 37°33' E 121°23'37991078.6
2017-May-26 10:59N 31°15' E 122°05'543792.0
2017-May-26 10:59N 30°22' E 121°57'735238582.8
2017-May-26 10:47N 05°16' W 004°02'725326007.2
2017-May-26 10:30N 37°44' E 121°07'39274265.4
2017-May-26 10:30N 31°15' E 122°05'37980363.5
2017-May-26 10:30N 37°33' E 121°23'4323567.2
2017-May-26 10:23N 30°22' E 121°57'1241193.3
2017-May-26 10:16N 31°59' E 120°26'3501321.8
2017-May-26 10:00N 37°47' E 121°10'395203061.6
2017-May-26 10:00N 31°15' E 122°05'379195168.5
2017-May-26 10:00N 37°33' E 121°23'337242955.9
2017-May-26 10:00N 31°59' E 120°26'337684.0
2017-May-26 09:31N 37°33' E 121°23'380113850.1
2017-May-26 09:30N 31°15' E 122°05'39617608.6
2017-May-26 09:29N 37°48' E 121°11'725617006.1
2017-May-26 09:03N 05°16' W 004°02'7269148678.2
2017-May-26 09:00N 37°33' E 121°23'38024396.4
2017-May-26 09:00N 31°15' E 122°05'953807.8
2017-May-26 08:58N 31°58' E 120°26'725677055.3
2017-May-26 08:52N 05°16' W 004°02'725980909.7
2017-May-26 08:47N 37°51' E 121°15'3981448.3
2017-May-26 08:30N 31°15' E 122°05'380195171.6
2017-May-26 08:30N 37°33' E 121°23'3373188.9
2017-May-26 08:24N 31°58' E 120°26'9514859.4
2017-May-26 08:24N 31°05' E 121°58'4072817.5
2017-May-26 08:15N 37°51' E 121°15'7259146817.4
2017-May-26 08:12N 05°16' W 004°02'735337762.9
2017-May-26 08:00N 31°15' E 122°05'380683100.6
2017-May-26 08:00N 37°33' E 121°23'7269300772.7
2017-May-26 07:59N 05°16' W 004°02'7344644837.0
2017-May-26 07:58N 31°08' E 121°54'46190.7
2017-May-26 07:44N 30°22' E 121°57'1246576.5
2017-May-26 07:43N 31°58' E 120°26'95465.0
2017-May-26 07:30N 31°15' E 122°05'379683089.8
2017-May-26 07:30N 37°33' E 121°23'38214190.1
2017-May-26 07:29N 31°11' E 121°50'86811.2
2017-May-26 07:22N 31°58' E 120°26'95261.6
2017-May-26 07:00N 31°15' E 122°05'379113848.3
2017-May-26 07:00N 37°33' E 121°23'379170534.4
2017-May-26 07:00N 31°14' E 121°47'3983920.8
2017-May-26 06:54N 37°51' E 121°15'725968233.8
2017-May-26 06:48N 05°16' W 004°02'72566530414.7
2017-May-26 06:48N 31°58' E 120°26'3551210.4
2017-May-26 06:30N 37°51' E 121°15'39859738.6
2017-May-26 06:30N 31°15' E 122°05'379124198.1
2017-May-26 06:29N 37°33' E 121°23'37667608.5
2017-May-26 06:29N 31°17' E 121°44'1939.5
2017-May-26 06:01N 31°15' E 122°05'38047110.4
2017-May-26 06:00N 37°33' E 121°23'37337294.1
2017-May-26 05:59N 31°20' E 121°40'2245.4
2017-May-26 05:31N 31°15' E 122°05'255934.4
2017-May-26 05:30N 31°22' E 121°38'37174270.2
2017-May-26 05:30N 37°33' E 121°23'380768.8
2017-May-26 05:00N 31°15' E 122°05'38048792.9
2017-May-26 05:00N 37°33' E 121°23'726916980.6
2017-May-26 04:34N 05°16' W 004°02'7353120326.1
2017-May-26 04:31N 31°15' E 122°05'38071905.3
2017-May-26 04:30N 37°33' E 121°23'726969965.6
2017-May-26 04:24N 05°16' W 004°02'735318827.7
2017-May-26 04:01N 31°15' E 122°05'3986637.1
2017-May-26 03:57N 37°51' E 121°15'398904.5
2017-May-26 03:31N 31°15' E 122°05'379341544.9
2017-May-26 03:30N 37°33' E 121°23'19331.7
2017-May-26 03:27N 37°51' E 121°15'1943.4
2017-May-26 03:00N 37°33' E 121°23'193012.1
2017-May-26 03:00N 37°51' E 121°15'39824716.5
2017-May-26 02:59N 31°15' E 122°05'36642.2
2017-May-26 02:56N 31°28' E 121°26'2 5.3
2017-May-26 02:30N 31°30' E 121°24'363145240.9
2017-May-26 02:30N 37°33' E 121°23'37939033.7
2017-May-26 02:30N 31°15' E 122°05'3988688.0
2017-May-26 02:27N 37°51' E 121°15'379851.2
2017-May-26 02:00N 31°32' E 121°21'3611299866.3
2017-May-26 02:00N 37°33' E 121°23'379113848.3
2017-May-26 02:00N 31°15' E 122°05'25576.2
2017-May-26 01:57N 31°23' E 121°38'38853739.2
2017-May-26 01:57N 37°51' E 121°15'1943.1
2017-May-26 01:30N 37°33' E 121°23'195315.4
2017-May-26 01:30N 37°51' E 121°15'39812798.3
2017-May-26 01:28N 31°15' E 122°05'0 0.0
2017-May-26 01:00N 31°15' E 122°05'3981433386.9
2017-May-26 01:00N 37°51' E 121°15'192031.7
2017-May-26 00:59N 37°33' E 121°23'379783.8
2017-May-26 00:30N 31°15' E 122°05'37980363.5
2017-May-26 00:30N 37°33' E 121°23'19127.2
2017-May-26 00:21N 37°51' E 121°15'3981153.2
2017-May-26 00:00N 31°15' E 122°05'38071905.3
2017-May-26 00:00N 37°33' E 121°23'19406.2
2017-May-25 23:57N 37°51' E 121°15'398896.4
2017-May-25 23:30N 31°15' E 122°05'38037950.6
2017-May-25 23:30N 37°33' E 121°23'19421.1
2017-May-25 23:27N 37°51' E 121°15'10036280.5
2017-May-25 23:18N 22°18' E 114°08'6852398.8
2017-May-25 23:00N 31°15' E 122°05'380105092.4
2017-May-25 23:00N 37°33' E 121°23'194601.5
2017-May-25 23:00N 37°51' E 121°15'0 0.0
2017-May-25 22:30N 37°51' E 121°15'398286678.0
2017-May-25 22:30N 31°15' E 122°05'379195168.5
2017-May-25 22:30N 37°33' E 121°23'509469206.9
2017-May-25 22:25N 49°17' W 122°51'509412267.4
2017-May-25 22:00N 37°33' E 121°23'380683100.6
2017-May-25 22:00N 31°15' E 122°05'54354.5
2017-May-25 21:51N 30°22' E 121°57'4514256.9
2017-May-25 21:45N 37°51' E 121°15'508374082.5
2017-May-25 21:41N 49°18' W 122°54'509229098.0
2017-May-25 21:30N 37°33' E 121°23'379170772.5
2017-May-25 21:30N 31°15' E 122°05'5374879388.2
2017-May-25 21:30N 49°18' W 122°56'508120415.4
2017-May-25 21:15N 37°51' E 121°15'4512313.8
2017-May-25 21:03N 30°22' E 121°57'541130.6
2017-May-25 21:00N 31°15' E 122°05'5427615.1
2017-May-25 21:00N 30°22' E 121°57'5425174371.5
2017-May-25 20:58N 49°18' W 122°56'537411515.7
2017-May-25 20:30N 31°15' E 122°05'379105090.7
2017-May-25 20:30N 37°33' E 121°23'5090381767.1
2017-May-25 20:29N 49°18' W 122°56'537411054.8
2017-May-25 20:00N 31°15' E 122°05'379683089.8
2017-May-25 20:00N 37°33' E 121°23'5090416494.6
2017-May-25 19:59N 49°18' W 122°56'537410967.5
2017-May-25 19:30N 31°15' E 122°05'38032528.6
2017-May-25 19:29N 37°33' E 121°23'5090104714.3
2017-May-25 19:26N 49°18' W 122°56'537412298.8
2017-May-25 19:00N 31°15' E 122°05'380113851.9
2017-May-25 19:00N 37°33' E 121°23'5090290879.0
2017-May-25 18:59N 49°18' W 122°56'537411287.2
2017-May-25 18:30N 31°15' E 122°05'5373773669.1
2017-May-25 18:30N 49°18' W 122°57'50896106976.4
2017-May-25 18:30N 37°33' E 121°23'380766.2
2017-May-25 18:00N 31°15' E 122°05'38062101.0
2017-May-25 18:00N 37°33' E 121°23'509141840.0
2017-May-25 17:53N 49°18' W 122°56'509113655.7
2017-May-25 17:30N 37°33' E 121°23'380170775.1
2017-May-25 17:30N 31°15' E 122°05'537449733.5
2017-May-25 17:24N 49°18' W 122°56'5388135629.7
2017-May-25 17:21N 31°23' E 121°38'732725459.6
2017-May-25 17:04N 05°16' W 004°02'7269105088.4
2017-May-25 17:00N 37°33' E 121°23'370121186.7
2017-May-25 17:00N 31°23' E 121°37'732626374756.4
2017-May-25 17:00N 05°16' W 004°02'6869117191.9
2017-May-25 16:56N 49°18' W 122°56'537428875.2
2017-May-25 16:45N 31°15' E 122°05'3791575.8
2017-May-25 16:30N 37°33' E 121°23'7267622910.4
2017-May-25 16:30N 05°17' W 004°01'7328289903.9
2017-May-25 16:28N 31°21' E 121°40'39118498.8
2017-May-25 16:27N 37°51' E 121°15'5085832119.3
2017-May-25 16:27N 49°17' W 122°51'5378201675.3
2017-May-25 16:25N 31°15' E 122°05'1946.8
2017-May-25 16:00N 31°18' E 121°43'1968912.9
2017-May-25 16:00N 31°15' E 122°05'380341550.3
2017-May-25 16:00N 37°33' E 121°23'72673737444.0
2017-May-25 16:00N 05°17' W 004°01'733414750.9
2017-May-25 15:30N 31°15' E 121°47'1614455.9
2017-May-25 15:30N 31°15' E 122°05'380341550.3
2017-May-25 15:30N 37°33' E 121°23'7267242241.6
2017-May-25 15:28N 05°17' W 004°01'733815668.2
2017-May-25 15:00N 31°12' E 121°50'381124797.5
2017-May-25 15:00N 37°33' E 121°23'380341550.3
2017-May-25 15:00N 31°15' E 122°05'7352183798.8
2017-May-25 14:58N 05°17' W 004°01'0 0.0
2017-May-25 14:30N 05°17' W 004°01'725828277.8
2017-May-25 14:15N 37°51' E 121°15'1977.4
2017-May-25 14:00N 37°33' E 121°23'38730945.3
2017-May-25 13:59N 31°07' E 121°58'387791.2
2017-May-25 13:30N 37°33' E 121°23'37956924.2
2017-May-25 13:30N 31°15' E 122°05'117828.9
2017-May-25 13:30N 31°04' E 122°01'4 8.7
2017-May-25 13:00N 31°02' E 122°06'392235172.4
2017-May-25 13:00N 37°33' E 121°23'37980363.5
2017-May-25 13:00N 31°15' E 122°05'0 0.0
2017-May-25 12:30N 31°15' E 122°05'159105.3
2017-May-25 12:30N 31°00' E 122°10'39464553.6
2017-May-25 12:30N 37°33' E 121°23'0 0.0
2017-May-25 12:01N 37°33' E 121°23'379170772.5
2017-May-25 12:00N 31°15' E 122°05'193263.8
2017-May-25 12:00N 30°57' E 122°12'1938.5
2017-May-25 11:30N 31°15' E 122°05'38039034.3
2017-May-25 11:30N 37°33' E 121°23'402103255.4
2017-May-25 11:30N 30°53' E 122°14'402827.9
2017-May-25 11:00N 37°33' E 121°23'4062169.3
2017-May-25 10:49N 30°49' E 122°15'4245943.3
2017-May-25 10:45N 37°51' E 121°15'1979.0
2017-May-25 10:30N 37°33' E 121°23'380195171.6
2017-May-25 10:30N 31°15' E 122°05'37456.1
2017-May-25 10:25N 31°29' E 121°25'38216002.1
2017-May-25 10:24N 37°51' E 121°15'1948.6
2017-May-25 10:00N 37°33' E 121°23'379683089.8
2017-May-25 10:00N 31°15' E 122°05'393642.5
2017-May-25 10:00N 31°30' E 121°23'3812636.2
2017-May-25 09:51N 37°51' E 121°15'3981165.4
2017-May-25 09:30N 31°15' E 122°05'38091081.5
2017-May-25 09:30N 37°33' E 121°23'36019654.9
2017-May-25 09:29N 31°32' E 121°20'3782786.4
2017-May-25 09:21N 37°51' E 121°15'3981154.1
2017-May-25 09:00N 31°15' E 122°05'379455393.2
2017-May-25 09:00N 37°33' E 121°23'3561200.8
2017-May-25 08:42N 31°36' E 121°16'47236.8
2017-May-25 08:30N 31°15' E 122°05'37971904.2
2017-May-25 08:30N 37°33' E 121°23'379767.1
2017-May-25 08:00N 31°15' E 122°05'37956924.2
2017-May-25 08:00N 37°33' E 121°23'3541657.5
2017-May-25 07:47N 31°39' E 121°13'51180.7
2017-May-25 07:30N 31°15' E 122°05'37980363.5
2017-May-25 07:30N 37°33' E 121°23'379771.4
2017-May-25 07:00N 31°15' E 122°05'37940181.8
2017-May-25 07:00N 37°33' E 121°23'379773.6
2017-May-25 06:30N 31°15' E 122°05'37997584.3
2017-May-25 06:30N 37°33' E 121°23'1954.3
2017-May-25 06:09N 37°51' E 121°15'3982730.2
2017-May-25 06:00N 31°15' E 122°05'38048792.9
2017-May-25 06:00N 37°33' E 121°23'19130.8
2017-May-25 05:51N 37°51' E 121°15'3981166.3
2017-May-25 05:31N 31°15' E 122°05'380455400.4
2017-May-25 05:30N 37°33' E 121°23'0 0.0
2017-May-25 05:00N 37°33' E 121°23'379136618.0
2017-May-25 05:00N 31°15' E 122°05'3981123.4
2017-May-25 04:39N 37°51' E 121°15'3982783.4
2017-May-25 04:30N 31°15' E 122°05'379341544.9
2017-May-25 04:30N 37°33' E 121°23'19512.7
2017-May-25 04:28N 37°51' E 121°15'725929330.5
2017-May-25 04:13N 05°16' W 004°02'726933590.7
2017-May-25 04:00N 37°33' E 121°23'379227696.6
2017-May-25 04:00N 31°15' E 122°05'73532941300.4
2017-May-25 04:00N 05°16' W 004°02'726914659.4
2017-May-25 03:30N 37°33' E 121°23'37936923.8
2017-May-25 03:30N 31°15' E 122°05'7353980436.7
2017-May-25 03:29N 05°16' W 004°02'725952476.9
2017-May-25 03:21N 37°51' E 121°15'1955.7
2017-May-25 03:00N 37°33' E 121°23'37911984.0
2017-May-25 02:58N 31°15' E 122°05'379807.9
2017-May-25 02:30N 37°33' E 121°23'37910590.5
2017-May-25 02:28N 31°15' E 122°05'0 0.0
2017-May-25 02:00N 31°15' E 122°05'379195168.5
2017-May-25 02:00N 37°33' E 121°23'379766.7
2017-May-25 01:30N 31°15' E 122°05'37959399.1
2017-May-25 01:30N 37°33' E 121°23'0 0.0
2017-May-25 01:01N 37°33' E 121°23'379170772.5
2017-May-25 01:00N 31°15' E 122°05'379762.4
2017-May-25 00:31N 37°33' E 121°23'379227696.6
2017-May-25 00:30N 31°15' E 122°05'3982497.2
2017-May-25 00:21N 37°51' E 121°15'3981170.1
2017-May-25 00:00N 31°15' E 122°05'39840953.3
2017-May-25 00:00N 37°51' E 121°15'10032189.5
2017-May-24 23:32N 22°18' E 114°09'0 8.4
2017-May-24 23:30N 22°18' E 114°09'9891779875.8
2017-May-24 23:30N 37°33' E 121°23'37939033.7
2017-May-24 23:30N 31°15' E 122°05'379771.9
2017-May-24 23:00N 37°33' E 121°23'379136618.0
2017-May-24 23:00N 31°15' E 122°05'6842668.5
2017-May-24 22:45N 22°19' E 114°09'6773208.8
2017-May-24 22:32N 30°60' E 122°12'16572.0
2017-May-24 22:30N 31°15' E 122°05'37997584.3
2017-May-24 22:30N 37°33' E 121°23'3954219.0
2017-May-24 22:25N 30°60' E 122°12'6767804.5
2017-May-24 22:19N 22°19' E 114°09'6842147.4
2017-May-24 22:00N 31°15' E 122°05'379341544.9
2017-May-24 22:00N 37°33' E 121°23'379765.4
2017-May-24 21:30N 31°15' E 122°05'37968309.0
2017-May-24 21:30N 37°33' E 121°23'379767.5
2017-May-24 21:00N 31°15' E 122°05'37954647.2
2017-May-24 21:00N 37°33' E 121°23'3951002.8
2017-May-24 20:36N 30°60' E 122°12'67611018.8
2017-May-24 20:33N 22°19' E 114°09'68416755.4
2017-May-24 20:30N 31°15' E 122°05'37971904.2
2017-May-24 20:30N 37°33' E 121°23'9883255.7
2017-May-24 20:12N 22°19' E 114°09'6962358058.8
2017-May-24 20:11N 05°16' W 004°02'735343539.1
2017-May-24 20:00N 31°15' E 122°05'37940181.8
2017-May-24 20:00N 37°33' E 121°23'379769.2
2017-May-24 19:30N 31°15' E 122°05'37919799.7
2017-May-24 19:29N 37°33' E 121°23'98813478.9
2017-May-24 19:25N 22°19' E 114°09'6841666.5
2017-May-24 19:00N 31°15' E 122°05'38075901.3
2017-May-24 19:00N 37°33' E 121°23'9889266.8
2017-May-24 18:53N 22°19' E 114°09'6962103144.3
2017-May-24 18:49N 05°16' W 004°02'726923095.4
2017-May-24 18:30N 37°33' E 121°23'7269443510.0
2017-May-24 18:29N 05°16' W 004°02'735315204.9
2017-May-24 18:00N 31°15' E 122°05'37927323.6
2017-May-24 18:00N 37°33' E 121°23'98816628.2
2017-May-24 17:56N 22°19' E 114°09'69626266003.4
2017-May-24 17:56N 05°16' W 004°02'726916969.6
2017-May-24 17:30N 37°33' E 121°23'37945539.3
2017-May-24 17:30N 31°15' E 122°05'7353362625.6
2017-May-24 17:29N 05°16' W 004°02'729818915.9
2017-May-24 17:05N 31°42' E 121°10'3514040.3
2017-May-24 17:00N 37°33' E 121°23'379227696.6
2017-May-24 17:00N 31°15' E 122°05'7353945410.7
2017-May-24 17:00N 05°16' W 004°02'730322982.6
2017-May-24 16:41N 31°38' E 121°15'49290.8
2017-May-24 16:30N 31°15' E 122°05'379105090.7
2017-May-24 16:30N 37°33' E 121°23'356116497.2
2017-May-24 16:30N 31°37' E 121°17'73046573548.8
2017-May-24 16:30N 05°17' W 004°01'726714615.7
2017-May-24 16:00N 37°33' E 121°23'360324253.0
2017-May-24 16:00N 31°32' E 121°21'425573.3
2017-May-24 16:00N 31°15' E 122°05'7352696501.3
2017-May-24 15:59N 05°17' W 004°01'735215468.8
2017-May-24 15:30N 31°15' E 122°05'3610786.7
2017-May-24 15:30N 31°29' E 121°27'73144388589.1
2017-May-24 15:30N 05°17' W 004°01'72673737453.3
2017-May-24 15:30N 37°33' E 121°23'379768.8
2017-May-24 15:00N 31°15' E 122°05'146488.9
2017-May-24 15:00N 31°00' E 122°03'73522940633.7
2017-May-24 15:00N 05°17' W 004°01'7267467182.2
2017-May-24 14:59N 37°33' E 121°23'36814727.6
2017-May-24 14:58N 31°25' E 121°33'3271.4
2017-May-24 14:30N 31°03' E 122°01'1225.0
2017-May-24 14:00N 31°15' E 122°05'379105090.7
2017-May-24 14:00N 37°33' E 121°23'37421019.6
2017-May-24 13:59N 31°19' E 121°41'7330338310.4
2017-May-24 13:58N 05°16' W 004°02'735316131.5
2017-May-24 13:30N 31°15' E 122°05'38015703.5
2017-May-24 13:29N 37°33' E 121°23'3747155.6
2017-May-24 13:26N 31°19' E 121°41'2150.3
2017-May-24 13:00N 31°15' E 122°05'216987.4
2017-May-24 13:00N 31°19' E 121°41'6743453.9
2017-May-24 12:49N 22°18' E 114°09'0 1.0
2017-May-24 12:30N 22°18' E 114°09'9893559850.0
2017-May-24 12:30N 37°33' E 121°23'379273235.9
2017-May-24 12:30N 31°15' E 122°05'216987.4
2017-May-24 12:30N 31°19' E 121°41'2143.0
2017-May-24 12:00N 31°15' E 122°05'3791366179.6
2017-May-24 12:00N 37°33' E 121°23'37456052.2
2017-May-24 12:00N 31°19' E 121°41'374755.3
2017-May-24 11:30N 37°33' E 121°23'37917976.0
2017-May-24 11:29N 31°15' E 122°05'211746.9
2017-May-24 11:28N 31°19' E 121°41'374810.4
2017-May-24 11:01N 37°33' E 121°23'38029700.0
2017-May-24 11:00N 31°15' E 122°05'216988.2
2017-May-24 11:00N 31°19' E 121°41'2375.1
2017-May-24 10:41N 31°03' E 122°00'1264.8
2017-May-24 10:30N 31°15' E 122°05'114558.0
2017-May-24 10:30N 31°05' E 121°59'22196.3
2017-May-24 10:23N 31°19' E 121°41'2155.9
2017-May-24 10:00N 31°15' E 122°05'115133.4
2017-May-24 10:00N 31°07' E 121°56'38787045.5
2017-May-24 10:00N 37°33' E 121°23'3744203.9
2017-May-24 09:55N 31°19' E 121°41'1433.5
2017-May-24 09:30N 31°09' E 121°52'1315301.5
2017-May-24 09:30N 31°15' E 122°05'37947109.6
2017-May-24 09:30N 37°33' E 121°23'37422053.0
2017-May-24 09:29N 31°19' E 121°41'817.8
2017-May-24 09:00N 31°13' E 121°48'152473.1
2017-May-24 09:00N 31°15' E 122°05'37985386.2
2017-May-24 09:00N 37°33' E 121°23'37419782.8
2017-May-24 08:59N 31°19' E 121°41'609713190.2
2017-May-24 08:31N 33°37' W 117°55'5895757903.0
2017-May-24 08:31N 37°33' E 121°23'376676489.8
2017-May-24 08:30N 31°17' E 121°44'3100.5
2017-May-24 08:29N 31°19' E 121°41'6097103044.2
2017-May-24 08:25N 33°37' W 117°55'589514446.1
2017-May-24 08:01N 37°33' E 121°23'372670326.3
2017-May-24 08:00N 31°21' E 121°40'2341007.5
2017-May-24 08:00N 31°15' E 122°05'212562.0
2017-May-24 08:00N 31°19' E 121°41'609733407.0
2017-May-24 07:49N 33°37' W 117°55'6664888528.8
2017-May-24 07:49N 05°16' W 004°02'716224958.6
2017-May-24 07:31N 38°20' E 119°30'43029765.7
2017-May-24 07:30N 31°23' E 121°35'2798521.2
2017-May-24 07:30N 31°15' E 122°05'3791366179.6
2017-May-24 07:30N 37°33' E 121°23'72691744485.5
2017-May-24 07:30N 05°16' W 004°02'71622343904.0
2017-May-24 07:30N 38°20' E 119°30'43514622.8
2017-May-24 07:28N 31°19' E 121°41'374804.6
2017-May-24 07:00N 37°33' E 121°23'9816014.2
2017-May-24 07:00N 38°20' E 119°35'443531794.8
2017-May-24 07:00N 31°15' E 122°05'214270.3
2017-May-24 07:00N 31°19' E 121°41'733044725.7
2017-May-24 06:50N 05°16' W 004°02'735322781.2
2017-May-24 06:30N 31°15' E 122°05'442227171.9
2017-May-24 06:30N 38°20' E 119°40'9413055.3
2017-May-24 06:30N 37°33' E 121°23'7269707219.7
2017-May-24 06:29N 05°16' W 004°02'7330321806.7
2017-May-24 06:28N 31°19' E 121°41'2146.4
2017-May-24 06:00N 31°15' E 122°05'379273235.9
2017-May-24 06:00N 37°33' E 121°23'903524.0
2017-May-24 05:59N 38°18' E 119°45'7175246015.5
2017-May-24 05:57N 05°16' W 004°02'7330799642.6
2017-May-24 05:56N 31°19' E 121°41'374867.9
2017-May-24 05:31N 37°33' E 121°23'8625821.3
2017-May-24 05:30N 38°16' E 119°49'436523352.0
2017-May-24 05:30N 31°15' E 122°05'7353357726.3
2017-May-24 05:29N 05°16' W 004°02'733074542.8
2017-May-24 05:23N 31°19' E 121°41'4231122.1
2017-May-24 05:01N 38°13' E 119°53'8212280.8
2017-May-24 05:00N 37°33' E 121°23'379136618.0
2017-May-24 05:00N 31°15' E 122°05'211397.6
2017-May-24 04:59N 31°19' E 121°41'733055907.1
2017-May-24 04:51N 05°16' W 004°02'666428290.6
2017-May-24 04:37N 33°37' W 117°55'594354580.0
2017-May-24 04:30N 38°10' E 119°57'428771255.9
2017-May-24 04:30N 31°15' E 122°05'37952545.4
2017-May-24 04:30N 37°33' E 121°23'72691189415.2
2017-May-24 04:30N 05°16' W 004°02'733051040.9
2017-May-24 04:21N 31°19' E 121°41'609718290.3
2017-May-24 04:01N 33°37' W 117°55'5940648020.6
2017-May-24 04:00N 38°08' E 120°02'426117888.3
2017-May-24 04:00N 31°15' E 122°05'37965056.2
2017-May-24 04:00N 37°33' E 121°23'37415826.3
2017-May-24 03:59N 31°19' E 121°41'6097105016.4
2017-May-24 03:55N 33°37' W 117°55'666478144.6
2017-May-24 03:50N 05°16' W 004°02'719722087.2
2017-May-24 03:30N 38°07' E 120°07'699948.4
2017-May-24 03:30N 37°33' E 121°23'379136618.0
2017-May-24 03:30N 31°15' E 122°05'21429.4
2017-May-24 03:27N 31°19' E 121°41'6097215180.6
2017-May-24 03:25N 33°37' W 117°55'589148751.8
2017-May-24 03:18N 37°51' E 121°15'1966.8
2017-May-24 03:01N 37°33' E 121°23'379273235.9
2017-May-24 03:00N 31°15' E 122°05'422216871.0
2017-May-24 03:00N 38°06' E 120°13'4134943.1
2017-May-24 02:55N 31°19' E 121°41'374904.7
2017-May-24 02:31N 37°33' E 121°23'379341544.9
2017-May-24 02:30N 31°15' E 122°05'42056014.3
2017-May-24 02:30N 38°06' E 120°18'4127129.3
2017-May-24 02:27N 31°19' E 121°41'30259.6
2017-May-24 02:20N 31°39' E 121°14'33144.5
2017-May-24 02:06N 31°41' E 121°52'3533779.5
2017-May-24 02:00N 37°33' E 121°23'5740988.3
2017-May-24 02:00N 38°05' E 120°24'39078092.7
2017-May-24 02:00N 31°37' E 121°17'474714.2
2017-May-24 01:59N 31°15' E 122°05'21904.3
2017-May-24 01:58N 31°19' E 121°41'23216.2
2017-May-24 01:52N 31°41' E 121°50'6076140220.5
2017-May-24 01:49N 33°37' W 117°55'607919574.0
2017-May-24 01:30N 31°15' E 122°05'417500088.7
2017-May-24 01:30N 38°04' E 120°29'393706811.7
2017-May-24 01:30N 31°33' E 121°20'35946183.9
2017-May-24 01:30N 37°33' E 121°23'5895192920.8
2017-May-24 01:28N 33°37' W 117°55'609745917.2
2017-May-24 01:20N 31°19' E 121°41'2389.0
2017-May-24 01:04N 31°42' E 121°45'3855848.3
2017-May-24 01:00N 38°03' E 120°35'4913502.0
2017-May-24 01:00N 37°33' E 121°23'379151797.7
2017-May-24 01:00N 31°15' E 122°05'3946735.6
2017-May-24 01:00N 31°31' E 121°24'19454.6
2017-May-24 00:58N 31°19' E 121°41'23166.7
2017-May-24 00:49N 31°43' E 121°43'3691359.6
2017-May-24 00:33N 37°51' E 121°15'30748.6
2017-May-24 00:31N 38°02' E 120°40'458508.5
2017-May-24 00:30N 37°33' E 121°23'38014690.3
2017-May-24 00:29N 31°15' E 122°05'352280.7
2017-May-24 00:28N 31°28' E 121°28'14258.1
2017-May-24 00:24N 31°19' E 121°41'4051015.7
2017-May-24 00:00N 38°01' E 120°45'3971430907.9
2017-May-24 00:00N 31°26' E 121°30'327155.8
2017-May-24 00:00N 31°15' E 122°05'3791366179.6
2017-May-24 00:00N 37°33' E 121°23'3743705.9
2017-May-23 23:54N 31°19' E 121°41'2153.9
2017-May-23 23:30N 31°15' E 122°05'410492383.2
2017-May-23 23:30N 38°00' E 120°50'389853.1
2017-May-23 23:30N 37°33' E 121°23'3742450.4
2017-May-23 23:21N 31°19' E 121°41'2162.7
2017-May-23 23:01N 31°15' E 122°05'4091472112.7
2017-May-23 23:01N 37°60' E 120°55'353421.2
2017-May-23 23:00N 37°33' E 121°23'3741835.3
2017-May-23 22:48N 31°19' E 121°41'2172.6
2017-May-23 22:30N 31°15' E 122°05'407733461.8
2017-May-23 22:30N 37°59' E 120°59'3238530.8
2017-May-23 22:30N 37°33' E 121°23'37474736.3
2017-May-23 22:30N 31°19' E 121°41'957.5
2017-May-23 22:21N 31°15' E 121°32'2883.6
2017-May-23 22:00N 31°15' E 122°05'404132318.4
2017-May-23 22:00N 37°56' E 121°02'296055.7
2017-May-23 22:00N 37°33' E 121°23'37458489.3
2017-May-23 22:00N 31°19' E 121°41'11122.4
2017-May-23 21:54N 31°14' E 121°30'732023488.0
2017-May-23 21:35N 05°16' W 004°02'735389431.7
2017-May-23 21:31N 31°15' E 122°05'7353882391.4
2017-May-23 21:30N 05°16' W 004°02'7330776122.4
2017-May-23 21:29N 31°19' E 121°41'39450691.9
2017-May-23 21:29N 37°52' E 121°04'719823260.8
2017-May-23 21:10N 29°33' W 095°04'719443602.7
2017-May-23 21:01N 37°33' E 121°23'379136618.0
2017-May-23 21:00N 31°15' E 122°05'211302.7
2017-May-23 20:59N 31°19' E 121°41'39161184.2
2017-May-23 20:59N 37°49' E 121°06'7198740413.9
2017-May-23 20:58N 29°33' W 095°04'719915491.0
2017-May-23 20:31N 37°46' E 121°08'3941418756.0
2017-May-23 20:31N 31°15' E 122°05'379341544.9
2017-May-23 20:30N 37°33' E 121°23'37417936.7
2017-May-23 20:29N 31°19' E 121°41'7412118063.1
2017-May-23 20:25N 29°33' W 095°04'541213975.6
2017-May-23 20:02N 05°16' W 004°02'7253261107.9
2017-May-23 20:01N 37°43' E 121°07'165928.1
2017-May-23 20:00N 37°33' E 121°23'37926787.8
2017-May-23 20:00N 31°15' E 122°05'7353448671.0
2017-May-23 19:59N 05°16' W 004°02'54123247006.8
2017-May-23 19:58N 29°33' W 095°04'739315805.5
2017-May-23 19:30N 31°15' E 122°05'379273235.9
2017-May-23 19:30N 37°33' E 121°23'16617.1
2017-May-23 19:29N 37°43' E 121°07'72011728331.7
2017-May-23 19:28N 29°33' W 095°04'7412173261.4
2017-May-23 19:26N 31°19' E 121°41'2150.4
2017-May-23 19:00N 31°15' E 122°05'38091080.1
2017-May-23 19:00N 37°33' E 121°23'374122297.7
2017-May-23 19:00N 31°19' E 121°41'7412283853.9
2017-May-23 18:58N 29°33' W 095°04'7201125241.4
2017-May-23 18:55N 37°43' E 121°07'725369814.5
2017-May-23 18:49N 05°16' W 004°02'726923918.7
2017-May-23 18:31N 37°33' E 121°23'380273244.5
2017-May-23 18:30N 31°15' E 122°05'391234734.8
2017-May-23 18:30N 37°43' E 121°07'38541974.7
2017-May-23 18:30N 31°19' E 121°41'7330172473.1
2017-May-23 18:27N 05°16' W 004°02'735316371.0
2017-May-23 18:00N 31°15' E 122°05'379124198.1
2017-May-23 18:00N 37°33' E 121°23'161260.4
2017-May-23 17:59N 37°43' E 121°07'7252842120.5
2017-May-23 17:59N 05°17' W 004°01'732967824.0
2017-May-23 17:52N 31°19' E 121°41'3741005.4
2017-May-23 17:30N 37°33' E 121°23'162692.6
2017-May-23 17:30N 37°43' E 121°07'391469462.4
2017-May-23 17:30N 31°15' E 122°05'21284.7
2017-May-23 17:25N 31°19' E 121°41'732966456.9
2017-May-23 17:18N 05°17' W 004°01'735224326.3
2017-May-23 17:00N 31°15' E 122°05'39167066.1
2017-May-23 17:00N 37°43' E 121°07'1614809.2
2017-May-23 17:00N 37°33' E 121°23'726759459.3
2017-May-23 16:53N 05°17' W 004°01'7329586297.4
2017-May-23 16:52N 31°19' E 121°41'2159.1
2017-May-23 16:30N 31°15' E 122°05'3911408387.3
2017-May-23 16:30N 37°43' E 121°07'163484.5
2017-May-23 16:30N 37°33' E 121°23'7267707083.5
2017-May-23 16:29N 05°17' W 004°01'732967823.6
2017-May-23 16:23N 31°19' E 121°41'3741006.9
2017-May-23 16:01N 37°33' E 121°23'374672626.4
2017-May-23 16:00N 31°19' E 121°41'2112811.0
2017-May-23 16:00N 31°15' E 122°05'391469476.7
2017-May-23 16:00N 37°43' E 121°07'725231992.3
2017-May-23 15:47N 05°17' W 004°01'726726888.2
2017-May-23 15:31N 37°33' E 121°23'165385.2
2017-May-23 15:30N 37°43' E 121°07'39124282.5
2017-May-23 15:29N 31°15' E 122°05'21248.7
2017-May-23 15:24N 31°19' E 121°41'7329178266.6
2017-May-23 15:22N 05°17' W 004°01'735220774.8
2017-May-23 15:01N 31°15' E 122°05'379273235.9
2017-May-23 15:00N 37°33' E 121°23'169872.8
2017-May-23 15:00N 37°43' E 121°07'385106551.1
2017-May-23 15:00N 31°19' E 121°41'732973287.3
2017-May-23 14:54N 05°17' W 004°01'735218704.6
2017-May-23 14:31N 31°15' E 122°05'39144012.1
2017-May-23 14:30N 37°43' E 121°07'385461721.6
2017-May-23 14:30N 31°19' E 121°41'7329293179.2
2017-May-23 14:28N 05°17' W 004°01'726815256.5
2017-May-23 14:00N 37°33' E 121°23'379774.5
2017-May-23 13:30N 31°15' E 122°05'391156487.5
2017-May-23 13:30N 37°43' E 121°07'167404.6
2017-May-23 13:30N 37°33' E 121°23'3742637.8
2017-May-23 13:22N 31°19' E 121°41'733063433.4
2017-May-23 13:15N 05°16' W 004°02'726930640.8
2017-May-23 13:01N 37°33' E 121°23'379455393.2
2017-May-23 13:00N 31°15' E 122°05'39174125.6
2017-May-23 13:00N 37°43' E 121°07'3856240.4
2017-May-23 12:56N 31°19' E 121°41'385889.8
2017-May-23 12:31N 37°43' E 121°07'39188024.2
2017-May-23 12:30N 31°15' E 122°05'379170772.5
2017-May-23 12:30N 37°33' E 121°23'372167434.5
2017-May-23 12:30N 31°21' E 121°39'383780.5
2017-May-23 12:01N 37°43' E 121°07'391234731.2
2017-May-23 12:00N 31°15' E 122°05'37956924.2
2017-May-23 12:00N 37°33' E 121°23'37019022.2
2017-May-23 11:59N 31°23' E 121°35'2757.2
2017-May-23 11:30N 31°15' E 122°05'39178243.7
2017-May-23 11:30N 37°43' E 121°07'1611847.4
2017-May-23 11:30N 37°33' E 121°23'3685608.6
2017-May-23 11:26N 31°25' E 121°31'3173.5
2017-May-23 11:00N 31°15' E 122°05'39178243.7
2017-May-23 11:00N 37°43' E 121°07'163117.7
2017-May-23 11:00N 37°33' E 121°23'3643681.2
2017-May-23 10:54N 31°29' E 121°27'6741822.7
2017-May-23 10:32N 22°18' E 114°12'98948751.1
2017-May-23 10:31N 37°33' E 121°23'164935.3
2017-May-23 10:30N 37°43' E 121°07'391201198.2
2017-May-23 10:30N 31°15' E 122°05'398714.9
2017-May-23 10:30N 31°30' E 121°24'67429597.6
2017-May-23 10:29N 22°18' E 114°11'9892114.9
2017-May-23 10:01N 37°33' E 121°23'1629606.5
2017-May-23 10:00N 37°43' E 121°07'391234759.7
2017-May-23 10:00N 31°15' E 122°05'447894.6
2017-May-23 10:00N 31°34' E 121°19'6754196.5
2017-May-23 09:50N 22°17' E 114°11'696425871.9
2017-May-23 09:34N 05°16' W 004°02'7254116059.0
2017-May-23 09:31N 37°44' E 121°08'1715097.5
2017-May-23 09:30N 37°33' E 121°23'35485028.1
2017-May-23 09:30N 31°38' E 121°14'5017885.4
2017-May-23 09:30N 31°15' E 122°05'7353153017.2
2017-May-23 09:27N 05°16' W 004°02'69644178301.9
2017-May-23 09:27N 22°17' E 114°11'9992260.5
2017-May-23 09:01N 37°47' E 121°11'186319.1
2017-May-23 09:00N 37°33' E 121°23'37947109.6
2017-May-23 09:00N 31°15' E 122°05'6852222.3
2017-May-23 08:41N 22°17' E 114°11'10025526.1
2017-May-23 08:31N 37°50' E 121°15'397158867.5
2017-May-23 08:30N 31°15' E 122°05'379273235.9
2017-May-23 08:30N 37°33' E 121°23'9899040.0
2017-May-23 08:24N 22°17' E 114°11'10032595.5
2017-May-23 08:01N 37°50' E 121°16'397158971.4
2017-May-23 08:00N 31°15' E 122°05'379124198.1
2017-May-23 08:00N 37°33' E 121°23'98913240.8
2017-May-23 07:56N 22°17' E 114°11'9892357.2
2017-May-23 07:31N 37°33' E 121°23'183316.8
2017-May-23 07:30N 37°50' E 121°16'3971430742.6
2017-May-23 07:30N 31°15' E 122°05'6852747.7
2017-May-23 07:15N 22°17' E 114°11'10034088.9
2017-May-23 07:01N 37°50' E 121°16'1003515786.7
2017-May-23 07:00N 22°17' E 114°10'6852465179.7
2017-May-23 07:00N 31°15' E 122°05'37985386.2
2017-May-23 07:00N 37°33' E 121°23'1837.3
2017-May-23 06:31N 37°50' E 121°16'1003601879.1
2017-May-23 06:30N 22°17' E 114°10'6852465974.6
2017-May-23 06:30N 31°15' E 122°05'37962099.1
2017-May-23 06:30N 37°33' E 121°23'9896108.3
2017-May-23 06:20N 22°18' E 114°09'6852061.4
2017-May-23 06:00N 31°15' E 122°05'684273782.9
2017-May-23 06:00N 22°17' E 114°11'98957436.1
2017-May-23 05:59N 37°33' E 121°23'181617.4
2017-May-23 05:59N 37°50' E 121°16'397852.1
2017-May-23 05:31N 31°15' E 122°05'68487958.5
2017-May-23 05:30N 22°17' E 114°11'989296698.3
2017-May-23 05:30N 37°33' E 121°23'181069.9
2017-May-23 05:29N 37°50' E 121°16'1839.1
2017-May-23 05:01N 37°33' E 121°23'1833147.4
2017-May-23 05:00N 37°50' E 121°16'397204388.7
2017-May-23 05:00N 31°15' E 122°05'68464811.5
2017-May-23 05:00N 22°17' E 114°11'9892031.0
2017-May-23 04:31N 37°33' E 121°23'380136620.1
2017-May-23 04:30N 31°15' E 122°05'39734064.7
2017-May-23 04:30N 37°50' E 121°16'100216630.7
2017-May-23 04:26N 22°17' E 114°11'9892318.0
2017-May-23 04:00N 37°33' E 121°23'1811055.1
2017-May-23 04:00N 37°50' E 121°16'39721040.0
2017-May-23 03:59N 31°15' E 122°05'68450262.0
2017-May-23 03:58N 22°17' E 114°11'681314792.7
2017-May-23 03:31N 33°37' W 117°55'68141115003.9
2017-May-23 03:30N 22°17' E 114°10'9891781015.5
2017-May-23 03:30N 37°33' E 121°23'3791366179.6
2017-May-23 03:30N 31°15' E 122°05'3971430718.0
2017-May-23 03:30N 37°50' E 121°16'589163687.4
2017-May-23 03:25N 33°37' W 117°55'589114555.9
2017-May-23 03:00N 37°50' E 121°16'397158968.7
2017-May-23 03:00N 31°15' E 122°05'379341544.9
2017-May-23 03:00N 37°33' E 121°23'98982808.5
2017-May-23 03:00N 22°17' E 114°11'681324380.8
2017-May-23 02:43N 33°37' W 117°55'589528070.5
2017-May-23 02:30N 37°33' E 121°23'37947109.6
2017-May-23 02:30N 31°15' E 122°05'3971951.9
2017-May-23 02:17N 37°50' E 121°16'0 0.0
2017-May-23 02:01N 37°50' E 121°16'183317.5
2017-May-23 02:00N 37°33' E 121°23'9899701.3
2017-May-23 01:54N 22°17' E 114°11'681376884.8
2017-May-23 01:49N 33°37' W 117°55'589119367.9
2017-May-23 01:31N 37°50' E 121°16'182764.6
2017-May-23 01:30N 37°33' E 121°23'37991078.6
2017-May-23 01:30N 31°15' E 122°05'68410801.8
2017-May-23 01:26N 22°17' E 114°11'681356252.9
2017-May-23 01:19N 33°37' W 117°55'589119332.6
2017-May-23 01:01N 37°50' E 121°16'397178839.7
2017-May-23 01:00N 31°15' E 122°05'37965056.2
2017-May-23 01:00N 37°33' E 121°23'9892742.0
2017-May-23 00:38N 22°18' E 114°11'1 9.2
2017-May-23 00:30N 22°17' E 114°10'685189651.8
2017-May-23 00:30N 31°15' E 122°05'379341544.9
2017-May-23 00:30N 37°33' E 121°23'18861.7
2017-May-23 00:29N 37°50' E 121°16'0 0.0
2017-May-23 00:01N 37°50' E 121°16'1003515866.3
2017-May-23 00:00N 22°17' E 114°10'685246587.0
2017-May-23 00:00N 31°15' E 122°05'37962099.1
2017-May-23 00:00N 37°33' E 121°23'3916601.2
2017-May-22 23:56N 31°04' E 122°05'1125.9
2017-May-22 23:31N 31°15' E 122°05'39768129.4
2017-May-22 23:30N 37°50' E 121°16'4072244.8
2017-May-22 23:19N 31°05' E 122°02'3891799.1
2017-May-22 23:06N 37°33' E 121°23'0 0.0
2017-May-22 23:00N 37°33' E 121°23'379273235.9
2017-May-22 23:00N 31°15' E 122°05'119498.5
2017-May-22 23:00N 31°05' E 121°60'406146297.1
2017-May-22 23:00N 37°50' E 121°16'10025951.5
2017-May-22 22:50N 22°19' E 114°09'9883015.4
2017-May-22 22:30N 37°33' E 121°23'387348393.7
2017-May-22 22:30N 31°07' E 121°57'1138862.6
2017-May-22 22:30N 31°15' E 122°05'68472444.7
2017-May-22 22:30N 22°19' E 114°09'10022055.2
2017-May-22 22:00N 37°50' E 121°16'39746152.2
2017-May-22 22:00N 31°15' E 122°05'37956924.2
2017-May-22 22:00N 37°33' E 121°23'379782.0
2017-May-22 21:30N 31°15' E 122°05'397178837.5
2017-May-22 21:30N 37°50' E 121°16'1811049.1
2017-May-22 21:30N 37°33' E 121°23'9882599.3
2017-May-22 21:07N 22°19' E 114°09'6745856.5
2017-May-22 21:01N 31°14' E 121°47'1518397.6
2017-May-22 21:00N 31°15' E 122°05'39729806.7
2017-May-22 21:00N 37°50' E 121°16'50823658926.4
2017-May-22 21:00N 48°40' W 123°24'5090436325.7
2017-May-22 20:59N 37°33' E 121°23'98815471.8
2017-May-22 20:55N 22°19' E 114°09'681433419.1
2017-May-22 20:43N 33°37' W 117°55'607929612.7
2017-May-22 20:30N 31°15' E 122°05'37965056.2
2017-May-22 20:30N 37°33' E 121°23'18676.7
2017-May-22 20:29N 37°50' E 121°16'5091631930.0
2017-May-22 20:28N 48°38' W 123°14'539211736.4
2017-May-22 20:00N 31°21' E 121°39'390200498.1
2017-May-22 20:00N 37°50' E 121°16'397357680.3
2017-May-22 20:00N 31°15' E 122°05'379105090.7
2017-May-22 20:00N 37°33' E 121°23'511261552.7
2017-May-22 19:55N 48°33' W 122°60'620924780.6
2017-May-22 19:40N 22°19' E 114°09'6744227.8
2017-May-22 19:30N 31°23' E 121°34'2811141.2
2017-May-22 19:30N 31°15' E 122°05'68470373.9
2017-May-22 19:30N 22°19' E 114°09'988114790.4
2017-May-22 19:29N 37°33' E 121°23'182763.1
2017-May-22 19:29N 37°50' E 121°16'510455510.2
2017-May-22 19:23N 48°32' W 123°00'539114196.3
2017-May-22 19:01N 31°15' E 122°05'397715360.6
2017-May-22 19:00N 37°50' E 121°16'38465829.6
2017-May-22 19:00N 31°26' E 121°29'36687954.4
2017-May-22 19:00N 37°33' E 121°23'5112541319.2
2017-May-22 18:59N 48°32' W 123°00'620917655.6
2017-May-22 18:38N 22°19' E 114°09'6845285.6
2017-May-22 18:30N 31°15' E 122°05'37940181.8
2017-May-22 18:30N 37°33' E 121°23'5112525853.4
2017-May-22 18:29N 48°32' W 123°00'51042296732.2
2017-May-22 18:29N 37°50' E 121°16'10028862.5
2017-May-22 18:22N 22°19' E 114°09'6841846.4
2017-May-22 18:00N 31°15' E 122°05'38065057.2
2017-May-22 18:00N 37°33' E 121°23'9889242.9
2017-May-22 17:53N 22°19' E 114°09'9882588.0
2017-May-22 17:30N 37°33' E 121°23'3791366179.6
2017-May-22 17:30N 31°15' E 122°05'397238467.8
2017-May-22 17:30N 37°50' E 121°16'100245659.0
2017-May-22 17:29N 22°19' E 114°09'10022105.7
2017-May-22 17:00N 37°50' E 121°16'1811076.3
2017-May-22 17:00N 37°33' E 121°23'3791366179.6
2017-May-22 17:00N 31°15' E 122°05'6845378.0
2017-May-22 16:53N 22°19' E 114°09'10035535.6
2017-May-22 16:42N 37°51' E 121°15'3981993.8
2017-May-22 16:30N 31°15' E 122°05'684273678.1
2017-May-22 16:30N 22°19' E 114°09'988323502.1
2017-May-22 16:30N 37°33' E 121°23'1816614.5
2017-May-22 16:29N 37°50' E 121°16'1 3.9
2017-May-22 16:18N 37°51' E 121°15'3981367.9
2017-May-22 16:00N 31°15' E 122°05'380136622.3
2017-May-22 16:00N 37°33' E 121°23'193011.7
2017-May-22 16:00N 37°51' E 121°15'171.5
2017-May-22 15:59N 37°50' E 121°16'510116863.6
2017-May-22 15:41N 48°34' W 123°02'6207140528.8
2017-May-22 15:38N 22°19' E 114°09'10027642.5
2017-May-22 15:31N 37°50' E 121°16'183698.9
2017-May-22 15:30N 37°33' E 121°23'38035953.2
2017-May-22 15:30N 31°15' E 122°05'539032070.8
2017-May-22 15:20N 48°34' W 123°01'620844168.0
2017-May-22 15:11N 22°19' E 114°09'6843842.6
2017-May-22 15:00N 31°15' E 122°05'37991078.6
2017-May-22 15:00N 37°33' E 121°23'19191.2
2017-May-22 14:54N 37°50' E 121°16'100237972.4
2017-May-22 14:53N 22°19' E 114°09'0 0.0
2017-May-22 14:24N 22°19' E 114°09'6841718.8
2017-May-22 14:00N 31°15' E 122°05'39875327.1
2017-May-22 14:00N 37°50' E 121°16'191805.0
2017-May-22 13:59N 37°33' E 121°23'1964.9
2017-May-22 13:41N 37°51' E 121°15'19101.4
2017-May-22 13:30N 37°33' E 121°23'19399.2
2017-May-22 13:27N 37°51' E 121°15'3981433702.9
2017-May-22 13:27N 31°15' E 122°05'68432841.4
2017-May-22 13:26N 22°19' E 114°09'10026768.2
2017-May-22 13:17N 37°50' E 121°16'3722242.2
2017-May-22 13:07N 31°38' E 121°15'3733493.8
2017-May-22 13:00N 37°51' E 121°11'214657.9
2017-May-22 13:00N 37°33' E 121°23'1922339.7
2017-May-22 13:00N 37°50' E 121°16'398178922.6
2017-May-22 13:00N 31°15' E 122°05'4819332.8
2017-May-22 13:00N 31°38' E 121°16'6763638.6
2017-May-22 12:49N 22°19' E 114°09'69622278551.9
2017-May-22 12:49N 05°16' W 004°02'725123881.6
2017-May-22 12:30N 37°52' E 121°06'242655.5
2017-May-22 12:30N 37°33' E 121°23'379341544.9
2017-May-22 12:30N 31°15' E 122°05'452546.3
2017-May-22 12:29N 31°35' E 121°18'7307203916.1
2017-May-22 12:27N 05°16' W 004°02'7260622254.8
2017-May-22 12:26N 37°50' E 121°16'1227.9
2017-May-22 12:01N 37°54' E 121°01'2749468.8
2017-May-22 12:00N 37°33' E 121°23'379227696.6
2017-May-22 12:00N 31°15' E 122°05'39865062.8
2017-May-22 12:00N 37°50' E 121°16'37737697.2
2017-May-22 11:59N 31°33' E 121°21'67539832.1
2017-May-22 11:58N 22°19' E 114°09'6751517.3
2017-May-22 11:32N 31°23' E 121°37'37016875.3
2017-May-22 11:30N 37°33' E 121°23'361433231.2
2017-May-22 11:30N 31°32' E 121°23'386126370.0
2017-May-22 11:30N 37°57' E 120°58'1003515908.4
2017-May-22 11:30N 22°19' E 114°09'100285891.0
2017-May-22 11:29N 37°50' E 121°16'38836790.3
2017-May-22 11:29N 31°22' E 121°37'398846.1
2017-May-22 11:00N 37°59' E 120°53'1004722906.2
2017-May-22 11:00N 22°17' E 114°10'6852466344.1
2017-May-22 11:00N 31°15' E 122°05'398357840.6
2017-May-22 11:00N 37°50' E 121°16'1966942.5
2017-May-22 11:00N 37°33' E 121°23'37336263.1
2017-May-22 11:00N 31°20' E 121°41'16216.9
2017-May-22 10:55N 31°30' E 121°26'391949.1
2017-May-22 10:31N 37°60' E 120°48'248565.3
2017-May-22 10:30N 37°50' E 121°16'398357850.5
2017-May-22 10:30N 31°15' E 122°05'380455407.5
2017-May-22 10:30N 37°33' E 121°23'988114791.2
2017-May-22 10:30N 22°18' E 114°11'674346741.6
2017-May-22 10:30N 31°17' E 121°44'407838.3
2017-May-22 10:00N 38°01' E 120°42'4319365.3
2017-May-22 10:00N 37°33' E 121°23'380273240.2
2017-May-22 10:00N 31°15' E 122°05'155541.2
2017-May-22 10:00N 31°14' E 121°47'3978159.3
2017-May-22 09:57N 37°50' E 121°16'589113456.5
2017-May-22 09:31N 33°37' W 117°55'6079754613.0
2017-May-22 09:30N 31°15' E 122°05'380227700.2
2017-May-22 09:30N 37°33' E 121°23'381105643.3
2017-May-22 09:30N 31°12' E 121°50'21594.1
2017-May-22 09:28N 31°25' E 121°31'3859311.5
2017-May-22 09:26N 37°50' E 121°16'5891605929.4
2017-May-22 09:25N 33°37' W 117°55'592114450.4
2017-May-22 09:00N 38°02' E 120°31'51183790.0
2017-May-22 09:00N 37°33' E 121°23'196696.3
2017-May-22 09:00N 37°50' E 121°16'402289258.0
2017-May-22 09:00N 31°10' E 121°53'12608.1
2017-May-22 08:59N 31°15' E 122°05'398840.5
2017-May-22 08:31N 37°50' E 121°16'4250357.7
2017-May-22 08:30N 38°03' E 120°25'5519872.7
2017-May-22 08:30N 37°33' E 121°23'1937.4
2017-May-22 08:00N 37°50' E 121°16'196087.5
2017-May-22 08:00N 37°33' E 121°23'607681.5
2017-May-22 08:00N 38°04' E 120°19'4795.3
2017-May-22 07:30N 37°50' E 121°16'51183887.6
2017-May-22 07:30N 38°06' E 120°14'6423079.3
2017-May-22 07:30N 37°33' E 121°23'1937.3
2017-May-22 07:00N 37°50' E 121°16'1966978.2
2017-May-22 07:00N 37°33' E 121°23'691656.4
2017-May-22 06:58N 38°07' E 120°08'56123.3
2017-May-22 06:31N 37°50' E 121°16'60217060.2
2017-May-22 06:30N 38°09' E 120°03'7323916.6
2017-May-22 06:30N 37°33' E 121°23'1937.5
2017-May-22 06:01N 37°50' E 121°16'198369.7
2017-May-22 06:00N 37°33' E 121°23'0 0.0
2017-May-22 05:30N 37°33' E 121°23'19449.4
2017-May-22 05:28N 37°50' E 121°15'1940.4
2017-May-22 05:00N 37°33' E 121°23'19194.6
2017-May-22 04:54N 37°50' E 121°15'589120140.5
2017-May-22 04:37N 33°37' W 117°55'589553454.1
2017-May-22 04:30N 37°33' E 121°23'589566316.5
2017-May-22 04:25N 33°37' W 117°55'589166482.6
2017-May-22 04:20N 37°50' E 121°15'1957.6
2017-May-22 04:00N 37°33' E 121°23'589566109.9
2017-May-22 03:55N 33°37' W 117°55'589189109.1
2017-May-22 03:51N 37°50' E 121°15'1953.9
2017-May-22 03:30N 37°33' E 121°23'192478.2
2017-May-22 03:30N 37°50' E 121°15'1937.7
2017-May-22 03:00N 37°33' E 121°23'19241.6
2017-May-22 02:56N 37°50' E 121°15'589114310.4
2017-May-22 02:31N 33°37' W 117°55'5895505268.4
2017-May-22 02:30N 37°33' E 121°23'19577.2
2017-May-22 02:28N 37°50' E 121°15'589137803.8
2017-May-22 02:19N 33°37' W 117°55'589119140.8
2017-May-22 02:01N 37°50' E 121°15'194779.5
2017-May-22 02:00N 37°33' E 121°23'1937.2
2017-May-22 01:30N 37°50' E 121°15'1922304.1
2017-May-22 01:30N 37°33' E 121°23'0 0.0
2017-May-22 01:00N 37°33' E 121°23'198364.1
2017-May-22 01:00N 37°50' E 121°15'1937.2
2017-May-22 00:30N 37°33' E 121°23'191556.1
2017-May-22 00:30N 37°50' E 121°15'0 0.0
2017-May-22 00:00N 37°50' E 121°15'1933456.2
2017-May-22 00:00N 37°33' E 121°23'0 0.0
2017-May-21 23:30N 37°33' E 121°23'193712.8
2017-May-21 23:30N 37°50' E 121°15'589120812.6
2017-May-21 23:13N 33°37' W 117°55'653040047.5
2017-May-21 23:03N 24°25' E 118°05'80616477.1
2017-May-21 23:00N 37°33' E 121°23'8062900526.4
2017-May-21 23:00N 24°25' E 118°05'821184812.4
2017-May-21 23:00N 37°50' E 121°16'589120792.1
2017-May-21 22:43N 33°37' W 117°55'589527776.5
2017-May-21 22:30N 37°33' E 121°23'192666.1
2017-May-21 22:30N 37°50' E 121°16'589132577.4
2017-May-21 22:19N 33°37' W 117°55'589518880.1
2017-May-21 22:00N 37°33' E 121°23'18152.7
2017-May-21 21:53N 37°50' E 121°16'1848.8
2017-May-21 21:30N 37°33' E 121°23'181849.9
2017-May-21 21:30N 37°50' E 121°16'0 0.0
2017-May-21 21:01N 37°50' E 121°16'194759.7
2017-May-21 21:00N 37°33' E 121°23'1937.1
2017-May-21 20:30N 37°50' E 121°16'1913332.4
2017-May-21 20:30N 37°33' E 121°23'1937.3
2017-May-21 20:00N 37°50' E 121°16'195130.6
2017-May-21 20:00N 37°33' E 121°23'0 0.0
2017-May-21 19:30N 37°33' E 121°23'191851.2
2017-May-21 19:30N 37°50' E 121°16'510424662.5
2017-May-21 19:17N 48°32' W 123°00'511218186.6
2017-May-21 19:00N 37°33' E 121°23'5112270659.8
2017-May-21 18:59N 48°32' W 123°00'5104216159.3
2017-May-21 18:58N 37°50' E 121°16'0 0.0
2017-May-21 18:30N 37°50' E 121°16'1966723.5
2017-May-21 18:30N 37°33' E 121°23'5112292140.8
2017-May-21 18:29N 48°32' W 123°00'511210571.4
2017-May-21 18:00N 37°33' E 121°23'19141.1
2017-May-21 17:52N 37°50' E 121°16'1950.5
2017-May-21 17:30N 37°33' E 121°23'191855.1
2017-May-21 17:30N 37°50' E 121°16'726019889.6
2017-May-21 17:08N 05°16' W 004°02'726958148.9
2017-May-21 17:00N 37°33' E 121°23'1911130.8
2017-May-21 17:00N 37°50' E 121°16'7260128112.9
2017-May-21 16:57N 05°16' W 004°02'0 0.1
2017-May-21 16:30N 05°16' W 004°02'72695233394.8
2017-May-21 16:30N 37°33' E 121°23'19868.9
2017-May-21 16:29N 37°50' E 121°16'1938.8
2017-May-21 16:00N 37°33' E 121°23'19576.7
2017-May-21 15:58N 37°50' E 121°16'72581537044.9
2017-May-21 15:58N 05°17' W 004°01'725815807.5
2017-May-21 15:30N 37°50' E 121°16'194780.2
2017-May-21 15:30N 37°33' E 121°23'5112197865.5
2017-May-21 15:29N 48°33' W 123°00'511210780.0
2017-May-21 15:00N 37°33' E 121°23'191217.5
2017-May-21 14:59N 37°50' E 121°16'1938.4
2017-May-21 14:30N 37°33' E 121°23'1936.9
2017-May-21 14:00N 37°50' E 121°16'0 0.0
2017-May-21 13:31N 37°50' E 121°16'198374.8
2017-May-21 13:30N 37°33' E 121°23'142429.7
2017-May-21 13:11N 35°32' E 119°50'154919.7
2017-May-21 13:00N 37°50' E 121°16'193941.1
2017-May-21 13:00N 37°33' E 121°23'589512147.3
2017-May-21 12:31N 33°37' W 117°55'5895416103.4
2017-May-21 12:30N 37°33' E 121°23'1913403.8
2017-May-21 12:30N 37°50' E 121°16'589169762.1
2017-May-21 12:25N 33°37' W 117°55'589114281.3
2017-May-21 12:00N 37°50' E 121°16'1911169.8
2017-May-21 12:00N 37°33' E 121°23'589568677.3
2017-May-21 11:55N 33°37' W 117°55'589514223.4
2017-May-21 11:30N 37°33' E 121°23'191046.5
2017-May-21 11:29N 37°50' E 121°16'1938.6
2017-May-21 11:00N 37°33' E 121°23'191557.6
2017-May-21 11:00N 37°50' E 121°16'589115803.1
2017-May-21 10:37N 33°37' W 117°55'589153420.0
2017-May-21 10:31N 37°50' E 121°16'193719.9
2017-May-21 10:30N 37°33' E 121°23'589569350.6
2017-May-21 10:25N 33°37' W 117°55'607966314.4
2017-May-21 10:20N 31°15' E 122°05'3801173.7
2017-May-21 10:00N 37°33' E 121°23'380227703.8
2017-May-21 10:00N 31°15' E 122°05'39838684.8
2017-May-21 10:00N 37°50' E 121°16'589121574.5
2017-May-21 09:43N 33°37' W 117°55'589127650.3
2017-May-21 09:30N 37°50' E 121°16'199562.5
2017-May-21 09:30N 37°33' E 121°23'37930359.5
2017-May-21 09:29N 31°15' E 122°05'607935468.0
2017-May-21 09:19N 33°37' W 117°55'589518631.5
2017-May-21 09:00N 37°33' E 121°23'195150.2
2017-May-21 09:00N 37°50' E 121°15'398119272.5
2017-May-21 09:00N 31°15' E 122°05'607921905.7
2017-May-21 08:43N 33°37' W 117°55'589527347.0
2017-May-21 08:30N 37°33' E 121°23'195145.5
2017-May-21 08:30N 37°50' E 121°15'39847706.9
2017-May-21 08:29N 31°15' E 122°05'607984493.3
2017-May-21 08:25N 33°37' W 117°55'589114329.7
2017-May-21 08:01N 37°50' E 121°15'199553.1
2017-May-21 08:00N 37°33' E 121°23'3384540.0
2017-May-21 07:56N 31°58' E 120°25'96825.5
2017-May-21 07:49N 31°15' E 122°05'607930909.3
2017-May-21 07:37N 33°37' W 117°55'589551633.3
2017-May-21 07:30N 37°33' E 121°23'379136618.0
2017-May-21 07:30N 31°15' E 122°05'398178892.7
2017-May-21 07:30N 37°50' E 121°15'3552185.4
2017-May-21 07:20N 31°58' E 120°25'6138339942.3
2017-May-21 07:19N 33°37' W 117°55'589118751.6
2017-May-21 07:00N 37°50' E 121°15'198351.3
2017-May-21 07:00N 37°33' E 121°23'379273235.9
2017-May-21 07:00N 31°15' E 122°05'607973189.8
2017-May-21 06:55N 33°37' W 117°55'613851030.6
2017-May-21 06:48N 31°58' E 120°25'3821798.5
2017-May-21 06:35N 38°02' E 118°02'1621958.4
2017-May-21 06:30N 37°33' E 121°23'38091080.1
2017-May-21 06:30N 31°15' E 122°05'967837.7
2017-May-21 06:29N 31°58' E 120°25'35511097.9
2017-May-21 06:27N 37°50' E 121°15'1536254.2
2017-May-21 06:26N 38°02' E 118°02'6041517794.9
2017-May-21 06:25N 33°37' W 117°55'613814780.1
2017-May-21 06:00N 31°58' E 120°25'338608404.2
2017-May-21 06:00N 37°33' E 121°23'38054648.0
2017-May-21 06:00N 31°15' E 122°05'6079223303.6
2017-May-21 05:58N 33°37' W 117°55'589113691.4
2017-May-21 05:32N 37°50' E 121°15'19521.6
2017-May-21 05:30N 37°33' E 121°23'38056925.0
2017-May-21 05:30N 31°15' E 122°05'607978436.4
2017-May-21 05:25N 33°37' W 117°55'5891176733.6
2017-May-21 05:23N 37°50' E 121°15'1948.5
2017-May-21 05:00N 37°33' E 121°23'1966810.6
2017-May-21 05:00N 37°50' E 121°15'398119260.0
2017-May-21 05:00N 31°15' E 122°05'951351.7
2017-May-21 04:56N 31°58' E 120°26'354842.1
2017-May-21 04:30N 37°50' E 121°15'193710.6
2017-May-21 04:30N 37°33' E 121°23'380105092.4
2017-May-21 04:30N 31°15' E 122°05'96553.5
2017-May-21 04:20N 32°01' E 120°27'96298.5
2017-May-21 04:00N 31°15' E 122°05'380341550.3
2017-May-21 04:00N 37°33' E 121°23'19123.0
2017-May-21 03:51N 37°50' E 121°15'3981152.3
2017-May-21 03:30N 31°15' E 122°05'38080364.8
2017-May-21 03:30N 37°33' E 121°23'19118.8
2017-May-21 03:21N 37°50' E 121°15'1954.7
2017-May-21 03:00N 37°33' E 121°23'1913362.1
2017-May-21 03:00N 37°50' E 121°15'39828622.4
2017-May-21 03:00N 31°15' E 122°05'379780.7
2017-May-21 02:30N 37°33' E 121°23'37968309.0
2017-May-21 02:30N 31°15' E 122°05'3982191.7
2017-May-21 02:19N 37°50' E 121°15'0 0.0
2017-May-21 02:00N 37°50' E 121°15'398238527.1
2017-May-21 02:00N 31°15' E 122°05'379273235.9
2017-May-21 02:00N 37°33' E 121°23'511214676.9
2017-May-21 01:39N 48°32' W 123°00'539135937.6
2017-May-21 01:30N 31°15' E 122°05'539119406323.6
2017-May-21 01:30N 48°32' W 123°00'51046124668.6
2017-May-21 01:30N 37°50' E 121°15'199556.0
2017-May-21 01:30N 37°33' E 121°23'1937.3
2017-May-21 01:00N 37°50' E 121°15'199558.9
2017-May-21 01:00N 37°33' E 121°23'37975898.9
2017-May-21 01:00N 31°15' E 122°05'5391128518.7
2017-May-21 00:57N 48°32' W 123°00'539111986.6
2017-May-21 00:30N 31°15' E 122°05'539119406323.6
2017-May-21 00:30N 48°32' W 123°00'51121415760.0
2017-May-21 00:30N 37°33' E 121°23'195579.4
2017-May-21 00:30N 37°50' E 121°15'1471710.0
2017-May-21 00:25N 38°17' E 118°12'49321.3
2017-May-21 00:16N 39°06' E 118°06'517920441.6
2017-May-21 00:00N 48°32' W 123°00'539119406314.1
2017-May-21 00:00N 31°15' E 122°05'398357806.8
2017-May-21 00:00N 37°50' E 121°15'198364.1
2017-May-21 00:00N 37°33' E 121°23'15714886.3
2017-May-21 00:00N 38°17' E 118°12'516161.7
2017-May-20 23:59N 39°08' E 118°06'517710847.2
2017-May-20 23:30N 48°32' W 123°00'53911764211.2
2017-May-20 23:30N 31°15' E 122°05'379341544.9
2017-May-20 23:30N 37°33' E 121°23'1826431.6
2017-May-20 23:28N 39°11' E 118°08'54634.9
2017-May-20 23:23N 38°17' E 118°12'147636.8
2017-May-20 23:10N 37°50' E 121°16'510433713.3
2017-May-20 23:00N 48°32' W 123°00'539119406314.1
2017-May-20 23:00N 31°15' E 122°05'37997584.3
2017-May-20 23:00N 37°33' E 121°23'196693.3
2017-May-20 23:00N 37°50' E 121°15'1471604.0
2017-May-20 22:55N 38°17' E 118°12'521412981.0
2017-May-20 22:30N 48°32' W 123°00'53911764210.4
2017-May-20 22:30N 31°15' E 122°05'3791366179.6
2017-May-20 22:30N 37°33' E 121°23'154138720.8
2017-May-20 22:30N 38°17' E 118°16'14428744.0
2017-May-20 22:30N 37°50' E 121°16'36429122.4
2017-May-20 22:29N 31°46' E 121°03'541211320.1
2017-May-20 22:00N 48°32' W 123°00'539119406314.1
2017-May-20 22:00N 31°15' E 122°05'37997584.3
2017-May-20 22:00N 37°33' E 121°23'348250609.3
2017-May-20 22:00N 31°45' E 121°06'36537576.4
2017-May-20 22:00N 37°50' E 121°16'137474.8
2017-May-20 21:42N 38°18' E 118°25'148756.0
2017-May-20 21:30N 37°33' E 121°23'3501260393.8
2017-May-20 21:30N 31°43' E 121°08'5614449.9
2017-May-20 21:30N 31°15' E 122°05'39743362.9
2017-May-20 21:30N 37°50' E 121°16'5104138149.2
2017-May-20 21:27N 48°32' W 123°00'520128453.8
2017-May-20 21:16N 38°18' E 118°30'520119442.0
2017-May-20 21:00N 48°32' W 123°00'541019475509.8
2017-May-20 21:00N 31°41' E 121°11'369265831.9
2017-May-20 21:00N 37°50' E 121°16'39838677.3
2017-May-20 21:00N 31°15' E 122°05'539111057.7
2017-May-20 20:30N 48°32' W 123°00'54106491439.2
2017-May-20 20:30N 31°39' E 121°13'371222633.7
2017-May-20 20:30N 37°50' E 121°16'1966703.1
2017-May-20 20:30N 37°33' E 121°23'37997584.3
2017-May-20 20:30N 31°15' E 122°05'4561903.0
2017-May-20 20:16N 38°19' E 118°40'4211658.8
2017-May-20 20:00N 31°37' E 121°16'4857422.3
2017-May-20 20:00N 31°15' E 122°05'398286217.2
2017-May-20 20:00N 37°50' E 121°16'1911110.4
2017-May-20 20:00N 37°33' E 121°23'5112110872.7
2017-May-20 19:57N 48°32' W 123°00'541819621.7
2017-May-20 19:41N 30°35' E 122°13'541831156.5
2017-May-20 19:30N 48°32' W 123°00'540919473257.3
2017-May-20 19:30N 31°35' E 121°18'4540701.4
2017-May-20 19:30N 31°15' E 122°05'3981431086.2
2017-May-20 19:30N 37°50' E 121°16'198332.8
2017-May-20 19:30N 37°33' E 121°23'130683.8
2017-May-20 19:19N 38°19' E 118°49'518616956.7
2017-May-20 19:00N 48°32' W 123°00'54109737380.2
2017-May-20 19:00N 31°33' E 121°20'4351241.8
2017-May-20 19:00N 31°15' E 122°05'380105094.0
2017-May-20 19:00N 37°33' E 121°23'19303.8
2017-May-20 18:57N 37°50' E 121°16'115558.2
2017-May-20 18:44N 38°19' E 118°54'518222751.4
2017-May-20 18:31N 48°32' W 123°00'54096490632.9
2017-May-20 18:30N 31°31' E 121°23'4028686.8
2017-May-20 18:30N 31°15' E 122°05'398715638.2
2017-May-20 18:30N 37°50' E 121°16'196688.1
2017-May-20 18:30N 37°33' E 121°23'1244073.3
2017-May-20 18:28N 38°19' E 118°57'113243.5
2017-May-20 18:01N 37°50' E 121°16'38191324.0
2017-May-20 18:00N 31°30' E 121°26'3766530.8
2017-May-20 18:00N 31°15' E 122°05'379341544.9
2017-May-20 18:00N 37°33' E 121°23'1937.4
2017-May-20 17:30N 37°50' E 121°16'38391819.5
2017-May-20 17:30N 31°28' E 121°28'365109469.5
2017-May-20 17:30N 37°33' E 121°23'379136618.0
2017-May-20 17:30N 31°15' E 122°05'3265.7
2017-May-20 17:00N 31°26' E 121°30'3257721.2
2017-May-20 17:00N 31°15' E 122°05'398477113.6
2017-May-20 17:00N 37°50' E 121°16'199563.2
2017-May-20 17:00N 37°33' E 121°23'1937.6
2017-May-20 16:31N 37°50' E 121°16'386347506.0
2017-May-20 16:30N 31°24' E 121°33'2935223.2
2017-May-20 16:30N 31°15' E 122°05'38039034.3
2017-May-20 16:30N 37°33' E 121°23'395839.8
2017-May-20 16:02N 30°59' E 122°10'41423261.9
2017-May-20 16:00N 37°50' E 121°16'1966942.5
2017-May-20 16:00N 37°33' E 121°23'380341550.3
2017-May-20 16:00N 31°15' E 122°05'6079170966.9
2017-May-20 15:58N 33°37' W 117°55'608568026.6
2017-May-20 15:53N 30°60' E 122°09'539937889.8
2017-May-20 15:44N 48°34' W 123°01'6875174299.5
2017-May-20 15:42N 05°17' W 004°01'732638004.3
2017-May-20 15:30N 31°21' E 121°39'2485414.6
2017-May-20 15:30N 31°15' E 122°05'3801366201.1
2017-May-20 15:30N 37°33' E 121°23'1922339.7
2017-May-20 15:30N 37°50' E 121°16'51034592965.6
2017-May-20 15:30N 48°32' W 123°01'6875128244.5
2017-May-20 15:27N 05°17' W 004°01'666423848.0
2017-May-20 15:10N 33°37' W 117°55'589535427.9
2017-May-20 15:00N 37°33' E 121°23'19173.0
2017-May-20 14:54N 37°50' E 121°16'5891230516.3
2017-May-20 14:52N 33°37' W 117°55'5960550161.1
2017-May-20 14:52N 38°18' E 119°31'7161125148.7
2017-May-20 14:48N 05°17' W 004°01'732728119.7
2017-May-20 14:33N 31°20' E 121°39'2421225.1
2017-May-20 14:33N 31°05' E 121°60'114932.4
2017-May-20 14:32N 31°15' E 122°05'39812555.8
2017-May-20 14:31N 37°50' E 121°16'390468298.7
2017-May-20 14:30N 31°20' E 121°39'430221015.0
2017-May-20 14:30N 38°18' E 119°34'9749984.1
2017-May-20 14:30N 37°33' E 121°23'387777.3
2017-May-20 14:00N 31°07' E 121°56'112150.1
2017-May-20 14:00N 31°15' E 122°05'7353135060.8
2017-May-20 13:57N 05°16' W 004°02'726016572.5
2017-May-20 13:31N 37°50' E 121°16'390351226.2
2017-May-20 13:30N 31°20' E 121°39'1719932.6
2017-May-20 13:30N 31°09' E 121°53'734226432472.9
2017-May-20 13:30N 05°16' W 004°02'72691869095.0
2017-May-20 13:30N 37°33' E 121°23'892701.5
2017-May-20 13:28N 38°18' E 119°45'427925.1
2017-May-20 13:00N 31°20' E 121°39'2383949.8
2017-May-20 13:00N 31°15' E 122°05'398238559.9
2017-May-20 13:00N 37°50' E 121°16'194187.4
2017-May-20 13:00N 37°33' E 121°23'726933504.9
2017-May-20 12:47N 05°16' W 004°02'718438426.3
2017-May-20 12:36N 38°13' E 119°53'4224703.0
2017-May-20 12:30N 31°20' E 121°39'1119939.7
2017-May-20 12:30N 31°13' E 121°48'1553317.9
2017-May-20 12:30N 31°15' E 122°05'398477126.9
2017-May-20 12:30N 37°50' E 121°16'193046.3
2017-May-20 12:30N 37°33' E 121°23'726967616.0
2017-May-20 12:24N 05°16' W 004°02'6664337891.3
2017-May-20 12:22N 33°37' W 117°55'5943106433.8
2017-May-20 12:19N 38°12' E 119°56'66212.8
2017-May-20 12:00N 37°50' E 121°16'192576.9
2017-May-20 12:00N 37°33' E 121°23'7269594714.4
2017-May-20 11:59N 05°16' W 004°02'73281147004.7
2017-May-20 11:59N 31°20' E 121°39'915301.0
2017-May-20 11:59N 31°15' E 121°46'1658724.6
2017-May-20 11:59N 31°15' E 122°05'607957137.7
2017-May-20 11:52N 33°37' W 117°55'5940164490.6
2017-May-20 11:50N 38°10' E 120°01'4171268.9
2017-May-20 11:30N 31°20' E 121°39'65712.2
2017-May-20 11:30N 31°16' E 121°45'377150647.4
2017-May-20 11:30N 37°33' E 121°23'1916744.5
2017-May-20 11:30N 37°50' E 121°16'7260109351.6
2017-May-20 11:26N 05°16' W 004°02'730837909.1
2017-May-20 11:15N 31°31' E 121°19'1 2.4
2017-May-20 11:00N 31°31' E 121°19'4338327.6
2017-May-20 11:00N 31°15' E 122°05'2313991.6
2017-May-20 11:00N 31°20' E 121°39'390234143.6
2017-May-20 11:00N 37°50' E 121°16'193043.5
2017-May-20 11:00N 37°33' E 121°23'1938.1
2017-May-20 10:30N 37°50' E 121°16'1966957.8
2017-May-20 10:30N 37°33' E 121°23'372446904.3
2017-May-20 10:30N 31°20' E 121°39'2341974.9
2017-May-20 10:30N 31°15' E 122°05'218505.1
2017-May-20 10:30N 31°20' E 121°41'19665.0
2017-May-20 10:29N 31°30' E 121°23'610659085.7
2017-May-20 10:22N 33°37' W 117°55'5928190543.0
2017-May-20 10:20N 38°06' E 120°19'4111229.3
2017-May-20 10:00N 31°20' E 121°39'372670356.5
2017-May-20 10:00N 37°33' E 121°23'3721339538.0
2017-May-20 10:00N 31°21' E 121°39'135962.5
2017-May-20 10:00N 31°29' E 121°26'400360234.6
2017-May-20 10:00N 38°05' E 120°22'5925195699.8
2017-May-20 09:58N 33°37' W 117°55'5891662741.9
2017-May-20 09:58N 37°50' E 121°16'10013563.9
2017-May-20 09:41N 22°19' E 114°12'9995719.8
2017-May-20 09:30N 38°04' E 120°28'10001799967.1
2017-May-20 09:30N 22°18' E 114°12'6732423270.0
2017-May-20 09:30N 31°20' E 121°39'24411.8
2017-May-20 09:30N 31°22' E 121°37'2645944.8
2017-May-20 09:30N 31°15' E 122°05'379341544.9
2017-May-20 09:30N 37°33' E 121°23'366219829.2
2017-May-20 09:30N 31°26' E 121°29'384115218.4
2017-May-20 09:30N 37°50' E 121°15'5891216407.6
2017-May-20 09:28N 33°37' W 117°55'591712733.2
2017-May-20 09:00N 38°03' E 120°34'401240899.3
2017-May-20 09:00N 31°24' E 121°33'73383.0
2017-May-20 09:00N 31°20' E 121°39'372446904.3
2017-May-20 09:00N 37°33' E 121°23'379136618.0
2017-May-20 09:00N 31°15' E 122°05'282467.7
2017-May-20 08:59N 31°23' E 121°34'3879818.8
2017-May-20 08:57N 37°50' E 121°15'0 0.0
2017-May-20 08:31N 37°50' E 121°15'3155137.1
2017-May-20 08:30N 38°02' E 120°40'405485533.0
2017-May-20 08:30N 31°20' E 121°39'46322.5
2017-May-20 08:30N 31°23' E 121°36'370133141.9
2017-May-20 08:30N 37°33' E 121°23'5895189475.8
2017-May-20 08:28N 33°37' W 117°55'6814170342.4
2017-May-20 08:26N 22°19' E 114°09'6751586.2
2017-May-20 08:00N 31°22' E 121°39'402289491.7
2017-May-20 08:00N 38°01' E 120°45'403362798.9
2017-May-20 08:00N 31°20' E 121°39'2341974.9
2017-May-20 08:00N 31°15' E 122°05'398286241.1
2017-May-20 08:00N 37°50' E 121°15'1966892.1
2017-May-20 08:00N 37°33' E 121°23'988177912.5
2017-May-20 08:00N 22°19' E 114°09'6814299137.8
2017-May-20 07:58N 33°37' W 117°55'590612685.8
2017-May-20 07:31N 38°00' E 120°50'402723132.1
2017-May-20 07:30N 31°20' E 121°39'21459.5
2017-May-20 07:30N 31°20' E 121°42'2137596.3
2017-May-20 07:30N 31°15' E 122°05'3981431184.2
2017-May-20 07:30N 37°50' E 121°15'194179.5
2017-May-20 07:30N 37°33' E 121°23'5895212212.9
2017-May-20 07:28N 33°37' W 117°55'681442002.1
2017-May-20 07:19N 22°19' E 114°09'10023315.1
2017-May-20 07:01N 37°50' E 121°15'390234112.7
2017-May-20 07:00N 31°20' E 121°39'2316790.0
2017-May-20 07:00N 31°15' E 122°05'4081470271.9
2017-May-20 07:00N 37°59' E 120°55'403290366.1
2017-May-20 07:00N 31°18' E 121°44'37584436.6
2017-May-20 07:00N 37°33' E 121°23'589546537.9
2017-May-20 06:52N 33°37' W 117°55'6814183054.0
2017-May-20 06:50N 22°19' E 114°09'10033066.4
2017-May-20 06:31N 37°57' E 120°60'398286553.8
2017-May-20 06:30N 31°20' E 121°39'726873.2
2017-May-20 06:30N 31°16' E 121°46'395101607.9
2017-May-20 06:30N 37°50' E 121°15'193932.4
2017-May-20 06:30N 37°33' E 121°23'98855596.4
2017-May-20 06:29N 22°19' E 114°09'6814943432.3
2017-May-20 06:28N 33°37' W 117°55'589112684.2
2017-May-20 06:01N 37°50' E 121°15'1139748.6
2017-May-20 06:01N 37°54' E 121°02'394354808.7
2017-May-20 06:00N 31°20' E 121°39'1011782.9
2017-May-20 06:00N 31°14' E 121°48'379136491.4
2017-May-20 06:00N 37°33' E 121°23'379113848.3
2017-May-20 06:00N 31°15' E 122°05'607947781.1
2017-May-20 05:52N 33°37' W 117°55'589116140.0
2017-May-20 05:30N 37°50' E 121°15'930711.8
2017-May-20 05:30N 37°50' E 121°05'399287570.1
2017-May-20 05:30N 31°12' E 121°50'1424770.7
2017-May-20 05:30N 31°15' E 122°05'2313991.6
2017-May-20 05:30N 31°20' E 121°39'37249656.0
2017-May-20 05:30N 37°33' E 121°23'989355898.9
2017-May-20 05:30N 22°18' E 114°09'6814331485.6
2017-May-20 05:28N 33°37' W 117°55'607913072.7
2017-May-20 05:01N 31°15' E 122°05'380683100.6
2017-May-20 05:00N 37°33' E 121°23'372670367.3
2017-May-20 05:00N 31°20' E 121°39'1417214.9
2017-May-20 05:00N 31°11' E 121°51'40027200.3
2017-May-20 05:00N 37°50' E 121°15'589126947.9
2017-May-20 04:46N 33°37' W 117°55'607922987.1
2017-May-20 04:31N 31°15' E 122°05'2320851.9
2017-May-20 04:30N 31°20' E 121°39'1614611.6
2017-May-20 04:30N 31°10' E 121°53'40211762.3
2017-May-20 04:28N 37°50' E 121°15'389837.9
2017-May-20 04:00N 31°22' E 121°40'1821817.9
2017-May-20 04:00N 31°08' E 121°55'1112993.9
2017-May-20 04:00N 31°15' E 122°05'398715635.1
2017-May-20 04:00N 37°50' E 121°15'1933466.4
2017-May-20 04:00N 37°33' E 121°23'9883488.4
2017-May-20 03:43N 22°19' E 114°09'6843206.8
2017-May-20 03:31N 31°15' E 122°05'2220116.3
2017-May-20 03:30N 31°22' E 121°40'207233.2
2017-May-20 03:30N 31°07' E 121°57'67441824.1
2017-May-20 03:29N 22°19' E 114°09'9932702.9
2017-May-20 03:07N 37°43' E 121°07'1088.3
2017-May-20 03:00N 37°50' E 121°16'406292081.5
2017-May-20 03:00N 31°06' E 121°59'229987.4
2017-May-20 03:00N 31°22' E 121°40'371445588.3
2017-May-20 03:00N 37°33' E 121°23'38059400.0
2017-May-20 03:00N 31°15' E 122°05'68446468.4
2017-May-20 02:59N 22°19' E 114°09'9936129.0
2017-May-20 02:49N 37°43' E 121°07'590240242.7
2017-May-20 02:40N 33°37' W 117°55'607936779.4
2017-May-20 02:31N 31°15' E 122°05'398715529.2
2017-May-20 02:30N 37°50' E 121°16'389466862.7
2017-May-20 02:30N 31°22' E 121°40'2544327.2
2017-May-20 02:30N 31°04' E 122°01'38987625.7
2017-May-20 02:30N 37°33' E 121°23'988118611.7
2017-May-20 02:30N 22°19' E 114°09'6814336018.7
2017-May-20 02:28N 33°37' W 117°55'590229067.3
2017-May-20 02:16N 37°43' E 121°07'1038.0
2017-May-20 02:00N 37°50' E 121°16'389350174.0
2017-May-20 02:00N 31°22' E 121°40'278117.3
2017-May-20 02:00N 31°03' E 122°04'391140715.3
2017-May-20 02:00N 37°33' E 121°23'38016460.3
2017-May-20 01:59N 31°15' E 122°05'3918694.6
2017-May-20 01:56N 37°43' E 121°07'99316168.6
2017-May-20 01:52N 22°19' E 114°09'10022757.6
2017-May-20 01:30N 37°50' E 121°15'389466916.2
2017-May-20 01:30N 31°22' E 121°40'2935386.7
2017-May-20 01:30N 31°02' E 122°06'1323089.3
2017-May-20 01:30N 31°15' E 122°05'39161239.0
2017-May-20 01:30N 37°43' E 121°07'171333.9
2017-May-20 01:29N 37°33' E 121°23'371774.4
2017-May-20 01:00N 31°22' E 121°40'3216496.0
2017-May-20 01:00N 31°00' E 122°09'4061460714.6
2017-May-20 01:00N 37°43' E 121°07'107176.5
2017-May-20 01:00N 37°50' E 121°16'398143118.7
2017-May-20 01:00N 31°15' E 122°05'379124198.1
2017-May-20 01:00N 37°33' E 121°23'98837853.7
2017-May-20 00:58N 22°19' E 114°09'620917824.3
2017-May-20 00:37N 48°32' W 123°00'510444273.8
2017-May-20 00:31N 37°50' E 121°16'389350209.4
2017-May-20 00:30N 31°22' E 121°40'2220121.3
2017-May-20 00:30N 31°15' E 122°05'684492565.3
2017-May-20 00:30N 22°19' E 114°09'62091015999.5
2017-May-20 00:30N 48°32' W 123°00'51139202578.9
2017-May-20 00:30N 37°33' E 121°23'171091.4
2017-May-20 00:29N 37°43' E 121°07'4084966.9
2017-May-20 00:24N 30°58' E 122°11'1744.4
2017-May-20 00:01N 31°15' E 122°05'2240249.1
2017-May-20 00:00N 31°22' E 121°40'37132601.2
2017-May-20 00:00N 37°33' E 121°23'197411.5
2017-May-20 00:00N 37°50' E 121°16'10143.8
2017-May-19 23:55N 37°43' E 121°07'510029140.8
2017-May-19 23:45N 48°39' W 123°18'537522290.9
2017-May-19 23:31N 31°15' E 122°05'379683089.8
2017-May-19 23:30N 37°33' E 121°23'3711336570.7
2017-May-19 23:30N 31°22' E 121°40'389175087.0
2017-May-19 23:30N 37°50' E 121°16'10026103.5
2017-May-19 23:20N 22°19' E 114°09'9933104.4
2017-May-19 23:01N 37°43' E 121°07'39130620.9
2017-May-19 23:01N 31°15' E 122°05'4001441479.6
2017-May-19 23:01N 37°53' E 121°12'392352601.6
2017-May-19 23:00N 31°22' E 121°40'371445530.8
2017-May-19 23:00N 37°33' E 121°23'989148359.7
2017-May-19 23:00N 22°17' E 114°11'993162530.1
2017-May-19 23:00N 37°43' E 121°07'382786.6
2017-May-19 22:30N 31°22' E 121°40'2213390.4
2017-May-19 22:30N 31°15' E 122°05'380455400.4
2017-May-19 22:30N 37°33' E 121°23'262429.8
2017-May-19 22:30N 37°54' E 121°06'11571.8
2017-May-19 22:28N 37°43' E 121°07'1430.0
2017-May-19 22:00N 37°56' E 121°01'396109672.0
2017-May-19 22:00N 31°22' E 121°40'371445538.0
2017-May-19 22:00N 37°33' E 121°23'37914690.1
2017-May-19 21:59N 31°15' E 122°05'68439092.7
2017-May-19 21:58N 22°19' E 114°09'99333084.2
2017-May-19 21:56N 37°43' E 121°07'391926.7
2017-May-19 21:30N 31°15' E 122°05'2240255.8
2017-May-19 21:30N 31°22' E 121°40'398178986.5
2017-May-19 21:30N 37°58' E 120°56'3319874.5
2017-May-19 21:30N 37°33' E 121°23'17519.9
2017-May-19 21:28N 37°43' E 121°07'9938139.1
2017-May-19 21:21N 22°19' E 114°09'10022940.5
2017-May-19 21:01N 37°59' E 120°50'4091471841.0
2017-May-19 21:01N 31°15' E 122°05'2226780.9
2017-May-19 21:00N 31°22' E 121°40'37170347.0
2017-May-19 21:00N 37°33' E 121°23'17354.8
2017-May-19 20:57N 37°43' E 121°07'391876.5
2017-May-19 20:31N 31°15' E 122°05'411739129.6
2017-May-19 20:30N 37°60' E 120°45'4011443441.7
2017-May-19 20:30N 31°22' E 121°40'37153462.8
2017-May-19 20:30N 37°33' E 121°23'172415.0
2017-May-19 20:30N 37°44' E 121°08'9947318.8
2017-May-19 20:21N 22°19' E 114°09'67622314.4
2017-May-19 20:20N 31°22' E 121°39'1 2.5
2017-May-19 20:01N 31°22' E 121°40'4021447599.3
2017-May-19 20:00N 38°01' E 120°39'403483329.9
2017-May-19 20:00N 31°22' E 121°40'225021.4
2017-May-19 20:00N 31°15' E 122°05'39545899.5
2017-May-19 20:00N 37°47' E 121°11'181386.2
2017-May-19 19:59N 37°33' E 121°23'98816549.7
2017-May-19 19:55N 22°19' E 114°09'6761636.6
2017-May-19 19:31N 31°22' E 121°40'1665.0
2017-May-19 19:30N 31°22' E 121°40'404242610.4
2017-May-19 19:30N 38°02' E 120°33'355926.9
2017-May-19 19:30N 37°50' E 121°14'1911262.0
2017-May-19 19:30N 37°33' E 121°23'9887475.2
2017-May-19 19:22N 22°19' E 114°09'6761885.0
2017-May-19 19:00N 31°22' E 121°40'2213392.7
2017-May-19 19:00N 31°15' E 122°05'380195174.7
2017-May-19 19:00N 37°33' E 121°23'5348035.2
2017-May-19 19:00N 38°03' E 120°28'10006414.0
2017-May-19 18:51N 22°19' E 114°09'9992952.1
2017-May-19 18:31N 38°04' E 120°22'407488951.4
2017-May-19 18:30N 31°22' E 121°40'2216068.5
2017-May-19 18:30N 31°15' E 122°05'2383284.6
2017-May-19 18:30N 31°22' E 121°40'37140436.1
2017-May-19 18:30N 37°33' E 121°23'9883322.3
2017-May-19 18:12N 22°19' E 114°09'6843584.9
2017-May-19 18:01N 31°15' E 122°05'2383215.3
2017-May-19 18:00N 31°22' E 121°40'3711334606.1
2017-May-19 18:00N 37°33' E 121°23'3711336657.0
2017-May-19 18:00N 31°22' E 121°40'409210396.4
2017-May-19 18:00N 38°05' E 120°17'9985419.3
2017-May-19 17:49N 22°19' E 114°09'6762161.2
2017-May-19 17:31N 31°22' E 121°40'371166831.2
2017-May-19 17:30N 37°33' E 121°23'371222779.8
2017-May-19 17:30N 31°22' E 121°40'224724.5
2017-May-19 17:30N 31°15' E 122°05'422168738.4
2017-May-19 17:30N 38°06' E 120°11'99815413.5
2017-May-19 17:26N 22°19' E 114°09'6841612.9
2017-May-19 17:01N 31°15' E 122°05'424127163.1
2017-May-19 17:00N 38°07' E 120°06'70253225.2
2017-May-19 17:00N 37°33' E 121°23'37174261.1
2017-May-19 17:00N 31°22' E 121°40'6761482.0
2017-May-19 16:33N 22°19' E 114°09'99728027.6
2017-May-19 16:31N 38°08' E 120°00'415746320.7
2017-May-19 16:30N 31°22' E 121°40'1384.1
2017-May-19 16:30N 31°22' E 121°40'37149432.3
2017-May-19 16:30N 37°33' E 121°23'9889488.5
2017-May-19 16:24N 22°19' E 114°09'6962163818.3
2017-May-19 16:21N 05°16' W 004°02'732921362.8
2017-May-19 16:01N 31°22' E 121°40'4161496948.9
2017-May-19 16:00N 38°09' E 119°54'416499764.3
2017-May-19 16:00N 31°22' E 121°40'222008.1
2017-May-19 16:00N 31°15' E 122°05'37975898.9
2017-May-19 15:59N 37°33' E 121°23'9889123.6
2017-May-19 15:53N 22°19' E 114°09'6962105311.5
2017-May-19 15:49N 05°16' W 004°02'732923768.4
2017-May-19 15:31N 31°22' E 121°40'4181503875.5
2017-May-19 15:30N 38°10' E 119°49'418753108.9
2017-May-19 15:30N 31°22' E 121°40'2240171.3
2017-May-19 15:30N 31°15' E 122°05'38080364.8
2017-May-19 15:30N 37°33' E 121°23'98811441.1
2017-May-19 15:25N 22°19' E 114°09'6962109450.5
2017-May-19 15:21N 05°16' W 004°02'732921345.4
2017-May-19 15:01N 31°22' E 121°40'419754156.7
2017-May-19 15:01N 38°10' E 119°43'420503558.7
2017-May-19 15:00N 31°22' E 121°40'222591.5
2017-May-19 15:00N 31°15' E 122°05'37935952.1
2017-May-19 14:59N 37°33' E 121°23'7269256540.2
2017-May-19 14:58N 05°16' W 004°02'6962114972.6
2017-May-19 14:54N 22°19' E 114°09'681455122.3
2017-May-19 14:47N 33°37' W 117°55'595922253.1
2017-May-19 14:30N 38°11' E 119°37'801078.3
2017-May-19 14:26N 37°51' E 121°15'5891100991.3
2017-May-19 14:23N 33°37' W 117°55'609616588.0
2017-May-19 14:01N 31°22' E 121°40'1736.4
2017-May-19 14:00N 31°22' E 121°40'2211499.8
2017-May-19 14:00N 31°15' E 122°05'37952545.4
2017-May-19 14:00N 37°33' E 121°23'9888985.4
2017-May-19 13:53N 22°19' E 114°09'6761780.3
2017-May-19 13:31N 31°22' E 121°40'11051.2
2017-May-19 13:30N 31°22' E 121°40'227316.2
2017-May-19 13:30N 31°15' E 122°05'379455393.2
2017-May-19 13:30N 37°33' E 121°23'7269594708.4
2017-May-19 13:29N 05°16' W 004°02'6962783253.2
2017-May-19 13:29N 22°19' E 114°09'9943258.2
2017-May-19 13:11N 38°14' E 119°24'4272527.9
2017-May-19 13:01N 31°22' E 121°40'  

Dump ship's entire track history